MYDAX CHILLER For Sector 8 Monochromators  S/N 120-0453             

Key: (Temperatures in Centigrade) 
A) System is ON or OFF
B) Actual Tank Temperature as sensed by the Output RTD                   
C) Set point Temperature 
D) Calculated temperature of the refrigerant line at the suction pressure transducer
E) Pressure in PSIg of the refrigerant line at the suction pressure transducer
F & G) Temperature in the refrigerant line at the Superheat and Condenser RTDs
H) Temperature in the refrigerant line at the Discharge RTD (2-stage design only)
I) Temperature in the refrigerant line at the Subcooler RTD (inactive)
J) Valve drives of evaporator 

----------- DATE ----------: A    B     C     D     E    F    G    H   I J

 last update: Sun Sep 25 10:46:27 PDT 2022
Sun Sep 25 10:46:05 PDT 2022 ON: 20.00 +20.0 19.88 -11.7 31.2 02 0A 272C 091C Alarm State:  0
Sun Sep 25 10:45:04 PDT 2022 ON: 20.00 +20.0 19.88 -11.6 31.2 06 0A 271E 0908 Alarm State:  0
Sun Sep 25 10:44:02 PDT 2022 ON: 20.01 +20.0 19.88 -11.6 31.3 06 0A 280C 091C Alarm State:  0
Sun Sep 25 10:43:01 PDT 2022 ON: 20.00 +20.0 19.87 -11.6 31.3 06 0B 280C 0908 Alarm State:  0
Sun Sep 25 10:41:59 PDT 2022 ON: 20.01 +20.0 19.88 -11.7 31.2 06 0A 2801 091C Alarm State:  0
Sun Sep 25 10:40:58 PDT 2022 ON: 20.01 +20.0 19.88 -11.6 31.2 06 0A 2724 0908 Alarm State:  0
Sun Sep 25 10:39:56 PDT 2022 ON: 20.00 +20.0 19.88 -11.6 31.3 06 0A 271B 091C Alarm State:  0
Sun Sep 25 10:38:55 PDT 2022 ON: 20.00 +20.0 19.88 -11.6 31.3 06 0A 2721 0908 Alarm State:  0
Sun Sep 25 10:37:53 PDT 2022 ON: 20.00 +20.0 19.88 -11.6 31.3 06 0A 2813 091C Alarm State:  0
Sun Sep 25 10:36:52 PDT 2022 ON: 20.00 +20.0 19.87 -11.7 31.2 06 0B 2817 0908 Alarm State:  0
Sun Sep 25 10:35:50 PDT 2022 ON: 20.01 +20.0 19.87 -11.7 31.2 0D 0B 282E 091C Alarm State:  0
Sun Sep 25 10:34:49 PDT 2022 ON: 20.00 +20.0 19.87 -11.6 31.3 06 0B 2905 0908 Alarm State:  0
Sun Sep 25 10:33:47 PDT 2022 ON: 20.00 +20.0 19.87 -11.7 31.2 06 0B 290A 091C Alarm State:  0
Sun Sep 25 10:32:46 PDT 2022 ON: 20.01 +20.0 19.88 -11.6 31.2 06 0A 2900 0908 Alarm State:  0
Sun Sep 25 10:31:44 PDT 2022 ON: 20.01 +20.0 19.89 -11.5 31.3 0A 0A 2901 091C Alarm State:  0
Sun Sep 25 10:30:43 PDT 2022 ON: 20.00 +20.0 19.88 -11.5 31.4 06 0A 2915 0908 Alarm State:  0
Sun Sep 25 10:29:41 PDT 2022 ON: 20.00 +20.0 19.87 -11.7 31.2 06 0B 292A 091C Alarm State:  0
Sun Sep 25 10:28:40 PDT 2022 ON: 20.01 +20.0 19.88 -11.8 31.2 07 0A 2831 0908 Alarm State:  0
Sun Sep 25 10:27:38 PDT 2022 ON: 20.01 +20.0 19.88 -11.8 31.2 07 0A 2729 091C Alarm State:  0
Sun Sep 25 10:26:37 PDT 2022 ON: 20.00 +20.0 19.88 -11.7 31.2 06 0A 272F 0908 Alarm State:  0
Sun Sep 25 10:25:35 PDT 2022 ON: 20.01 +20.0 19.87 -11.6 31.4 0D 0B 270E 091C Alarm State:  0
Sun Sep 25 10:24:34 PDT 2022 ON: 20.02 +20.0 19.89 -11.8 31.1 02 0A 2603 0908 Alarm State:  0
Sun Sep 25 10:23:32 PDT 2022 ON: 20.02 +20.0 19.89 -12.1 31.1 02 0A 242C 091C Alarm State:  0
Sun Sep 25 10:22:31 PDT 2022 ON: 20.02 +20.0 19.90 -12.1 31.1 0E 09 2321 0908 Alarm State:  0
Sun Sep 25 10:21:29 PDT 2022 ON: 20.02 +20.0 19.90 -12.1 31.1 07 09 2217 091C Alarm State:  0
Sun Sep 25 10:20:28 PDT 2022 ON: 20.01 +20.0 19.88 -12.1 31.1 06 0A 210C 0908 Alarm State:  0
Sun Sep 25 10:19:26 PDT 2022 ON: 20.02 +20.0 19.89 -12.0 31.1 06 0A 2002 091C Alarm State:  0
Sun Sep 25 10:18:24 PDT 2022 ON: 20.02 +20.0 19.89 -12.1 31.1 06 0A 1E2A 0908 Alarm State:  0
Sun Sep 25 10:17:23 PDT 2022 ON: 20.02 +20.0 19.89 -12.1 31.0 0A 0A 1D20 091C Alarm State:  0
Sun Sep 25 10:16:21 PDT 2022 ON: 20.01 +20.0 19.88 -12.1 31.1 0A 0A 1C15 0908 Alarm State:  0
Sun Sep 25 10:15:20 PDT 2022 ON: 20.02 +20.0 19.89 -12.1 31.1 02 0A 1B0B 091C Alarm State:  0
Sun Sep 25 10:14:18 PDT 2022 ON: 20.01 +20.0 19.89 -12.1 31.1 00 0A 1A00 0908 Alarm State:  0
Sun Sep 25 10:13:17 PDT 2022 ON: 20.01 +20.0 19.89 -12.1 31.1 06 0A 1829 091C Alarm State:  0
Sun Sep 25 10:12:15 PDT 2022 ON: 20.02 +20.0 19.89 -12.1 31.1 0D 0A 171E 0908 Alarm State:  0
Sun Sep 25 10:11:14 PDT 2022 ON: 20.02 +20.0 19.89 -12.1 31.1 06 0A 1614 091C Alarm State:  0
Sun Sep 25 10:10:12 PDT 2022 ON: 20.02 +20.0 19.89 -12.1 31.1 06 0A 1509 0908 Alarm State:  0
Sun Sep 25 10:09:11 PDT 2022 ON: 20.02 +20.0 19.89 -12.1 31.1 06 0A 1332 091C Alarm State:  0
Sun Sep 25 10:08:09 PDT 2022 ON: 20.01 +20.0 19.88 -12.1 31.1 06 0A 1227 0908 Alarm State:  0
Sun Sep 25 10:07:08 PDT 2022 ON: 20.02 +20.0 19.89 -12.2 31.0 06 0A 111D 091C Alarm State:  0
Sun Sep 25 10:06:06 PDT 2022 ON: 20.01 +20.0 19.89 -12.2 30.8 0D 0A 1012 0908 Alarm State:  0
Sun Sep 25 10:05:05 PDT 2022 ON: 20.00 +20.0 19.88 -11.8 31.2 0C 0A 0F28 091C Alarm State:  0
Sun Sep 25 10:04:03 PDT 2022 ON: 20.00 +20.0 19.87 -11.5 31.4 00 0B 0F22 0908 Alarm State:  0
Sun Sep 25 10:03:02 PDT 2022 ON: 20.01 +20.0 19.88 -11.7 31.2 08 0A 0E26 091C Alarm State:  0
Sun Sep 25 10:02:00 PDT 2022 ON: 20.03 +20.0 19.91 -13.2 29.2 0B 09 0D1B 0908 Alarm State:  0
Sun Sep 25 10:00:59 PDT 2022 ON: 20.00 +20.0 19.84 -10.4 31.5 02 0C 0C2F 0910 Alarm State:  0
Sun Sep 25 09:59:57 PDT 2022 ON: 20.04 +20.0 19.92 -14.0 28.5 10 08 0B2E 0925 Alarm State:  0
Sun Sep 25 09:58:56 PDT 2022 ON: 20.00 +20.0 19.87 -11.6 31.3 05 0B 0B23 0910 Alarm State:  0
Sun Sep 25 09:57:54 PDT 2022 ON: 20.01 +20.0 19.89 -11.8 31.2 06 0A 0A28 0925 Alarm State:  0
Sun Sep 25 09:56:53 PDT 2022 ON: 20.00 +20.0 19.87 -11.7 31.2 05 0B 0B25 0911 Alarm State:  0
Sun Sep 25 09:55:51 PDT 2022 ON: 20.01 +20.0 19.88 -11.6 31.3 05 0A 0B0C 0925 Alarm State:  0
Sun Sep 25 09:54:50 PDT 2022 ON: 20.00 +20.0 19.88 -11.5 31.3 05 0A 0C0D 090B Alarm State:  0
Sun Sep 25 09:53:48 PDT 2022 ON: 20.00 +20.0 19.88 -11.6 31.3 00 0A 0C26 0915 Alarm State:  0
Sun Sep 25 09:52:47 PDT 2022 ON: 20.00 +20.0 19.88 -11.7 31.2 05 0A 0D1F 0920 Alarm State:  0
Sun Sep 25 09:51:45 PDT 2022 ON: 20.00 +20.0 19.88 -11.7 31.2 05 0A 0E05 0907 Alarm State:  0
Sun Sep 25 09:50:44 PDT 2022 ON: 20.00 +20.0 19.87 -11.6 31.3 05 0B 0F02 0900 Alarm State:  0
Sun Sep 25 09:49:42 PDT 2022 ON: 20.01 +20.0 19.88 -11.6 31.3 05 0A 0F31 0908 Alarm State:  0
Sun Sep 25 09:48:41 PDT 2022 ON: 20.00 +20.0 19.89 -11.6 31.3 0E 0A 100E 090D Alarm State:  0
Sun Sep 25 09:47:39 PDT 2022 ON: 20.00 +20.0 19.87 -11.5 31.3 00 0B 1118 0909 Alarm State:  0
Sun Sep 25 09:46:38 PDT 2022 ON: 20.00 +20.0 19.88 -11.7 31.3 05 0A 121B 0927 Alarm State:  0
Sun Sep 25 09:45:36 PDT 2022 ON: 20.00 +20.0 19.87 -11.6 31.3 05 0B 1307 0912 Alarm State:  0
Sun Sep 25 09:44:35 PDT 2022 ON: 20.00 +20.0 19.87 -11.5 31.4 00 0B 140A 0921 Alarm State:  0
Sun Sep 25 09:43:33 PDT 2022 ON: 20.00 +20.0 19.87 -11.6 31.3 05 0B 142F 090A Alarm State:  0
Sun Sep 25 09:42:32 PDT 2022 ON: 20.00 +20.0 19.87 -11.6 31.3 05 0B 1607 0913 Alarm State:  0
Sun Sep 25 09:41:30 PDT 2022 ON: 20.00 +20.0 19.87 -11.5 31.3 00 0B 1705 0909 Alarm State:  0
Sun Sep 25 09:40:29 PDT 2022 ON: 20.00 +20.0 19.88 -11.4 31.4 06 0A 180E 0918 Alarm State:  0
Sun Sep 25 09:39:27 PDT 2022 ON: 20.01 +20.0 19.87 -11.4 31.4 06 0B 1914 0902 Alarm State:  0
Sun Sep 25 09:38:26 PDT 2022 ON: 20.00 +20.0 19.88 -11.5 31.3 06 0B 1A19 0A07 Alarm State:  0
Sun Sep 25 09:37:24 PDT 2022 ON: 19.99 +20.0 19.87 -11.4 31.3 06 0B 1B1B 0922 Alarm State:  0
Sun Sep 25 09:36:23 PDT 2022 ON: 20.00 +20.0 19.88 -11.5 31.4 06 0A 1C26 0918 Alarm State:  0
Sun Sep 25 09:35:21 PDT 2022 ON: 20.00 +20.0 19.88 -11.5 31.2 06 0A 1D2E 092B Alarm State:  0
Sun Sep 25 09:34:20 PDT 2022 ON: 20.00 +20.0 19.87 -11.4 31.3 00 0B 1F04 0904 Alarm State:  0
Sun Sep 25 09:33:18 PDT 2022 ON: 20.00 +20.0 19.87 -11.4 31.4 06 0B 200E 0917 Alarm State:  0
Sun Sep 25 09:32:17 PDT 2022 ON: 20.00 +20.0 19.87 -11.5 31.3 06 0B 2117 090E Alarm State:  0
Sun Sep 25 09:31:15 PDT 2022 ON: 20.00 +20.0 19.88 -11.6 31.3 06 0A 2221 0922 Alarm State:  0
Sun Sep 25 09:30:14 PDT 2022 ON: 20.00 +20.0 19.88 -11.6 31.2 00 0A 232C 0925 Alarm State:  0
Sun Sep 25 09:29:12 PDT 2022 ON: 20.00 +20.0 19.87 -11.5 31.3 06 0B 2503 091F Alarm State:  0
Sun Sep 25 09:28:11 PDT 2022 ON: 19.99 +20.0 19.87 -11.5 31.3 0D 0B 260E 0909 Alarm State:  0
Sun Sep 25 09:27:09 PDT 2022 ON: 20.00 +20.0 19.88 -11.6 31.2 06 0A 2706 091B Alarm State:  0
Sun Sep 25 09:26:08 PDT 2022 ON: 20.00 +20.0 19.88 -11.7 31.2 0A 0A 2615 0907 Alarm State:  0
Sun Sep 25 09:25:06 PDT 2022 ON: 20.01 +20.0 19.88 -11.7 31.1 02 0A 262C 091B Alarm State:  0
Sun Sep 25 09:24:04 PDT 2022 ON: 20.00 +20.0 19.87 -11.6 31.3 06 0B 262A 0907 Alarm State:  0
Sun Sep 25 09:23:03 PDT 2022 ON: 20.01 +20.0 19.88 -11.6 31.3 06 0A 271E 091B Alarm State:  0
Sun Sep 25 09:22:01 PDT 2022 ON: 20.01 +20.0 19.87 -11.7 31.2 06 0B 2720 0907 Alarm State:  0
Sun Sep 25 09:21:00 PDT 2022 ON: 20.01 +20.0 19.88 -11.7 31.2 06 0A 2705 091B Alarm State:  0
Sun Sep 25 09:19:58 PDT 2022 ON: 20.01 +20.0 19.88 -11.7 31.2 0A 0A 2614 0907 Alarm State:  0
Sun Sep 25 09:18:57 PDT 2022 ON: 20.00 +20.0 19.88 -11.5 31.3 0D 0A 262B 091B Alarm State:  0
Sun Sep 25 09:17:55 PDT 2022 ON: 20.01 +20.0 19.88 -11.5 31.4 06 0A 271C 0907 Alarm State:  0
Sun Sep 25 09:16:54 PDT 2022 ON: 20.00 +20.0 19.87 -11.7 31.2 0A 0B 2626 091B Alarm State:  0
Sun Sep 25 09:15:52 PDT 2022 ON: 20.01 +20.0 19.89 -11.8 31.1 07 0A 2606 0907 Alarm State:  0
Sun Sep 25 09:14:51 PDT 2022 ON: 20.01 +20.0 19.88 -11.5 31.2 00 0A 260B 091B Alarm State:  0
Sun Sep 25 09:13:49 PDT 2022 ON: 20.00 +20.0 19.88 -11.4 31.4 06 0A 2611 0907 Alarm State:  0
Sun Sep 25 09:12:48 PDT 2022 ON: 20.01 +20.0 19.88 -11.7 31.3 06 0A 2630 091B Alarm State:  0
Sun Sep 25 09:11:46 PDT 2022 ON: 20.01 +20.0 19.88 -11.8 31.2 07 0A 2525 0907 Alarm State:  0
Sun Sep 25 09:10:45 PDT 2022 ON: 20.01 +20.0 19.88 -11.8 31.2 07 0A 2504 091B Alarm State:  0
Sun Sep 25 09:09:43 PDT 2022 ON: 20.01 +20.0 19.88 -11.8 31.2 02 0A 232E 0907 Alarm State:  0
Sun Sep 25 09:08:42 PDT 2022 ON: 20.01 +20.0 19.89 -11.9 31.1 06 0A 2224 091B Alarm State:  0
Sun Sep 25 09:07:40 PDT 2022 ON: 20.01 +20.0 19.88 -11.8 31.2 02 0A 2200 0907 Alarm State:  0
Sun Sep 25 09:06:39 PDT 2022 ON: 20.01 +20.0 19.89 -11.9 31.2 0D 0A 211C 091B Alarm State:  0
Sun Sep 25 09:05:37 PDT 2022 ON: 20.01 +20.0 19.88 -11.8 31.2 00 0A 2011 0907 Alarm State:  0
Sun Sep 25 09:04:36 PDT 2022 ON: 20.01 +20.0 19.89 -11.9 31.2 06 0A 1F07 091B Alarm State:  0
Sun Sep 25 09:03:34 PDT 2022 ON: 20.01 +20.0 19.89 -11.8 31.2 02 0A 1E00 0907 Alarm State:  0
Sun Sep 25 09:02:33 PDT 2022 ON: 20.01 +20.0 19.88 -11.7 31.3 06 0A 1D0A 091B Alarm State:  0
Sun Sep 25 09:01:31 PDT 2022 ON: 20.01 +20.0 19.89 -11.9 31.2 06 0A 1C11 0907 Alarm State:  0
Sun Sep 25 09:00:30 PDT 2022 ON: 20.01 +20.0 19.89 -12.0 31.0 06 0A 1B07 091B Alarm State:  0
Sun Sep 25 08:59:28 PDT 2022 ON: 20.00 +20.0 19.87 -11.8 31.1 06 0B 1A0C 0907 Alarm State:  0
Sun Sep 25 08:58:27 PDT 2022 ON: 20.01 +20.0 19.88 -11.6 31.3 06 0A 1A05 091B Alarm State:  0
Sun Sep 25 08:57:25 PDT 2022 ON: 20.01 +20.0 19.88 -11.8 31.2 02 0A 182D 0907 Alarm State:  0
Sun Sep 25 08:56:24 PDT 2022 ON: 20.01 +20.0 19.89 -12.0 31.1 0D 0A 1722 091C Alarm State:  0
Sun Sep 25 08:55:22 PDT 2022 ON: 20.01 +20.0 19.89 -12.0 30.9 0C 0A 1618 0907 Alarm State:  0
Sun Sep 25 08:54:21 PDT 2022 ON: 20.01 +20.0 19.88 -11.6 31.3 05 0A 1612 091C Alarm State:  0
Sun Sep 25 08:53:19 PDT 2022 ON: 20.01 +20.0 19.87 -11.6 31.4 0B 0B 1508 0907 Alarm State:  0
Sun Sep 25 08:52:18 PDT 2022 ON: 20.02 +20.0 19.89 -11.9 31.2 09 0A 1411 091C Alarm State:  0
Sun Sep 25 08:51:16 PDT 2022 ON: 20.02 +20.0 19.89 -12.2 30.8 06 0A 1307 0907 Alarm State:  0
Sun Sep 25 08:50:15 PDT 2022 ON: 20.01 +20.0 19.89 -11.9 30.9 02 0A 112F 091C Alarm State:  0
Sun Sep 25 08:49:13 PDT 2022 ON: 20.00 +20.0 19.88 -11.4 31.3 05 0A 111A 0907 Alarm State:  0
Sun Sep 25 08:48:12 PDT 2022 ON: 20.00 +20.0 19.87 -11.2 31.5 04 0B 1126 091C Alarm State:  0
Sun Sep 25 08:47:10 PDT 2022 ON: 20.02 +20.0 19.88 -11.9 31.1 00 0A 1032 0907 Alarm State:  0
Sun Sep 25 08:46:09 PDT 2022 ON: 20.02 +20.0 19.90 -13.2 29.6 0B 09 0F27 091C Alarm State:  0
Sun Sep 25 08:45:07 PDT 2022 ON: 20.01 +20.0 19.86 -11.0 31.2 01 0B 0E2F 0907 Alarm State:  0
Sun Sep 25 08:44:06 PDT 2022 ON: 20.02 +20.0 19.92 -13.5 29.6 06 08 0D24 091C Alarm State:  0
Sun Sep 25 08:43:04 PDT 2022 ON: 19.99 +20.0 19.88 -11.7 31.4 05 0A 0C28 0907 Alarm State:  0
Sun Sep 25 08:42:03 PDT 2022 ON: 20.00 +20.0 19.88 -11.3 31.4 04 0A 0E00 0916 Alarm State:  0
Sun Sep 25 08:41:01 PDT 2022 ON: 19.99 +20.0 19.87 -11.4 31.3 05 0B 0F00 091C Alarm State:  0
Sun Sep 25 08:40:00 PDT 2022 ON: 20.00 +20.0 19.87 -11.4 31.3 05 0B 100B 0919 Alarm State:  0
Sun Sep 25 08:38:58 PDT 2022 ON: 20.00 +20.0 19.87 -11.4 31.4 05 0B 1113 090D Alarm State:  0
Sun Sep 25 08:37:57 PDT 2022 ON: 20.00 +20.0 19.87 -11.4 31.4 0B 0B 121E 091A Alarm State:  0
Sun Sep 25 08:36:55 PDT 2022 ON: 20.00 +20.0 19.88 -11.4 31.4 05 0A 1328 0914 Alarm State:  0
Sun Sep 25 08:35:54 PDT 2022 ON: 20.00 +20.0 19.87 -11.4 31.3 04 0B 142D 0900 Alarm State:  0
Sun Sep 25 08:34:52 PDT 2022 ON: 20.00 +20.0 19.87 -11.4 31.4 05 0B 1525 0908 Alarm State:  0
Sun Sep 25 08:33:51 PDT 2022 ON: 20.00 +20.0 19.88 -11.3 31.4 07 0A 1630 091B Alarm State:  0
Sun Sep 25 08:32:49 PDT 2022 ON: 20.00 +20.0 19.87 -11.4 31.4 05 0B 1807 0911 Alarm State:  0
Sun Sep 25 08:31:48 PDT 2022 ON: 19.99 +20.0 19.86 -11.3 31.3 04 0B 1912 0914 Alarm State:  0
Sun Sep 25 08:30:46 PDT 2022 ON: 20.00 +20.0 19.88 -11.3 31.4 05 0A 1A1C 091E Alarm State:  0
Sun Sep 25 08:29:45 PDT 2022 ON: 20.00 +20.0 19.86 -11.3 31.4 05 0B 1B27 0917 Alarm State:  0
Sun Sep 25 08:28:43 PDT 2022 ON: 20.00 +20.0 19.88 -11.4 31.4 06 0A 1C31 0902 Alarm State:  0
Sun Sep 25 08:27:42 PDT 2022 ON: 20.00 +20.0 19.88 -11.4 31.3 06 0A 1E09 0903 Alarm State:  0
Sun Sep 25 08:26:40 PDT 2022 ON: 20.00 +20.0 19.87 -11.3 31.4 05 0B 1F13 0909 Alarm State:  0
Sun Sep 25 08:25:39 PDT 2022 ON: 20.00 +20.0 19.86 -11.3 31.4 05 0B 201E 0908 Alarm State:  0
Sun Sep 25 08:24:37 PDT 2022 ON: 20.00 +20.0 19.87 -11.3 31.4 05 0B 211A 091C Alarm State:  0
Sun Sep 25 08:23:35 PDT 2022 ON: 20.00 +20.0 19.87 -11.5 31.3 06 0B 220F 0908 Alarm State:  0
Sun Sep 25 08:22:34 PDT 2022 ON: 20.00 +20.0 19.88 -11.5 31.1 06 0A 2305 0916 Alarm State:  0
Sun Sep 25 08:21:32 PDT 2022 ON: 19.99 +20.0 19.87 -11.2 31.3 05 0B 2410 0911 Alarm State:  0
Sun Sep 25 08:20:31 PDT 2022 ON: 19.99 +20.0 19.86 -10.8 31.6 07 0B 251A 090E Alarm State:  0
Sun Sep 25 08:19:29 PDT 2022 ON: 20.00 +20.0 19.87 -11.1 31.5 00 0B 2625 090F Alarm State:  0
Sun Sep 25 08:18:28 PDT 2022 ON: 20.01 +20.0 19.89 -11.8 31.2 07 0A 252D 0923 Alarm State:  0
Sun Sep 25 08:17:26 PDT 2022 ON: 20.01 +20.0 19.89 -11.8 31.2 00 0A 2422 090F Alarm State:  0
Sun Sep 25 08:16:25 PDT 2022 ON: 20.02 +20.0 19.89 -11.9 31.2 07 0A 231A 0923 Alarm State:  0
Sun Sep 25 08:15:23 PDT 2022 ON: 20.01 +20.0 19.89 -11.9 31.1 10 0A 220F 090F Alarm State:  0
Sun Sep 25 08:14:22 PDT 2022 ON: 20.01 +20.0 19.88 -11.8 31.2 06 0A 2105 0923 Alarm State:  0
Sun Sep 25 08:13:20 PDT 2022 ON: 20.01 +20.0 19.88 -11.8 31.2 06 0A 1F2D 090F Alarm State:  0
Sun Sep 25 08:12:19 PDT 2022 ON: 20.01 +20.0 19.87 -11.9 31.2 0D 0B 1E23 0923 Alarm State:  0
Sun Sep 25 08:11:17 PDT 2022 ON: 20.01 +20.0 19.87 -11.9 31.1 06 0B 1D1C 090F Alarm State:  0
Sun Sep 25 08:10:16 PDT 2022 ON: 20.00 +20.0 19.88 -11.9 31.1 06 0A 1C12 0923 Alarm State:  0
Sun Sep 25 08:09:14 PDT 2022 ON: 20.01 +20.0 19.88 -11.9 31.2 06 0A 1B0B 090F Alarm State:  0
Sun Sep 25 08:08:13 PDT 2022 ON: 20.01 +20.0 19.89 -11.8 31.2 06 0A 1A05 0923 Alarm State:  0
Sun Sep 25 08:07:11 PDT 2022 ON: 20.01 +20.0 19.88 -11.8 31.2 06 0A 182D 090F Alarm State:  0
Sun Sep 25 08:06:10 PDT 2022 ON: 20.01 +20.0 19.88 -11.8 31.2 06 0A 1725 0923 Alarm State:  0
Sun Sep 25 08:05:08 PDT 2022 ON: 20.01 +20.0 19.88 -11.9 31.2 06 0A 161A 090F Alarm State:  0
Sun Sep 25 08:04:07 PDT 2022 ON: 20.01 +20.0 19.89 -11.9 31.2 06 0A 1510 0923 Alarm State:  0
Sun Sep 25 08:03:05 PDT 2022 ON: 20.01 +20.0 19.88 -11.9 31.1 06 0A 1407 090F Alarm State:  0
Sun Sep 25 08:02:04 PDT 2022 ON: 20.00 +20.0 19.88 -11.8 31.2 06 0A 1232 0923 Alarm State:  0
Sun Sep 25 08:01:02 PDT 2022 ON: 20.01 +20.0 19.89 -11.7 31.3 00 0A 122E 090F Alarm State:  0
Sun Sep 25 08:00:01 PDT 2022 ON: 20.01 +20.0 19.88 -11.8 31.2 06 0A 112C 0923 Alarm State:  0
Sun Sep 25 07:58:59 PDT 2022 ON: 20.02 +20.0 19.89 -12.0 31.1 06 0A 1021 090F Alarm State:  0
Sun Sep 25 07:57:58 PDT 2022 ON: 20.01 +20.0 19.88 -12.1 30.8 0C 0A 0F1B 0923 Alarm State:  0
Sun Sep 25 07:56:56 PDT 2022 ON: 20.00 +20.0 19.88 -11.6 31.2 05 0A 0F0F 090F Alarm State:  0
Sun Sep 25 07:55:55 PDT 2022 ON: 20.00 +20.0 19.87 -11.2 31.5 04 0B 0F2E 0923 Alarm State:  0
Sun Sep 25 07:54:53 PDT 2022 ON: 20.02 +20.0 19.88 -11.3 31.3 00 0A 0F1C 090F Alarm State:  0
Sun Sep 25 07:53:52 PDT 2022 ON: 20.03 +20.0 19.91 -12.9 29.5 01 09 0E12 0923 Alarm State:  0
Sun Sep 25 07:52:50 PDT 2022 ON: 20.00 +20.0 19.86 -11.2 31.6 04 0B 0D0F 090F Alarm State:  0
Sun Sep 25 07:51:49 PDT 2022 ON: 20.03 +20.0 19.91 -13.5 28.8 06 09 0C1D 0923 Alarm State:  0
Sun Sep 25 07:50:47 PDT 2022 ON: 20.00 +20.0 19.87 -11.6 31.3 05 0B 0B26 090F Alarm State:  0
Sun Sep 25 07:49:46 PDT 2022 ON: 20.01 +20.0 19.89 -11.7 31.2 05 0A 0B1C 0924 Alarm State:  0
Sun Sep 25 07:48:44 PDT 2022 ON: 20.01 +20.0 19.89 -11.8 31.1 06 0A 0B07 090F Alarm State:  0
Sun Sep 25 07:47:43 PDT 2022 ON: 20.00 +20.0 19.88 -11.6 31.2 05 0A 0B19 0924 Alarm State:  0
Sun Sep 25 07:46:41 PDT 2022 ON: 20.00 +20.0 19.87 -11.4 31.3 05 0B 0C0F 092C Alarm State:  0
Sun Sep 25 07:45:40 PDT 2022 ON: 20.00 +20.0 19.88 -11.4 31.4 05 0A 0D12 0925 Alarm State:  0
Sun Sep 25 07:44:38 PDT 2022 ON: 20.01 +20.0 19.88 -11.4 31.4 05 0A 0E16 090D Alarm State:  0
Sun Sep 25 07:43:37 PDT 2022 ON: 20.00 +20.0 19.88 -11.4 31.4 05 0A 0F15 0906 Alarm State:  0
Sun Sep 25 07:42:35 PDT 2022 ON: 20.00 +20.0 19.87 -11.4 31.4 05 0B 1019 0915 Alarm State:  0
Sun Sep 25 07:41:34 PDT 2022 ON: 19.99 +20.0 19.88 -11.4 31.4 05 0A 111A 090A Alarm State:  0
Sun Sep 25 07:40:32 PDT 2022 ON: 20.00 +20.0 19.87 -11.4 31.4 0B 0B 1218 0923 Alarm State:  0
Sun Sep 25 07:39:31 PDT 2022 ON: 20.00 +20.0 19.88 -11.3 31.4 04 0A 1319 091A Alarm State:  0
Sun Sep 25 07:38:29 PDT 2022 ON: 20.00 +20.0 19.88 -11.4 31.4 05 0A 141D 0910 Alarm State:  0
Sun Sep 25 07:37:28 PDT 2022 ON: 20.00 +20.0 19.87 -11.3 31.4 04 0B 1524 0922 Alarm State:  0
Sun Sep 25 07:36:26 PDT 2022 ON: 20.00 +20.0 19.88 -11.3 31.4 04 0A 1628 0922 Alarm State:  0
Sun Sep 25 07:35:25 PDT 2022 ON: 20.00 +20.0 19.87 -11.4 31.4 05 0B 1731 0901 Alarm State:  0
Sun Sep 25 07:34:23 PDT 2022 ON: 19.99 +20.0 19.87 -11.3 31.4 05 0B 1900 0924 Alarm State:  0
Sun Sep 25 07:33:22 PDT 2022 ON: 20.00 +20.0 19.87 -11.3 31.4 05 0B 1932 091B Alarm State:  0
Sun Sep 25 07:32:20 PDT 2022 ON: 19.99 +20.0 19.86 -11.3 31.4 05 0B 1B07 0919 Alarm State:  0
Sun Sep 25 07:31:19 PDT 2022 ON: 20.00 +20.0 19.88 -11.3 31.4 05 0A 1B23 091E Alarm State:  0
Sun Sep 25 07:30:17 PDT 2022 ON: 19.99 +20.0 19.88 -11.3 31.4 05 0B 1C2D 0A0C Alarm State:  0
Sun Sep 25 07:29:16 PDT 2022 ON: 20.00 +20.0 19.86 -11.3 31.4 05 0B 1D32 091F Alarm State:  0
Sun Sep 25 07:28:14 PDT 2022 ON: 20.00 +20.0 19.87 -11.3 31.4 05 0B 1F07 0921 Alarm State:  0
Sun Sep 25 07:27:13 PDT 2022 ON: 19.99 +20.0 19.87 -11.2 31.4 05 0B 2008 0930 Alarm State:  0
Sun Sep 25 07:26:11 PDT 2022 ON: 20.00 +20.0 19.87 -11.2 31.5 05 0B 2112 0912 Alarm State:  0
Sun Sep 25 07:25:09 PDT 2022 ON: 20.00 +20.0 19.87 -11.3 31.4 0B 0B 221D 0901 Alarm State:  0
Sun Sep 25 07:24:08 PDT 2022 ON: 19.99 +20.0 19.88 -11.3 31.4 05 0B 2327 0A15 Alarm State:  0
Sun Sep 25 07:23:06 PDT 2022 ON: 20.00 +20.0 19.87 -11.4 31.3 05 0B 2432 0912 Alarm State:  0
Sun Sep 25 07:22:05 PDT 2022 ON: 19.99 +20.0 19.87 -11.2 31.4 01 0B 2609 0908 Alarm State:  0
Sun Sep 25 07:21:03 PDT 2022 ON: 20.00 +20.0 19.87 -11.1 31.5 06 0B 2714 0910 Alarm State:  0
Sun Sep 25 07:20:02 PDT 2022 ON: 20.00 +20.0 19.87 -11.3 31.4 00 0B 281E 091C Alarm State:  0
Sun Sep 25 07:19:00 PDT 2022 ON: 20.00 +20.0 19.88 -11.6 31.2 06 0A 2830 0908 Alarm State:  0
Sun Sep 25 07:17:59 PDT 2022 ON: 20.00 +20.0 19.87 -11.6 31.1 06 0B 2A07 0918 Alarm State:  0
Sun Sep 25 07:16:57 PDT 2022 ON: 20.00 +20.0 19.88 -11.2 31.4 06 0A 2B04 0929 Alarm State:  0
Sun Sep 25 07:15:56 PDT 2022 ON: 20.00 +20.0 19.87 -10.9 31.6 05 0B 2C0E 0909 Alarm State:  0
Sun Sep 25 07:14:54 PDT 2022 ON: 20.00 +20.0 19.87 -11.4 31.3 00 0B 2D17 091E Alarm State:  0
Sun Sep 25 07:13:53 PDT 2022 ON: 20.00 +20.0 19.88 -11.6 31.3 0A 0A 2C23 0909 Alarm State:  0
Sun Sep 25 07:12:51 PDT 2022 ON: 20.01 +20.0 19.88 -11.6 31.2 0E 0A 2C0F 091E Alarm State:  0
Sun Sep 25 07:11:50 PDT 2022 ON: 20.01 +20.0 19.88 -11.6 31.3 07 0A 2C28 0909 Alarm State:  0
Sun Sep 25 07:10:48 PDT 2022 ON: 20.01 +20.0 19.88 -11.6 31.2 06 0A 2B25 091E Alarm State:  0
Sun Sep 25 07:09:47 PDT 2022 ON: 20.01 +20.0 19.88 -11.7 31.3 02 0A 2C05 0909 Alarm State:  0
Sun Sep 25 07:08:45 PDT 2022 ON: 20.00 +20.0 19.88 -11.6 31.3 06 0A 2B24 091E Alarm State:  0
Sun Sep 25 07:07:44 PDT 2022 ON: 20.00 +20.0 19.88 -11.7 31.2 06 0A 2B29 0909 Alarm State:  0
Sun Sep 25 07:06:42 PDT 2022 ON: 20.00 +20.0 19.87 -11.6 31.2 06 0B 2C2A 091E Alarm State:  0
Sun Sep 25 07:05:41 PDT 2022 ON: 20.00 +20.0 19.87 -11.6 31.3 06 0B 2C2F 0909 Alarm State:  0
Sun Sep 25 07:04:39 PDT 2022 ON: 20.00 +20.0 19.87 -11.7 31.2 0E 0B 2D04 091E Alarm State:  0
Sun Sep 25 07:03:38 PDT 2022 ON: 20.00 +20.0 19.88 -11.6 31.3 00 0A 2C14 0909 Alarm State:  0
Sun Sep 25 07:02:36 PDT 2022 ON: 20.00 +20.0 19.88 -11.6 31.3 07 0A 2C0E 091E Alarm State:  0
Sun Sep 25 07:01:35 PDT 2022 ON: 20.01 +20.0 19.88 -11.7 31.2 06 0A 2B20 0909 Alarm State:  0
Sun Sep 25 07:00:33 PDT 2022 ON: 20.01 +20.0 19.87 -11.7 31.2 06 0B 2A1F 091E Alarm State:  0
Sun Sep 25 06:59:32 PDT 2022 ON: 20.00 +20.0 19.87 -11.6 31.2 06 0B 2929 0909 Alarm State:  0
Sun Sep 25 06:58:30 PDT 2022 ON: 20.01 +20.0 19.88 -11.5 31.4 06 0A 2929 091E Alarm State:  0
Sun Sep 25 06:57:29 PDT 2022 ON: 20.00 +20.0 19.88 -11.6 31.3 06 0A 2914 0909 Alarm State:  0
Sun Sep 25 06:56:27 PDT 2022 ON: 20.01 +20.0 19.89 -11.8 31.1 07 0A 280B 091E Alarm State:  0
Sun Sep 25 06:55:26 PDT 2022 ON: 20.00 +20.0 19.87 -11.8 31.0 07 0B 2711 0909 Alarm State:  0
Sun Sep 25 06:54:24 PDT 2022 ON: 20.01 +20.0 19.88 -11.5 31.3 06 0A 2701 091E Alarm State:  0
Sun Sep 25 06:53:23 PDT 2022 ON: 20.01 +20.0 19.87 -11.4 31.4 06 0B 2716 0909 Alarm State:  0
Sun Sep 25 06:52:21 PDT 2022 ON: 20.01 +20.0 19.88 -11.6 31.2 06 0A 261B 091E Alarm State:  0
Sun Sep 25 06:51:20 PDT 2022 ON: 20.01 +20.0 19.88 -11.8 31.2 07 0A 2511 0909 Alarm State:  0
Sun Sep 25 06:50:18 PDT 2022 ON: 20.01 +20.0 19.88 -11.9 31.2 07 0A 2406 091E Alarm State:  0
Sun Sep 25 06:49:17 PDT 2022 ON: 20.02 +20.0 19.89 -11.9 31.1 06 0A 222F 0909 Alarm State:  0
Sun Sep 25 06:48:15 PDT 2022 ON: 20.01 +20.0 19.88 -11.9 31.2 06 0A 2124 091E Alarm State:  0
Sun Sep 25 06:47:14 PDT 2022 ON: 20.01 +20.0 19.88 -11.9 31.2 06 0A 2019 090A Alarm State:  0
Sun Sep 25 06:46:12 PDT 2022 ON: 20.01 +20.0 19.87 -11.9 31.2 06 0B 1F0F 091E Alarm State:  0
Sun Sep 25 06:45:11 PDT 2022 ON: 20.02 +20.0 19.89 -11.9 31.2 06 0A 1E04 090A Alarm State:  0
Sun Sep 25 06:44:09 PDT 2022 ON: 20.02 +20.0 19.88 -11.9 31.1 06 0A 1C2D 091E Alarm State:  0
Sun Sep 25 06:43:08 PDT 2022 ON: 20.01 +20.0 19.88 -11.9 31.1 00 0A 1B22 090A Alarm State:  0
Sun Sep 25 06:42:06 PDT 2022 ON: 20.01 +20.0 19.88 -11.8 31.2 0D 0A 1A18 091E Alarm State:  0
Sun Sep 25 06:41:05 PDT 2022 ON: 20.01 +20.0 19.88 -11.8 31.2 06 0A 190D 090A Alarm State:  0
Sun Sep 25 06:40:03 PDT 2022 ON: 20.02 +20.0 19.88 -12.0 31.1 06 0A 1803 091E Alarm State:  0
Sun Sep 25 06:39:02 PDT 2022 ON: 20.01 +20.0 19.88 -12.0 31.0 06 0A 162B 090A Alarm State:  0
Sun Sep 25 06:38:00 PDT 2022 ON: 20.01 +20.0 19.88 -11.8 31.2 06 0A 1521 091E Alarm State:  0
Sun Sep 25 06:36:59 PDT 2022 ON: 20.01 +20.0 19.88 -11.7 31.3 05 0A 1424 090A Alarm State:  0
Sun Sep 25 06:35:57 PDT 2022 ON: 20.02 +20.0 19.89 -11.9 31.2 0C 0A 131A 091E Alarm State:  0
Sun Sep 25 06:34:56 PDT 2022 ON: 20.01 +20.0 19.89 -12.2 30.9 06 0A 120F 090A Alarm State:  0
Sun Sep 25 06:33:54 PDT 2022 ON: 20.01 +20.0 19.89 -12.1 30.8 06 0A 1105 091E Alarm State:  0
Sun Sep 25 06:32:53 PDT 2022 ON: 20.01 +20.0 19.89 -11.5 31.3 02 0A 101A 090A Alarm State:  0
Sun Sep 25 06:31:51 PDT 2022 ON: 20.00 +20.0 19.88 -11.3 31.5 04 0A 1116 091E Alarm State:  0
Sun Sep 25 06:30:50 PDT 2022 ON: 20.02 +20.0 19.88 -11.6 31.2 08 0A 1021 090A Alarm State:  0
Sun Sep 25 06:29:48 PDT 2022 ON: 20.03 +20.0 19.91 -13.0 29.5 00 09 0F17 091E Alarm State:  0
Sun Sep 25 06:28:47 PDT 2022 ON: 20.01 +20.0 19.86 -10.5 31.5 02 0B 0E1E 090A Alarm State:  0
Sun Sep 25 06:27:45 PDT 2022 ON: 20.03 +20.0 19.91 -13.3 29.3 08 09 0D16 091E Alarm State:  0
Sun Sep 25 06:26:43 PDT 2022 ON: 20.01 +20.0 19.89 -12.3 31.2 0A 0A 0C0B 090A Alarm State:  0
Sun Sep 25 06:25:42 PDT 2022 ON: 20.00 +20.0 19.88 -11.6 31.3 05 0A 0C12 091E Alarm State:  0
Sun Sep 25 06:24:40 PDT 2022 ON: 20.00 +20.0 19.88 -11.6 31.3 05 0A 0D0B 0908 Alarm State:  0
Sun Sep 25 06:23:39 PDT 2022 ON: 20.01 +20.0 19.88 -11.6 31.3 05 0A 0D24 091C Alarm State:  0
Sun Sep 25 06:22:37 PDT 2022 ON: 20.00 +20.0 19.88 -11.6 31.3 05 0A 0C25 0908 Alarm State:  0
Sun Sep 25 06:21:36 PDT 2022 ON: 20.00 +20.0 19.88 -11.6 31.3 05 0A 0D2F 091C Alarm State:  0
Sun Sep 25 06:20:34 PDT 2022 ON: 20.01 +20.0 19.87 -11.6 31.3 05 0B 0E0E 0908 Alarm State:  0
Sun Sep 25 06:19:33 PDT 2022 ON: 20.01 +20.0 19.88 -11.6 31.3 05 0A 0E2D 091C Alarm State:  0
Sun Sep 25 06:18:31 PDT 2022 ON: 20.01 +20.0 19.89 -11.5 31.3 00 0A 0E11 0908 Alarm State:  0
Sun Sep 25 06:17:30 PDT 2022 ON: 20.00 +20.0 19.87 -11.5 31.3 00 0B 0F13 091C Alarm State:  0
Sun Sep 25 06:16:28 PDT 2022 ON: 20.00 +20.0 19.87 -11.6 31.3 05 0B 0F1B 0908 Alarm State:  0
Sun Sep 25 06:15:27 PDT 2022 ON: 20.00 +20.0 19.87 -11.6 31.3 05 0B 101B 091C Alarm State:  0
Sun Sep 25 06:14:25 PDT 2022 ON: 20.01 +20.0 19.88 -11.6 31.2 05 0A 0F26 0908 Alarm State:  0
Sun Sep 25 06:13:24 PDT 2022 ON: 20.00 +20.0 19.87 -11.5 31.3 08 0B 100E 091C Alarm State:  0
Sun Sep 25 06:12:22 PDT 2022 ON: 20.00 +20.0 19.89 -11.6 31.3 08 0A 1010 0908 Alarm State:  0
Sun Sep 25 06:11:21 PDT 2022 ON: 20.00 +20.0 19.87 -11.6 31.3 0B 0B 1116 091C Alarm State:  0
Sun Sep 25 06:10:19 PDT 2022 ON: 20.01 +20.0 19.88 -11.6 31.3 08 0A 1130 0908 Alarm State:  0
Sun Sep 25 06:09:18 PDT 2022 ON: 20.00 +20.0 19.88 -11.6 31.3 05 0A 1206 091C Alarm State:  0
Sun Sep 25 06:08:16 PDT 2022 ON: 20.01 +20.0 19.88 -11.5 31.3 02 0A 1210 0906 Alarm State:  0
Sun Sep 25 06:07:15 PDT 2022 ON: 20.01 +20.0 19.88 -11.6 31.3 05 0A 1217 091A Alarm State:  0
Sun Sep 25 06:06:13 PDT 2022 ON: 20.00 +20.0 19.88 -11.6 31.3 05 0A 1308 0906 Alarm State:  0
Sun Sep 25 06:05:12 PDT 2022 ON: 20.01 +20.0 19.88 -11.5 31.3 05 0A 122E 091A Alarm State:  0
Sun Sep 25 06:04:10 PDT 2022 ON: 20.01 +20.0 19.87 -11.6 31.3 0B 0B 1325 0906 Alarm State:  0
Sun Sep 25 06:03:09 PDT 2022 ON: 20.00 +20.0 19.87 -11.6 31.3 05 0B 141B 091A Alarm State:  0
Sun Sep 25 06:02:07 PDT 2022 ON: 20.00 +20.0 19.87 -11.6 31.3 0B 0B 1407 0906 Alarm State:  0
Sun Sep 25 06:01:06 PDT 2022 ON: 20.01 +20.0 19.88 -11.5 31.3 05 0A 140E 091A Alarm State:  0
Sun Sep 25 06:00:04 PDT 2022 ON: 20.00 +20.0 19.88 -11.5 31.3 05 0A 1503 0906 Alarm State:  0
Sun Sep 25 05:59:03 PDT 2022 ON: 20.00 +20.0 19.87 -11.5 31.3 05 0B 1601 091A Alarm State:  0
Sun Sep 25 05:58:01 PDT 2022 ON: 20.01 +20.0 19.88 -11.6 31.3 08 0A 1605 0906 Alarm State:  0
Sun Sep 25 05:57:00 PDT 2022 ON: 20.00 +20.0 19.89 -11.6 31.3 05 0A 1616 091A Alarm State:  0
Sun Sep 25 05:55:58 PDT 2022 ON: 20.01 +20.0 19.88 -11.5 31.3 05 0A 170B 0906 Alarm State:  0
Sun Sep 25 05:54:57 PDT 2022 ON: 20.00 +20.0 19.87 -11.5 31.3 05 0B 1801 091A Alarm State:  0
Sun Sep 25 05:53:55 PDT 2022 ON: 20.00 +20.0 19.87 -11.5 31.3 00 0B 190A 0906 Alarm State:  0
Sun Sep 25 05:52:54 PDT 2022 ON: 20.00 +20.0 19.88 -11.5 31.3 06 0A 1929 091A Alarm State:  0
Sun Sep 25 05:51:52 PDT 2022 ON: 20.00 +20.0 19.88 -11.5 31.3 00 0A 1A28 0902 Alarm State:  0
Sun Sep 25 05:50:51 PDT 2022 ON: 20.01 +20.0 19.88 -11.6 31.3 06 0A 1A27 0916 Alarm State:  0
Sun Sep 25 05:49:49 PDT 2022 ON: 20.00 +20.0 19.87 -11.6 31.3 06 0B 1B10 0902 Alarm State:  0
Sun Sep 25 05:48:48 PDT 2022 ON: 20.00 +20.0 19.87 -11.5 31.3 09 0B 1B26 0917 Alarm State:  0
Sun Sep 25 05:47:46 PDT 2022 ON: 20.01 +20.0 19.88 -11.5 31.4 06 0A 1C0C 0902 Alarm State:  0
Sun Sep 25 05:46:45 PDT 2022 ON: 20.00 +20.0 19.88 -11.5 31.4 00 0A 1C32 0915 Alarm State:  0
Sun Sep 25 05:45:43 PDT 2022 ON: 20.00 +20.0 19.87 -11.5 31.3 00 0B 1E09 0929 Alarm State:  0
Sun Sep 25 05:44:42 PDT 2022 ON: 20.00 +20.0 19.88 -11.5 31.3 06 0A 1F14 0922 Alarm State:  0
Sun Sep 25 05:43:40 PDT 2022 ON: 20.00 +20.0 19.88 -11.5 31.3 06 0A 200C 090D Alarm State:  0
Sun Sep 25 05:42:39 PDT 2022 ON: 20.00 +20.0 19.88 -11.5 31.3 02 0A 2117 0922 Alarm State:  0
Sun Sep 25 05:41:37 PDT 2022 ON: 20.00 +20.0 19.87 -11.4 31.4 06 0B 2221 090D Alarm State:  0
Sun Sep 25 05:40:36 PDT 2022 ON: 20.00 +20.0 19.87 -11.5 31.3 06 0B 2320 091A Alarm State:  0
Sun Sep 25 05:39:34 PDT 2022 ON: 20.01 +20.0 19.88 -11.6 31.2 06 0A 240E 0928 Alarm State:  0
Sun Sep 25 05:38:33 PDT 2022 ON: 20.01 +20.0 19.88 -11.7 31.0 06 0A 2507 0914 Alarm State:  0
Sun Sep 25 05:37:31 PDT 2022 ON: 20.01 +20.0 19.89 -11.3 31.3 06 0A 2506 0928 Alarm State:  0
Sun Sep 25 05:36:30 PDT 2022 ON: 19.99 +20.0 19.87 -11.0 31.6 06 0B 2601 0931 Alarm State:  0
Sun Sep 25 05:35:28 PDT 2022 ON: 20.00 +20.0 19.86 -10.9 31.6 05 0B 2703 0907 Alarm State:  0
Sun Sep 25 05:34:26 PDT 2022 ON: 20.02 +20.0 19.89 -12.1 31.1 07 0A 252F 091C Alarm State:  0
Sun Sep 25 05:33:25 PDT 2022 ON: 20.01 +20.0 19.88 -12.1 31.1 00 0A 2425 0907 Alarm State:  0
Sun Sep 25 05:32:23 PDT 2022 ON: 20.02 +20.0 19.89 -12.1 31.1 07 0A 231A 091C Alarm State:  0
Sun Sep 25 05:31:22 PDT 2022 ON: 20.01 +20.0 19.88 -12.1 31.1 02 0A 2210 0907 Alarm State:  0
Sun Sep 25 05:30:20 PDT 2022 ON: 20.01 +20.0 19.89 -12.1 31.1 06 0A 2105 091C Alarm State:  0
Sun Sep 25 05:29:19 PDT 2022 ON: 20.03 +20.0 19.90 -12.1 31.1 06 09 1F2E 0907 Alarm State:  0
Sun Sep 25 05:28:17 PDT 2022 ON: 20.02 +20.0 19.90 -12.1 31.1 06 09 1E23 091C Alarm State:  0
Sun Sep 25 05:27:16 PDT 2022 ON: 20.02 +20.0 19.89 -12.1 31.0 10 0A 1D19 0907 Alarm State:  0
Sun Sep 25 05:26:14 PDT 2022 ON: 20.02 +20.0 19.89 -12.1 31.1 0D 0A 1C0E 091C Alarm State:  0
Sun Sep 25 05:25:13 PDT 2022 ON: 20.01 +20.0 19.89 -12.1 31.1 06 0A 1B04 0907 Alarm State:  0
Sun Sep 25 05:24:11 PDT 2022 ON: 20.01 +20.0 19.89 -12.1 31.1 06 0A 192C 091C Alarm State:  0
Sun Sep 25 05:23:10 PDT 2022 ON: 20.01 +20.0 19.88 -12.1 31.1 06 0A 1822 0907 Alarm State:  0
Sun Sep 25 05:22:08 PDT 2022 ON: 20.02 +20.0 19.89 -12.1 31.0 06 0A 1717 091C Alarm State:  0
Sun Sep 25 05:21:07 PDT 2022 ON: 20.02 +20.0 19.89 -12.0 31.1 0C 0A 160F 0907 Alarm State:  0
Sun Sep 25 05:20:05 PDT 2022 ON: 20.02 +20.0 19.89 -12.1 31.1 06 0A 1504 091C Alarm State:  0
Sun Sep 25 05:19:04 PDT 2022 ON: 20.01 +20.0 19.89 -12.1 31.1 00 0A 132D 0907 Alarm State:  0
Sun Sep 25 05:18:02 PDT 2022 ON: 20.01 +20.0 19.87 -12.2 30.9 06 0B 1222 091C Alarm State:  0
Sun Sep 25 05:17:00 PDT 2022 ON: 20.00 +20.0 19.89 -12.0 31.1 00 0A 1213 0907 Alarm State:  0
Sun Sep 25 05:15:59 PDT 2022 ON: 20.01 +20.0 19.88 -11.7 31.3 00 0A 112D 091D Alarm State:  0
Sun Sep 25 05:14:57 PDT 2022 ON: 20.01 +20.0 19.88 -11.9 31.2 06 0A 1027 0908 Alarm State:  0
Sun Sep 25 05:13:56 PDT 2022 ON: 20.01 +20.0 19.89 -12.6 30.6 0A 0A 0F1C 091D Alarm State:  0
Sun Sep 25 05:12:54 PDT 2022 ON: 20.01 +20.0 19.89 -12.5 30.4 0D 0A 0E14 0908 Alarm State:  0
Sun Sep 25 05:11:53 PDT 2022 ON: 19.99 +20.0 19.85 -10.9 31.6 03 0C 0F11 0912 Alarm State:  0
Sun Sep 25 05:10:51 PDT 2022 ON: 20.01 +20.0 19.88 -11.5 31.1 02 0A 1005 0923 Alarm State:  0
Sun Sep 25 05:09:50 PDT 2022 ON: 20.02 +20.0 19.90 -13.2 29.5 0B 09 0E2D 090F Alarm State:  0
Sun Sep 25 05:08:48 PDT 2022 ON: 20.02 +20.0 19.86 -11.2 30.9 00 0B 0E2A 090E Alarm State:  0
Sun Sep 25 05:07:46 PDT 2022 ON: 20.01 +20.0 19.90 -13.2 29.7 0B 09 0D1F 0923 Alarm State:  0
Sun Sep 25 05:06:45 PDT 2022 ON: 20.00 +20.0 19.87 -11.3 31.4 04 0B 0E0F 0915 Alarm State:  0
Sun Sep 25 05:05:43 PDT 2022 ON: 20.00 +20.0 19.87 -11.3 31.4 04 0B 0F1A 0924 Alarm State:  0
Sun Sep 25 05:04:42 PDT 2022 ON: 20.00 +20.0 19.88 -11.4 31.3 05 0A 1024 090D Alarm State:  0
Sun Sep 25 05:03:40 PDT 2022 ON: 20.00 +20.0 19.87 -11.4 31.3 05 0B 112F 0922 Alarm State:  0
Sun Sep 25 05:02:39 PDT 2022 ON: 20.00 +20.0 19.87 -11.4 31.4 05 0B 1306 090D Alarm State:  0
Sun Sep 25 05:01:37 PDT 2022 ON: 20.00 +20.0 19.88 -11.5 31.3 05 0A 1308 0922 Alarm State:  0
Sun Sep 25 05:00:36 PDT 2022 ON: 20.00 +20.0 19.87 -11.5 31.3 05 0B 1412 090D Alarm State:  0
Sun Sep 25 04:59:34 PDT 2022 ON: 20.00 +20.0 19.87 -11.5 31.3 05 0B 1507 0922 Alarm State:  0
Sun Sep 25 04:58:33 PDT 2022 ON: 20.00 +20.0 19.88 -11.4 31.4 00 0A 1508 090D Alarm State:  0
Sun Sep 25 04:57:31 PDT 2022 ON: 20.00 +20.0 19.87 -11.5 31.4 05 0B 1613 091E Alarm State:  0
Sun Sep 25 04:56:30 PDT 2022 ON: 20.00 +20.0 19.88 -11.5 31.3 05 0A 1701 0909 Alarm State:  0
Sun Sep 25 04:55:28 PDT 2022 ON: 20.00 +20.0 19.88 -11.5 31.3 0E 0A 1731 091E Alarm State:  0
Sun Sep 25 04:54:27 PDT 2022 ON: 20.00 +20.0 19.87 -11.4 31.3 05 0B 182B 0909 Alarm State:  0
Sun Sep 25 04:53:25 PDT 2022 ON: 20.00 +20.0 19.87 -11.4 31.4 00 0B 1928 091E Alarm State:  0
Sun Sep 25 04:52:24 PDT 2022 ON: 20.00 +20.0 19.88 -11.5 31.3 0F 0A 1A32 0920 Alarm State:  0
Sun Sep 25 04:51:22 PDT 2022 ON: 20.00 +20.0 19.87 -11.5 31.3 00 0B 1B31 090C Alarm State:  0
Sun Sep 25 04:50:21 PDT 2022 ON: 20.00 +20.0 19.88 -11.4 31.3 00 0A 1C2F 0920 Alarm State:  0
Sun Sep 25 04:49:19 PDT 2022 ON: 20.00 +20.0 19.87 -11.4 31.4 00 0B 1D0E 090A Alarm State:  0
Sun Sep 25 04:48:18 PDT 2022 ON: 20.00 +20.0 19.87 -11.6 31.2 06 0B 1D27 091E Alarm State:  0
Sun Sep 25 04:47:16 PDT 2022 ON: 20.00 +20.0 19.87 -11.5 31.2 06 0B 1E0E 090A Alarm State:  0
Sun Sep 25 04:46:15 PDT 2022 ON: 20.01 +20.0 19.88 -11.4 31.4 0C 0A 1F16 091C Alarm State:  0
Sun Sep 25 04:45:13 PDT 2022 ON: 20.00 +20.0 19.87 -11.3 31.4 05 0B 200F 0908 Alarm State:  0
Sun Sep 25 04:44:12 PDT 2022 ON: 20.00 +20.0 19.87 -11.4 31.3 06 0B 210B 091C Alarm State:  0
Sun Sep 25 04:43:10 PDT 2022 ON: 20.01 +20.0 19.87 -11.6 31.2 06 0B 2111 0908 Alarm State:  0
Sun Sep 25 04:42:09 PDT 2022 ON: 19.99 +20.0 19.88 -11.6 31.2 06 0A 2120 091A Alarm State:  0
Sun Sep 25 04:41:07 PDT 2022 ON: 20.00 +20.0 19.88 -11.3 31.4 0E 0A 222B 0904 Alarm State:  0
Sun Sep 25 04:40:06 PDT 2022 ON: 20.00 +20.0 19.87 -11.1 31.5 08 0B 2402 0918 Alarm State:  0
Sun Sep 25 04:39:04 PDT 2022 ON: 20.01 +20.0 19.88 -11.3 31.4 00 0A 241C 0904 Alarm State:  0
Sun Sep 25 04:38:03 PDT 2022 ON: 20.00 +20.0 19.88 -11.7 31.1 06 0A 250A 0918 Alarm State:  0
Sun Sep 25 04:37:01 PDT 2022 ON: 20.00 +20.0 19.87 -11.7 31.0 06 0B 2613 0904 Alarm State:  0
Sun Sep 25 04:36:00 PDT 2022 ON: 20.00 +20.0 19.86 -11.1 31.4 06 0B 271D 0910 Alarm State:  0
Sun Sep 25 04:34:58 PDT 2022 ON: 20.00 +20.0 19.87 -10.9 31.6 05 0B 2828 091F Alarm State:  0
Sun Sep 25 04:33:57 PDT 2022 ON: 20.01 +20.0 19.88 -11.5 31.3 00 0A 2825 090A Alarm State:  0
Sun Sep 25 04:32:55 PDT 2022 ON: 20.01 +20.0 19.88 -11.9 31.1 07 0A 2811 091F Alarm State:  0
Sun Sep 25 04:31:54 PDT 2022 ON: 20.01 +20.0 19.87 -11.7 31.2 02 0B 2713 090A Alarm State:  0
Sun Sep 25 04:30:52 PDT 2022 ON: 20.01 +20.0 19.89 -11.5 31.4 06 0A 2709 091F Alarm State:  0
Sun Sep 25 04:29:51 PDT 2022 ON: 20.02 +20.0 19.88 -11.7 31.2 06 0A 262B 090A Alarm State:  0
Sun Sep 25 04:28:49 PDT 2022 ON: 20.01 +20.0 19.88 -11.9 31.2 07 0A 2520 091F Alarm State:  0
Sun Sep 25 04:27:48 PDT 2022 ON: 20.02 +20.0 19.89 -11.9 31.2 07 0A 2416 090A Alarm State:  0
Sun Sep 25 04:26:46 PDT 2022 ON: 20.01 +20.0 19.88 -12.0 31.1 06 0A 230B 091F Alarm State:  0
Sun Sep 25 04:25:45 PDT 2022 ON: 20.01 +20.0 19.88 -12.0 31.0 06 0A 2201 090A Alarm State:  0
Sun Sep 25 04:24:43 PDT 2022 ON: 20.01 +20.0 19.89 -11.9 31.2 02 0A 2029 091F Alarm State:  0
Sun Sep 25 04:23:42 PDT 2022 ON: 20.01 +20.0 19.88 -11.8 31.2 06 0A 1F1F 090A Alarm State:  0
Sun Sep 25 04:22:40 PDT 2022 ON: 20.01 +20.0 19.88 -11.9 31.2 06 0A 1E14 091F Alarm State:  0
Sun Sep 25 04:21:39 PDT 2022 ON: 20.01 +20.0 19.89 -12.0 31.1 06 0A 1D0A 090A Alarm State:  0
Sun Sep 25 04:20:37 PDT 2022 ON: 20.01 +20.0 19.88 -12.0 31.1 02 0A 1C0D 091F Alarm State:  0
Sun Sep 25 04:19:36 PDT 2022 ON: 20.01 +20.0 19.88 -11.8 31.2 02 0A 1B03 090A Alarm State:  0
Sun Sep 25 04:18:34 PDT 2022 ON: 20.01 +20.0 19.88 -11.8 31.2 06 0A 192D 091F Alarm State:  0
Sun Sep 25 04:17:33 PDT 2022 ON: 20.02 +20.0 19.89 -12.0 31.1 02 0A 1822 090B Alarm State:  0
Sun Sep 25 04:16:31 PDT 2022 ON: 20.02 +20.0 19.89 -12.1 31.0 06 0A 1718 091F Alarm State:  0
Sun Sep 25 04:15:30 PDT 2022 ON: 20.01 +20.0 19.88 -11.9 31.1 09 0A 160D 090B Alarm State:  0
Sun Sep 25 04:14:28 PDT 2022 ON: 20.01 +20.0 19.88 -11.6 31.3 08 0A 1503 091F Alarm State:  0
Sun Sep 25 04:13:27 PDT 2022 ON: 20.02 +20.0 19.89 -11.8 31.2 06 0A 132F 090B Alarm State:  0
Sun Sep 25 04:12:25 PDT 2022 ON: 20.02 +20.0 19.89 -12.2 31.0 06 0A 1225 091F Alarm State:  0
Sun Sep 25 04:11:24 PDT 2022 ON: 20.02 +20.0 19.89 -12.3 30.7 03 0A 111A 090B Alarm State:  0
Sun Sep 25 04:10:22 PDT 2022 ON: 20.00 +20.0 19.88 -11.7 31.2 02 0A 1012 091F Alarm State:  0
Sun Sep 25 04:09:21 PDT 2022 ON: 20.00 +20.0 19.88 -11.4 31.4 05 0A 102C 090B Alarm State:  0
Sun Sep 25 04:08:19 PDT 2022 ON: 20.01 +20.0 19.88 -11.3 31.4 04 0A 1013 091F Alarm State:  0
Sun Sep 25 04:07:17 PDT 2022 ON: 20.02 +20.0 19.89 -12.6 30.4 01 0A 0F08 090B Alarm State:  0
Sun Sep 25 04:06:16 PDT 2022 ON: 20.02 +20.0 19.91 -12.5 31.2 0A 09 0D31 091F Alarm State:  0
Sun Sep 25 04:05:14 PDT 2022 ON: 20.02 +20.0 19.88 -12.4 30.7 03 0A 0C26 090B Alarm State:  0
Sun Sep 25 04:04:13 PDT 2022 ON: 20.02 +20.0 19.91 -13.1 29.9 0E 09 0B1C 091F Alarm State:  0
Sun Sep 25 04:03:11 PDT 2022 ON: 20.00 +20.0 19.87 -11.5 31.3 05 0B 0B12 090B Alarm State:  0
Sun Sep 25 04:02:10 PDT 2022 ON: 20.00 +20.0 19.87 -11.5 31.3 05 0B 0B2B 091F Alarm State:  0
Sun Sep 25 04:01:08 PDT 2022 ON: 20.00 +20.0 19.88 -11.5 31.3 08 0A 0D03 0901 Alarm State:  0
Sun Sep 25 04:00:07 PDT 2022 ON: 20.00 +20.0 19.87 -11.4 31.3 05 0B 0E0D 0915 Alarm State:  0
Sun Sep 25 03:59:05 PDT 2022 ON: 20.00 +20.0 19.88 -11.4 31.4 05 0A 0F12 0901 Alarm State:  0
Sun Sep 25 03:58:04 PDT 2022 ON: 20.00 +20.0 19.88 -11.5 31.4 02 0A 101C 0915 Alarm State:  0
Sun Sep 25 03:57:02 PDT 2022 ON: 20.01 +20.0 19.88 -11.5 31.3 05 0A 1010 0901 Alarm State:  0
Sun Sep 25 03:56:01 PDT 2022 ON: 20.00 +20.0 19.88 -11.6 31.2 05 0A 1102 0915 Alarm State:  0
Sun Sep 25 03:54:59 PDT 2022 ON: 20.00 +20.0 19.88 -11.5 31.3 05 0A 1207 0901 Alarm State:  0
Sun Sep 25 03:53:58 PDT 2022 ON: 20.00 +20.0 19.88 -11.4 31.4 05 0A 130D 090D Alarm State:  0
Sun Sep 25 03:52:56 PDT 2022 ON: 20.01 +20.0 19.89 -11.4 31.4 00 0A 1410 091C Alarm State:  0
Sun Sep 25 03:51:55 PDT 2022 ON: 20.01 +20.0 19.87 -11.5 31.3 05 0B 1500 0901 Alarm State:  0
Sun Sep 25 03:50:53 PDT 2022 ON: 20.01 +20.0 19.89 -11.6 31.2 05 0A 151A 0916 Alarm State:  0
Sun Sep 25 03:49:52 PDT 2022 ON: 20.00 +20.0 19.87 -11.5 31.3 0B 0B 160A 0924 Alarm State:  0
Sun Sep 25 03:48:50 PDT 2022 ON: 20.00 +20.0 19.88 -11.3 31.4 04 0A 170F 0910 Alarm State:  0
Sun Sep 25 03:47:49 PDT 2022 ON: 20.01 +20.0 19.88 -11.3 31.4 00 0A 1732 0924 Alarm State:  0
Sun Sep 25 03:46:47 PDT 2022 ON: 20.00 +20.0 19.87 -11.5 31.3 05 0B 180D 0910 Alarm State:  0
Sun Sep 25 03:45:46 PDT 2022 ON: 20.00 +20.0 19.88 -11.6 31.2 00 0A 1911 0924 Alarm State:  0
Sun Sep 25 03:44:44 PDT 2022 ON: 20.00 +20.0 19.87 -11.5 31.2 06 0B 1A18 0910 Alarm State:  0
Sun Sep 25 03:43:43 PDT 2022 ON: 20.00 +20.0 19.88 -11.3 31.4 0E 0A 1B1E 0923 Alarm State:  0
Sun Sep 25 03:42:41 PDT 2022 ON: 20.00 +20.0 19.87 -11.3 31.4 05 0B 1C29 0911 Alarm State:  0
Sun Sep 25 03:41:40 PDT 2022 ON: 20.00 +20.0 19.87 -11.5 31.3 06 0B 1D1D 0923 Alarm State:  0
Sun Sep 25 03:40:38 PDT 2022 ON: 20.00 +20.0 19.88 -11.5 31.2 06 0A 1E12 090F Alarm State:  0
Sun Sep 25 03:39:37 PDT 2022 ON: 19.99 +20.0 19.87 -11.5 31.2 06 0B 1F1C 0923 Alarm State:  0
Sun Sep 25 03:38:35 PDT 2022 ON: 20.00 +20.0 19.88 -11.2 31.4 05 0A 2023 0920 Alarm State:  0
Sun Sep 25 03:37:34 PDT 2022 ON: 19.99 +20.0 19.87 -11.3 31.5 0B 0B 211F 0918 Alarm State:  0
Sun Sep 25 03:36:32 PDT 2022 ON: 20.00 +20.0 19.87 -11.5 31.3 02 0B 2210 090D Alarm State:  0
Sun Sep 25 03:35:31 PDT 2022 ON: 20.01 +20.0 19.89 -11.6 31.1 06 0A 2231 0917 Alarm State:  0
Sun Sep 25 03:34:29 PDT 2022 ON: 20.00 +20.0 19.88 -11.5 31.1 06 0A 2306 0920 Alarm State:  0
Sun Sep 25 03:33:28 PDT 2022 ON: 20.00 +20.0 19.87 -11.0 31.5 0B 0B 2410 0928 Alarm State:  0
Sun Sep 25 03:32:26 PDT 2022 ON: 20.00 +20.0 19.86 -10.8 31.7 07 0B 251B 0921 Alarm State:  0
Sun Sep 25 03:31:25 PDT 2022 ON: 20.01 +20.0 19.87 -11.1 31.4 09 0B 2607 0917 Alarm State:  0
Sun Sep 25 03:30:23 PDT 2022 ON: 20.01 +20.0 19.89 -12.0 31.1 0A 0A 242F 0903 Alarm State:  0
Sun Sep 25 03:29:22 PDT 2022 ON: 20.01 +20.0 19.89 -12.0 31.1 07 0A 2325 0917 Alarm State:  0
Sun Sep 25 03:28:20 PDT 2022 ON: 20.02 +20.0 19.89 -12.1 31.1 06 0A 221A 0903 Alarm State:  0
Sun Sep 25 03:27:19 PDT 2022 ON: 20.02 +20.0 19.89 -12.1 31.1 06 0A 2110 0917 Alarm State:  0
Sun Sep 25 03:26:17 PDT 2022 ON: 20.01 +20.0 19.88 -12.1 31.1 06 0A 2005 0903 Alarm State:  0
Sun Sep 25 03:25:16 PDT 2022 ON: 20.01 +20.0 19.88 -12.1 31.1 06 0A 1E2E 0917 Alarm State:  0
Sun Sep 25 03:24:14 PDT 2022 ON: 20.02 +20.0 19.90 -12.1 31.1 06 09 1D23 0903 Alarm State:  0
Sun Sep 25 03:23:13 PDT 2022 ON: 20.01 +20.0 19.89 -12.1 31.1 0D 0A 1C19 0917 Alarm State:  0
Sun Sep 25 03:22:11 PDT 2022 ON: 20.01 +20.0 19.88 -12.1 31.1 0D 0A 1B0E 0903 Alarm State:  0
Sun Sep 25 03:21:10 PDT 2022 ON: 20.01 +20.0 19.88 -12.1 31.1 00 0A 1A04 0917 Alarm State:  0
Sun Sep 25 03:20:08 PDT 2022 ON: 20.02 +20.0 19.89 -12.0 31.1 06 0A 182C 0903 Alarm State:  0
Sun Sep 25 03:19:07 PDT 2022 ON: 20.02 +20.0 19.89 -12.0 31.1 06 0A 1722 0917 Alarm State:  0
Sun Sep 25 03:18:05 PDT 2022 ON: 20.02 +20.0 19.89 -12.1 31.1 06 0A 1617 0903 Alarm State:  0
Sun Sep 25 03:17:04 PDT 2022 ON: 20.02 +20.0 19.89 -12.1 31.1 00 0A 150D 0917 Alarm State:  0
Sun Sep 25 03:16:02 PDT 2022 ON: 20.01 +20.0 19.89 -12.1 31.1 06 0A 1402 0903 Alarm State:  0
Sun Sep 25 03:15:01 PDT 2022 ON: 20.02 +20.0 19.89 -12.0 31.1 06 0A 122B 0917 Alarm State:  0
Sun Sep 25 03:13:59 PDT 2022 ON: 20.01 +20.0 19.89 -12.1 31.1 06 0A 1120 0903 Alarm State:  0
Sun Sep 25 03:12:58 PDT 2022 ON: 20.01 +20.0 19.88 -12.0 31.1 06 0A 1016 0917 Alarm State:  0
Sun Sep 25 03:11:56 PDT 2022 ON: 20.01 +20.0 19.89 -12.0 31.2 09 0A 0F0B 0903 Alarm State:  0
Sun Sep 25 03:10:55 PDT 2022 ON: 20.02 +20.0 19.89 -12.1 31.1 06 0A 0E00 0918 Alarm State:  0
Sun Sep 25 03:09:53 PDT 2022 ON: 20.00 +20.0 19.88 -12.1 31.1 06 0A 0C2F 0903 Alarm State:  0
Sun Sep 25 03:08:52 PDT 2022 ON: 20.01 +20.0 19.88 -12.0 31.1 06 0A 0B2A 0918 Alarm State:  0
Sun Sep 25 03:07:50 PDT 2022 ON: 20.01 +20.0 19.88 -12.0 31.2 06 0A 0A20 0903 Alarm State:  0
Sun Sep 25 03:06:48 PDT 2022 ON: 20.01 +20.0 19.89 -12.1 31.1 02 0A 0915 0918 Alarm State:  0
Sun Sep 25 03:05:47 PDT 2022 ON: 20.01 +20.0 19.89 -12.1 31.1 06 0A 0811 0903 Alarm State:  0
Sun Sep 25 03:04:45 PDT 2022 ON: 20.01 +20.0 19.89 -11.9 31.1 06 0A 0807 0918 Alarm State:  0
Sun Sep 25 03:03:44 PDT 2022 ON: 20.01 +20.0 19.89 -12.0 31.2 06 0A 0727 0903 Alarm State:  0
Sun Sep 25 03:02:42 PDT 2022 ON: 20.01 +20.0 19.89 -11.9 31.1 06 0A 0715 0918 Alarm State:  0
Sun Sep 25 03:01:41 PDT 2022 ON: 20.00 +20.0 19.88 -12.0 31.1 06 0A 071C 0903 Alarm State:  0
Sun Sep 25 03:00:39 PDT 2022 ON: 20.00 +20.0 19.88 -11.9 31.2 06 0A 080F 0918 Alarm State:  0
Sun Sep 25 02:59:38 PDT 2022 ON: 19.99 +20.0 19.88 -11.8 31.2 06 0A 090D 0928 Alarm State:  0
Sun Sep 25 02:58:36 PDT 2022 ON: 20.00 +20.0 19.88 -12.0 31.1 06 0A 0A10 0906 Alarm State:  0
Sun Sep 25 02:57:35 PDT 2022 ON: 20.00 +20.0 19.88 -12.0 31.1 06 0A 0B1A 0916 Alarm State:  0
Sun Sep 25 02:56:33 PDT 2022 ON: 20.01 +20.0 19.88 -11.7 31.3 05 0A 0C25 091D Alarm State:  0
Sun Sep 25 02:55:32 PDT 2022 ON: 20.00 +20.0 19.88 -11.8 31.2 06 0A 0D21 0902 Alarm State:  0
Sun Sep 25 02:54:30 PDT 2022 ON: 20.00 +20.0 19.88 -12.1 31.0 06 0A 0D21 0917 Alarm State:  0
Sun Sep 25 02:53:29 PDT 2022 ON: 20.01 +20.0 19.89 -12.0 31.0 06 0A 0E09 0925 Alarm State:  0
Sun Sep 25 02:52:27 PDT 2022 ON: 20.00 +20.0 19.88 -11.7 31.2 02 0A 0E2B 0903 Alarm State:  0
Sun Sep 25 02:51:26 PDT 2022 ON: 20.00 +20.0 19.87 -11.6 31.3 0B 0B 0F29 090B Alarm State:  0
Sun Sep 25 02:50:24 PDT 2022 ON: 20.02 +20.0 19.89 -11.6 31.2 05 0A 0F23 0920 Alarm State:  0
Sun Sep 25 02:49:23 PDT 2022 ON: 20.02 +20.0 19.89 -12.6 30.2 04 0A 0E1F 090B Alarm State:  0
Sun Sep 25 02:48:21 PDT 2022 ON: 20.01 +20.0 19.90 -12.4 30.5 0D 09 0D14 0920 Alarm State:  0
Sun Sep 25 02:47:20 PDT 2022 ON: 20.01 +20.0 19.86 -11.2 31.1 01 0B 0D13 0907 Alarm State:  0
Sun Sep 25 02:46:18 PDT 2022 ON: 20.02 +20.0 19.91 -13.5 29.7 09 09 0C08 091C Alarm State:  0
Sun Sep 25 02:45:17 PDT 2022 ON: 20.00 +20.0 19.89 -12.1 31.2 02 0A 0B06 0907 Alarm State:  0
Sun Sep 25 02:44:15 PDT 2022 ON: 20.00 +20.0 19.86 -11.5 31.3 05 0B 0C11 0914 Alarm State:  0
Sun Sep 25 02:43:14 PDT 2022 ON: 20.01 +20.0 19.88 -11.6 31.2 05 0A 0C2E 0928 Alarm State:  0
Sun Sep 25 02:42:12 PDT 2022 ON: 20.00 +20.0 19.88 -11.6 31.2 05 0A 0D0F 0914 Alarm State:  0
Sun Sep 25 02:41:11 PDT 2022 ON: 20.01 +20.0 19.88 -11.6 31.3 05 0A 0E01 0928 Alarm State:  0
Sun Sep 25 02:40:09 PDT 2022 ON: 20.00 +20.0 19.87 -11.7 31.2 05 0B 0E1B 0914 Alarm State:  0
Sun Sep 25 02:39:08 PDT 2022 ON: 20.00 +20.0 19.88 -11.6 31.3 05 0A 0E02 0928 Alarm State:  0
Sun Sep 25 02:38:06 PDT 2022 ON: 20.00 +20.0 19.87 -11.6 31.3 05 0B 0E04 0914 Alarm State:  0
Sun Sep 25 02:37:05 PDT 2022 ON: 20.00 +20.0 19.89 -11.6 31.3 02 0A 0D0C 0928 Alarm State:  0
Sun Sep 25 02:36:03 PDT 2022 ON: 20.01 +20.0 19.88 -11.5 31.3 05 0A 0D06 0914 Alarm State:  0
Sun Sep 25 02:35:02 PDT 2022 ON: 20.01 +20.0 19.88 -11.6 31.3 00 0A 0D05 0928 Alarm State:  0
Sun Sep 25 02:34:00 PDT 2022 ON: 20.00 +20.0 19.87 -11.6 31.2 05 0B 0C2C 0914 Alarm State:  0
Sun Sep 25 02:32:59 PDT 2022 ON: 20.00 +20.0 19.87 -11.6 31.3 05 0B 0E03 0928 Alarm State:  0
Sun Sep 25 02:31:57 PDT 2022 ON: 20.00 +20.0 19.87 -11.6 31.3 05 0B 0E2D 0914 Alarm State:  0
Sun Sep 25 02:30:56 PDT 2022 ON: 20.00 +20.0 19.88 -11.5 31.3 08 0A 0F2B 0928 Alarm State:  0
Sun Sep 25 02:29:54 PDT 2022 ON: 20.01 +20.0 19.87 -11.6 31.3 05 0B 0F17 0914 Alarm State:  0
Sun Sep 25 02:28:53 PDT 2022 ON: 20.00 +20.0 19.88 -11.7 31.2 05 0A 0E1F 0928 Alarm State:  0
Sun Sep 25 02:27:51 PDT 2022 ON: 20.00 +20.0 19.88 -11.6 31.2 05 0A 0E05 0914 Alarm State:  0
Sun Sep 25 02:26:50 PDT 2022 ON: 20.00 +20.0 19.87 -11.6 31.3 00 0B 0E30 0928 Alarm State:  0
Sun Sep 25 02:25:48 PDT 2022 ON: 20.00 +20.0 19.87 -11.5 31.3 05 0B 0F0B 0914 Alarm State:  0
Sun Sep 25 02:24:47 PDT 2022 ON: 20.01 +20.0 19.88 -11.6 31.3 05 0A 0F18 0928 Alarm State:  0
Sun Sep 25 02:23:45 PDT 2022 ON: 20.01 +20.0 19.88 -11.6 31.2 05 0A 0F22 0914 Alarm State:  0
Sun Sep 25 02:22:44 PDT 2022 ON: 20.00 +20.0 19.88 -11.6 31.3 05 0A 0F1F 0928 Alarm State:  0
Sun Sep 25 02:21:42 PDT 2022 ON: 20.01 +20.0 19.87 -11.6 31.3 05 0B 0F19 0914 Alarm State:  0
Sun Sep 25 02:20:41 PDT 2022 ON: 20.00 +20.0 19.87 -11.6 31.3 05 0B 0F32 0928 Alarm State:  0
Sun Sep 25 02:19:39 PDT 2022 ON: 20.01 +20.0 19.88 -11.6 31.3 05 0A 102D 0914 Alarm State:  0
Sun Sep 25 02:18:38 PDT 2022 ON: 20.00 +20.0 19.89 -11.6 31.3 05 0A 1010 0928 Alarm State:  0
Sun Sep 25 02:17:36 PDT 2022 ON: 20.00 +20.0 19.88 -11.6 31.2 05 0A 1010 0914 Alarm State:  0
Sun Sep 25 02:16:35 PDT 2022 ON: 20.01 +20.0 19.88 -11.6 31.3 05 0A 1017 0928 Alarm State:  0
Sun Sep 25 02:15:33 PDT 2022 ON: 20.01 +20.0 19.89 -11.5 31.3 0B 0A 1104 0914 Alarm State:  0
Sun Sep 25 02:14:32 PDT 2022 ON: 20.00 +20.0 19.87 -11.6 31.3 05 0B 100A 0928 Alarm State:  0
Sun Sep 25 02:13:30 PDT 2022 ON: 20.00 +20.0 19.88 -11.7 31.2 0E 0A 1113 0914 Alarm State:  0
Sun Sep 25 02:12:29 PDT 2022 ON: 20.01 +20.0 19.88 -11.6 31.3 05 0A 1207 0928 Alarm State:  0
Sun Sep 25 02:11:27 PDT 2022 ON: 20.01 +20.0 19.88 -11.6 31.3 05 0A 1104 0914 Alarm State:  0
Sun Sep 25 02:10:25 PDT 2022 ON: 20.00 +20.0 19.88 -11.5 31.3 08 0A 1107 0928 Alarm State:  0
Sun Sep 25 02:09:24 PDT 2022 ON: 20.01 +20.0 19.88 -11.6 31.3 05 0A 110B 0914 Alarm State:  0
Sun Sep 25 02:08:22 PDT 2022 ON: 20.00 +20.0 19.88 -11.6 31.3 05 0A 1104 0928 Alarm State:  0
Sun Sep 25 02:07:21 PDT 2022 ON: 20.00 +20.0 19.88 -11.6 31.3 00 0A 1106 0914 Alarm State:  0
Sun Sep 25 02:06:19 PDT 2022 ON: 20.00 +20.0 19.87 -11.6 31.3 05 0B 111A 0900 Alarm State:  0
Sun Sep 25 02:05:18 PDT 2022 ON: 20.01 +20.0 19.88 -11.6 31.3 05 0A 110F 0914 Alarm State:  0
Sun Sep 25 02:04:16 PDT 2022 ON: 20.00 +20.0 19.88 -11.6 31.3 00 0A 112F 0900 Alarm State:  0
Sun Sep 25 02:03:15 PDT 2022 ON: 20.01 +20.0 19.88 -11.6 31.2 05 0A 112C 0914 Alarm State:  0
Sun Sep 25 02:02:13 PDT 2022 ON: 20.00 +20.0 19.87 -11.6 31.2 05 0B 1106 0900 Alarm State:  0
Sun Sep 25 02:01:12 PDT 2022 ON: 20.00 +20.0 19.88 -11.6 31.3 05 0A 1210 0914 Alarm State:  0
Sun Sep 25 02:00:10 PDT 2022 ON: 20.00 +20.0 19.88 -11.6 31.2 0B 0A 111D 0900 Alarm State:  0
Sun Sep 25 01:59:09 PDT 2022 ON: 20.01 +20.0 19.88 -11.6 31.3 05 0A 1215 0914 Alarm State:  0
Sun Sep 25 01:58:07 PDT 2022 ON: 20.01 +20.0 19.88 -11.6 31.3 00 0A 111E 0900 Alarm State:  0
Sun Sep 25 01:57:06 PDT 2022 ON: 20.00 +20.0 19.88 -11.5 31.3 05 0A 121A 0914 Alarm State:  0
Sun Sep 25 01:56:04 PDT 2022 ON: 20.01 +20.0 19.88 -11.6 31.3 0B 0A 122A 0900 Alarm State:  0
Sun Sep 25 01:55:03 PDT 2022 ON: 20.01 +20.0 19.88 -11.6 31.3 05 0A 122D 0914 Alarm State:  0
Sun Sep 25 01:54:01 PDT 2022 ON: 20.00 +20.0 19.88 -11.7 31.2 05 0A 120B 0900 Alarm State:  0
Sun Sep 25 01:53:00 PDT 2022 ON: 20.00 +20.0 19.88 -11.6 31.3 02 0A 1311 0914 Alarm State:  0
Sun Sep 25 01:51:58 PDT 2022 ON: 20.00 +20.0 19.87 -11.6 31.3 05 0B 1319 0900 Alarm State:  0
Sun Sep 25 01:50:57 PDT 2022 ON: 20.00 +20.0 19.87 -11.6 31.3 05 0B 132E 0914 Alarm State:  0
Sun Sep 25 01:49:55 PDT 2022 ON: 20.01 +20.0 19.89 -11.5 31.3 05 0A 1415 0900 Alarm State:  0
Sun Sep 25 01:48:54 PDT 2022 ON: 20.00 +20.0 19.88 -11.6 31.3 05 0A 150F 0914 Alarm State:  0
Sun Sep 25 01:47:52 PDT 2022 ON: 20.01 +20.0 19.88 -11.7 31.2 05 0A 1529 0900 Alarm State:  0
Sun Sep 25 01:46:51 PDT 2022 ON: 20.00 +20.0 19.88 -11.6 31.2 05 0A 1528 0914 Alarm State:  0
Sun Sep 25 01:45:49 PDT 2022 ON: 20.00 +20.0 19.88 -11.6 31.3 02 0A 1524 0900 Alarm State:  0
Sun Sep 25 01:44:48 PDT 2022 ON: 20.00 +20.0 19.87 -11.5 31.3 05 0B 162E 0914 Alarm State:  0
Sun Sep 25 01:43:46 PDT 2022 ON: 20.01 +20.0 19.88 -11.6 31.3 05 0A 162C 0900 Alarm State:  0
Sun Sep 25 01:42:45 PDT 2022 ON: 20.00 +20.0 19.88 -11.7 31.2 05 0A 161F 0914 Alarm State:  0
Sun Sep 25 01:41:43 PDT 2022 ON: 20.00 +20.0 19.88 -11.6 31.3 05 0A 1710 0900 Alarm State:  0
Sun Sep 25 01:40:42 PDT 2022 ON: 20.00 +20.0 19.88 -11.6 31.3 06 0A 181A 0914 Alarm State:  0
Sun Sep 25 01:39:40 PDT 2022 ON: 20.00 +20.0 19.88 -11.6 31.3 06 0A 1913 0900 Alarm State:  0
Sun Sep 25 01:38:39 PDT 2022 ON: 20.01 +20.0 19.87 -11.6 31.3 05 0B 1825 0914 Alarm State:  0
Sun Sep 25 01:37:37 PDT 2022 ON: 20.00 +20.0 19.88 -11.5 31.3 06 0A 1827 0900 Alarm State:  0
Sun Sep 25 01:36:36 PDT 2022 ON: 20.00 +20.0 19.88 -11.6 31.3 06 0A 1921 0914 Alarm State:  0
Sun Sep 25 01:35:34 PDT 2022 ON: 20.01 +20.0 19.88 -11.6 31.2 00 0A 191F 0900 Alarm State:  0
Sun Sep 25 01:34:33 PDT 2022 ON: 20.00 +20.0 19.87 -11.6 31.3 0C 0B 1924 0914 Alarm State:  0
Sun Sep 25 01:33:31 PDT 2022 ON: 20.00 +20.0 19.87 -11.5 31.3 06 0B 1A17 0900 Alarm State:  0
Sun Sep 25 01:32:30 PDT 2022 ON: 20.00 +20.0 19.87 -11.6 31.3 06 0B 1B15 0914 Alarm State:  0
Sun Sep 25 01:31:28 PDT 2022 ON: 20.01 +20.0 19.87 -11.6 31.3 06 0B 1B1D 0900 Alarm State:  0
Sun Sep 25 01:30:27 PDT 2022 ON: 20.00 +20.0 19.89 -11.6 31.3 06 0A 1B00 0914 Alarm State:  0
Sun Sep 25 01:29:25 PDT 2022 ON: 20.01 +20.0 19.88 -11.6 31.3 06 0A 1B0A 0900 Alarm State:  0
Sun Sep 25 01:28:24 PDT 2022 ON: 20.00 +20.0 19.87 -11.5 31.3 02 0B 1C00 0914 Alarm State:  0
Sun Sep 25 01:27:22 PDT 2022 ON: 20.00 +20.0 19.87 -11.6 31.3 0C 0B 1C10 0900 Alarm State:  0
Sun Sep 25 01:26:21 PDT 2022 ON: 20.00 +20.0 19.87 -11.6 31.2 06 0B 1D14 0914 Alarm State:  0
Sun Sep 25 01:25:19 PDT 2022 ON: 20.00 +20.0 19.88 -11.6 31.3 00 0A 1D04 0900 Alarm State:  0
Sun Sep 25 01:24:18 PDT 2022 ON: 20.01 +20.0 19.88 -11.6 31.3 06 0A 1D25 0914 Alarm State:  0
Sun Sep 25 01:23:16 PDT 2022 ON: 20.00 +20.0 19.88 -11.5 31.3 06 0A 1E22 0900 Alarm State:  0
Sun Sep 25 01:22:15 PDT 2022 ON: 20.00 +20.0 19.87 -11.5 31.3 06 0B 1F16 0912 Alarm State:  0
Sun Sep 25 01:21:13 PDT 2022 ON: 20.01 +20.0 19.88 -11.6 31.3 06 0A 2007 0927 Alarm State:  0
Sun Sep 25 01:20:12 PDT 2022 ON: 20.00 +20.0 19.88 -11.6 31.3 02 0A 200E 0912 Alarm State:  0
Sun Sep 25 01:19:10 PDT 2022 ON: 20.00 +20.0 19.87 -11.6 31.2 06 0B 2022 0927 Alarm State:  0
Sun Sep 25 01:18:09 PDT 2022 ON: 20.01 +20.0 19.88 -11.5 31.3 06 0A 211A 0906 Alarm State:  0
Sun Sep 25 01:17:07 PDT 2022 ON: 20.00 +20.0 19.87 -11.4 31.4 06 0B 2215 091B Alarm State:  0
Sun Sep 25 01:16:06 PDT 2022 ON: 19.99 +20.0 19.87 -11.6 31.3 06 0B 2232 0906 Alarm State:  0
Sun Sep 25 01:15:04 PDT 2022 ON: 20.00 +20.0 19.87 -11.7 31.2 06 0B 2317 0917 Alarm State:  0
Sun Sep 25 01:14:03 PDT 2022 ON: 20.00 +20.0 19.87 -11.5 31.3 02 0B 2326 0902 Alarm State:  0
Sun Sep 25 01:13:01 PDT 2022 ON: 19.99 +20.0 19.87 -11.3 31.4 02 0B 2431 0926 Alarm State:  0
Sun Sep 25 01:12:00 PDT 2022 ON: 20.01 +20.0 19.88 -11.4 31.4 06 0A 2509 0928 Alarm State:  0
Sun Sep 25 01:10:58 PDT 2022 ON: 20.01 +20.0 19.88 -11.7 31.2 0A 0A 2507 0914 Alarm State:  0
Sun Sep 25 01:09:56 PDT 2022 ON: 20.00 +20.0 19.88 -11.8 31.0 07 0A 2601 0928 Alarm State:  0
Sun Sep 25 01:08:55 PDT 2022 ON: 20.01 +20.0 19.88 -11.5 31.2 06 0A 2601 0914 Alarm State:  0
Sun Sep 25 01:07:53 PDT 2022 ON: 20.00 +20.0 19.87 -11.1 31.5 06 0B 2701 091F Alarm State:  0
Sun Sep 25 01:06:52 PDT 2022 ON: 20.00 +20.0 19.88 -11.2 31.5 06 0A 280C 0915 Alarm State:  0
Sun Sep 25 01:05:50 PDT 2022 ON: 20.01 +20.0 19.89 -11.8 31.2 07 0A 271A 0900 Alarm State:  0
Sun Sep 25 01:04:49 PDT 2022 ON: 20.02 +20.0 19.89 -11.7 31.3 06 0A 261B 0915 Alarm State:  0
Sun Sep 25 01:03:47 PDT 2022 ON: 20.02 +20.0 19.89 -12.0 31.1 07 0A 2511 0900 Alarm State:  0
Sun Sep 25 01:02:46 PDT 2022 ON: 20.01 +20.0 19.89 -12.1 31.0 07 0A 2406 0915 Alarm State:  0
Sun Sep 25 01:01:44 PDT 2022 ON: 20.02 +20.0 19.89 -12.1 31.1 06 0A 222E 0901 Alarm State:  0
Sun Sep 25 01:00:43 PDT 2022 ON: 20.03 +20.0 19.90 -12.0 31.1 06 09 2124 0915 Alarm State:  0
Sun Sep 25 00:59:41 PDT 2022 ON: 20.02 +20.0 19.89 -12.1 31.1 06 0A 2019 0901 Alarm State:  0
Sun Sep 25 00:58:40 PDT 2022 ON: 20.02 +20.0 19.89 -12.1 31.0 03 0A 1F0F 0915 Alarm State:  0
Sun Sep 25 00:57:38 PDT 2022 ON: 20.02 +20.0 19.88 -12.1 31.1 06 0A 1E06 0901 Alarm State:  0
Sun Sep 25 00:56:37 PDT 2022 ON: 20.01 +20.0 19.89 -12.1 31.1 0A 0A 1C2F 0915 Alarm State:  0
Sun Sep 25 00:55:35 PDT 2022 ON: 20.01 +20.0 19.88 -12.1 31.1 06 0A 1B24 0901 Alarm State:  0
Sun Sep 25 00:54:34 PDT 2022 ON: 20.02 +20.0 19.89 -12.1 31.1 06 0A 1A24 0915 Alarm State:  0
Sun Sep 25 00:53:32 PDT 2022 ON: 20.02 +20.0 19.90 -12.1 31.1 06 09 1919 0901 Alarm State:  0
Sun Sep 25 00:52:31 PDT 2022 ON: 20.02 +20.0 19.88 -12.1 31.1 06 0A 180F 0915 Alarm State:  0
Sun Sep 25 00:51:29 PDT 2022 ON: 20.02 +20.0 19.89 -12.1 31.1 02 0A 1704 0901 Alarm State:  0
Sun Sep 25 00:50:28 PDT 2022 ON: 20.02 +20.0 19.89 -12.1 31.1 02 0A 1600 0915 Alarm State:  0
Sun Sep 25 00:49:26 PDT 2022 ON: 20.02 +20.0 19.89 -12.1 31.1 06 0A 1428 0901 Alarm State:  0
Sun Sep 25 00:48:25 PDT 2022 ON: 20.01 +20.0 19.88 -12.1 31.1 06 0A 131E 0915 Alarm State:  0
Sun Sep 25 00:47:23 PDT 2022 ON: 20.02 +20.0 19.89 -12.1 31.1 06 0A 1213 0901 Alarm State:  0
Sun Sep 25 00:46:22 PDT 2022 ON: 20.01 +20.0 19.89 -12.1 31.1 06 0A 1109 0915 Alarm State:  0
Sun Sep 25 00:45:20 PDT 2022 ON: 20.00 +20.0 19.88 -12.0 31.1 06 0A 1014 0901 Alarm State:  0
Sun Sep 25 00:44:19 PDT 2022 ON: 20.01 +20.0 19.88 -12.1 31.1 02 0A 0F16 0915 Alarm State:  0
Sun Sep 25 00:43:17 PDT 2022 ON: 20.02 +20.0 19.89 -12.2 31.0 06 0A 0E0D 0901 Alarm State:  0
Sun Sep 25 00:42:16 PDT 2022 ON: 20.01 +20.0 19.88 -12.1 31.0 06 0A 0D03 0915 Alarm State:  0
Sun Sep 25 00:41:14 PDT 2022 ON: 20.00 +20.0 19.88 -12.0 31.2 06 0A 0D0D 0901 Alarm State:  0
Sun Sep 25 00:40:13 PDT 2022 ON: 20.00 +20.0 19.89 -11.8 31.3 06 0A 0D1C 0915 Alarm State:  0
Sun Sep 25 00:39:11 PDT 2022 ON: 20.01 +20.0 19.88 -12.0 31.1 09 0A 0D18 0901 Alarm State:  0
Sun Sep 25 00:38:10 PDT 2022 ON: 20.01 +20.0 19.89 -12.2 30.9 06 0A 0C14 0915 Alarm State:  0
Sun Sep 25 00:37:08 PDT 2022 ON: 20.00 +20.0 19.88 -12.1 31.0 06 0A 0C08 0901 Alarm State:  0
Sun Sep 25 00:36:07 PDT 2022 ON: 20.00 +20.0 19.88 -11.7 31.2 05 0A 0D12 090D Alarm State:  0
Sun Sep 25 00:35:05 PDT 2022 ON: 20.01 +20.0 19.87 -11.7 31.3 05 0B 0E17 0922 Alarm State:  0
Sun Sep 25 00:34:04 PDT 2022 ON: 20.01 +20.0 19.87 -11.6 31.3 05 0B 0F0B 090D Alarm State:  0
Sun Sep 25 00:33:02 PDT 2022 ON: 20.02 +20.0 19.89 -12.5 30.7 0A 0A 0E00 0922 Alarm State:  0
Sun Sep 25 00:32:01 PDT 2022 ON: 20.01 +20.0 19.91 -12.6 30.2 04 09 0C29 090D Alarm State:  0
Sun Sep 25 00:30:59 PDT 2022 ON: 20.01 +20.0 19.87 -11.6 31.0 02 0B 0D14 0922 Alarm State:  0
Sun Sep 25 00:29:58 PDT 2022 ON: 20.01 +20.0 19.90 -12.9 30.0 04 09 0C0A 090D Alarm State:  0
Sun Sep 25 00:28:56 PDT 2022 ON: 19.99 +20.0 19.87 -11.3 31.4 04 0B 0C28 0906 Alarm State:  0
Sun Sep 25 00:27:55 PDT 2022 ON: 20.00 +20.0 19.88 -11.4 31.3 00 0A 0D32 0921 Alarm State:  0
Sun Sep 25 00:26:53 PDT 2022 ON: 20.00 +20.0 19.87 -11.5 31.3 02 0B 0F0A 0922 Alarm State:  0
Sun Sep 25 00:25:52 PDT 2022 ON: 20.00 +20.0 19.87 -11.4 31.3 05 0B 1014 0928 Alarm State:  0
Sun Sep 25 00:24:50 PDT 2022 ON: 20.00 +20.0 19.87 -11.5 31.3 05 0B 1101 0914 Alarm State:  0
Sun Sep 25 00:23:49 PDT 2022 ON: 20.00 +20.0 19.87 -11.5 31.2 08 0B 1110 0928 Alarm State:  0
Sun Sep 25 00:22:47 PDT 2022 ON: 20.00 +20.0 19.87 -11.5 31.3 08 0B 1124 0914 Alarm State:  0
Sun Sep 25 00:21:46 PDT 2022 ON: 20.00 +20.0 19.89 -11.5 31.3 05 0A 1202 0928 Alarm State:  0
Sun Sep 25 00:20:44 PDT 2022 ON: 20.01 +20.0 19.89 -11.5 31.3 05 0A 1232 0914 Alarm State:  0
Sun Sep 25 00:19:43 PDT 2022 ON: 20.00 +20.0 19.87 -11.5 31.3 08 0B 1308 0928 Alarm State:  0
Sun Sep 25 00:18:41 PDT 2022 ON: 20.00 +20.0 19.87 -11.6 31.3 0B 0B 131E 0914 Alarm State:  0
Sun Sep 25 00:17:40 PDT 2022 ON: 20.00 +20.0 19.87 -11.6 31.3 05 0B 1406 0928 Alarm State:  0
Sun Sep 25 00:16:38 PDT 2022 ON: 20.01 +20.0 19.88 -11.5 31.3 08 0A 132D 0914 Alarm State:  0
Sun Sep 25 00:15:37 PDT 2022 ON: 20.01 +20.0 19.87 -11.4 31.3 05 0B 141D 0928 Alarm State:  0
Sun Sep 25 00:14:35 PDT 2022 ON: 20.01 +20.0 19.88 -11.5 31.4 05 0A 1423 0910 Alarm State:  0
Sun Sep 25 00:13:33 PDT 2022 ON: 20.01 +20.0 19.88 -11.6 31.3 05 0A 142E 0924 Alarm State:  0
Sun Sep 25 00:12:32 PDT 2022 ON: 20.00 +20.0 19.87 -11.5 31.2 05 0B 1509 0910 Alarm State:  0
Sun Sep 25 00:11:30 PDT 2022 ON: 20.00 +20.0 19.86 -11.5 31.3 05 0B 151C 0924 Alarm State:  0
Sun Sep 25 00:10:29 PDT 2022 ON: 20.00 +20.0 19.88 -11.4 31.3 08 0A 1619 0910 Alarm State:  0
Sun Sep 25 00:09:27 PDT 2022 ON: 20.01 +20.0 19.88 -11.5 31.4 05 0A 1707 0924 Alarm State:  0
Sun Sep 25 00:08:26 PDT 2022 ON: 20.00 +20.0 19.88 -11.6 31.3 05 0A 1713 0910 Alarm State:  0
Sun Sep 25 00:07:24 PDT 2022 ON: 20.00 +20.0 19.88 -11.6 31.2 05 0A 171C 0924 Alarm State:  0
Sun Sep 25 00:06:23 PDT 2022 ON: 20.00 +20.0 19.88 -11.5 31.3 06 0A 180F 0910 Alarm State:  0
Sun Sep 25 00:05:21 PDT 2022 ON: 20.00 +20.0 19.88 -11.5 31.3 06 0A 1812 0924 Alarm State:  0
Sun Sep 25 00:04:20 PDT 2022 ON: 20.01 +20.0 19.87 -11.5 31.3 05 0B 1832 0910 Alarm State:  0
Sun Sep 25 00:03:18 PDT 2022 ON: 20.01 +20.0 19.88 -11.5 31.3 06 0A 1829 0924 Alarm State:  0
Sun Sep 25 00:02:17 PDT 2022 ON: 20.00 +20.0 19.88 -11.6 31.3 06 0A 190C 0910 Alarm State:  0
Sun Sep 25 00:01:15 PDT 2022 ON: 20.01 +20.0 19.88 -11.5 31.3 06 0A 191D 0924 Alarm State:  0
Sun Sep 25 00:00:14 PDT 2022 ON: 20.00 +20.0 19.88 -11.5 31.3 09 0A 1921 0910 Alarm State:  0
Sat Sep 24 23:59:12 PDT 2022 ON: 20.00 +20.0 19.88 -11.5 31.3 06 0A 1A0C 0925 Alarm State:  0
Sat Sep 24 23:58:11 PDT 2022 ON: 20.00 +20.0 19.87 -11.5 31.3 06 0B 1B14 0910 Alarm State:  0
Sat Sep 24 23:57:09 PDT 2022 ON: 20.00 +20.0 19.88 -11.5 31.3 06 0A 1B24 0925 Alarm State:  0
Sat Sep 24 23:56:08 PDT 2022 ON: 20.01 +20.0 19.88 -11.5 31.4 06 0A 1C20 090A Alarm State:  0
Sat Sep 24 23:55:06 PDT 2022 ON: 20.00 +20.0 19.87 -11.5 31.3 0F 0B 1D0B 091F Alarm State:  0
Sat Sep 24 23:54:05 PDT 2022 ON: 20.00 +20.0 19.87 -11.5 31.2 06 0B 1D1C 090A Alarm State:  0
Sat Sep 24 23:53:03 PDT 2022 ON: 20.00 +20.0 19.87 -11.5 31.3 06 0B 1E25 091F Alarm State:  0
Sat Sep 24 23:52:02 PDT 2022 ON: 20.00 +20.0 19.87 -11.4 31.4 06 0B 1F2F 090A Alarm State:  0
Sat Sep 24 23:51:00 PDT 2022 ON: 20.00 +20.0 19.87 -11.4 31.4 09 0B 2103 091F Alarm State:  0
Sat Sep 24 23:49:59 PDT 2022 ON: 20.01 +20.0 19.88 -11.6 31.3 0C 0A 2110 090A Alarm State:  0
Sat Sep 24 23:48:57 PDT 2022 ON: 20.00 +20.0 19.88 -11.6 31.2 06 0A 2215 091F Alarm State:  0
Sat Sep 24 23:47:56 PDT 2022 ON: 20.00 +20.0 19.88 -11.5 31.3 06 0A 230F 090A Alarm State:  0
Sat Sep 24 23:46:54 PDT 2022 ON: 20.00 +20.0 19.87 -11.3 31.4 02 0B 241A 091F Alarm State:  0
Sat Sep 24 23:45:53 PDT 2022 ON: 20.00 +20.0 19.87 -11.4 31.4 10 0B 250C 090A Alarm State:  0
Sat Sep 24 23:44:51 PDT 2022 ON: 20.01 +20.0 19.88 -11.7 31.2 06 0A 2607 091F Alarm State:  0
Sat Sep 24 23:43:50 PDT 2022 ON: 20.00 +20.0 19.88 -11.7 31.1 10 0A 2626 090A Alarm State:  0
Sat Sep 24 23:42:48 PDT 2022 ON: 20.00 +20.0 19.88 -11.4 31.4 02 0A 2705 091F Alarm State:  0
Sat Sep 24 23:41:47 PDT 2022 ON: 20.00 +20.0 19.87 -11.2 31.5 06 0B 280F 0929 Alarm State:  0
Sat Sep 24 23:40:45 PDT 2022 ON: 20.01 +20.0 19.88 -11.5 31.4 06 0A 2821 090B Alarm State:  0
Sat Sep 24 23:39:44 PDT 2022 ON: 20.01 +20.0 19.88 -11.8 31.1 0A 0A 282C 091F Alarm State:  0
Sat Sep 24 23:38:42 PDT 2022 ON: 20.00 +20.0 19.88 -11.6 31.1 0A 0A 290F 090B Alarm State:  0
Sat Sep 24 23:37:41 PDT 2022 ON: 20.00 +20.0 19.87 -11.1 31.5 01 0B 2A15 0902 Alarm State:  0
Sat Sep 24 23:36:39 PDT 2022 ON: 20.00 +20.0 19.87 -11.1 31.5 00 0B 2A31 0915 Alarm State:  0
Sat Sep 24 23:35:38 PDT 2022 ON: 20.01 +20.0 19.88 -11.7 31.2 00 0A 2C00 0900 Alarm State:  0
Sat Sep 24 23:34:36 PDT 2022 ON: 20.00 +20.0 19.88 -11.8 31.2 08 0A 2C08 0915 Alarm State:  0
Sat Sep 24 23:33:35 PDT 2022 ON: 20.01 +20.0 19.88 -11.7 31.2 02 0A 2B00 0900 Alarm State:  0
Sat Sep 24 23:32:33 PDT 2022 ON: 20.00 +20.0 19.88 -11.7 31.2 06 0A 2A1B 0915 Alarm State:  0
Sat Sep 24 23:31:32 PDT 2022 ON: 20.01 +20.0 19.87 -11.7 31.3 0A 0B 2A30 0900 Alarm State:  0
Sat Sep 24 23:30:30 PDT 2022 ON: 20.00 +20.0 19.88 -11.8 31.2 0A 0A 2A00 0915 Alarm State:  0
Sat Sep 24 23:29:29 PDT 2022 ON: 20.01 +20.0 19.88 -11.8 31.1 07 0A 292C 0900 Alarm State:  0
Sat Sep 24 23:28:27 PDT 2022 ON: 20.01 +20.0 19.89 -11.7 31.2 0A 0A 2A01 0915 Alarm State:  0
Sat Sep 24 23:27:26 PDT 2022 ON: 20.00 +20.0 19.87 -11.7 31.3 0D 0B 2919 0900 Alarm State:  0
Sat Sep 24 23:26:24 PDT 2022 ON: 20.01 +20.0 19.88 -11.7 31.2 06 0A 2931 0915 Alarm State:  0
Sat Sep 24 23:25:23 PDT 2022 ON: 20.01 +20.0 19.88 -11.8 31.2 07 0A 282F 0900 Alarm State:  0
Sat Sep 24 23:24:21 PDT 2022 ON: 20.01 +20.0 19.89 -11.8 31.2 07 0A 2819 0915 Alarm State:  0
Sat Sep 24 23:23:20 PDT 2022 ON: 20.01 +20.0 19.88 -11.6 31.3 06 0A 2806 0900 Alarm State:  0
Sat Sep 24 23:22:18 PDT 2022 ON: 20.01 +20.0 19.88 -11.6 31.3 06 0A 281C 0915 Alarm State:  0
Sat Sep 24 23:21:17 PDT 2022 ON: 20.01 +20.0 19.89 -11.8 31.2 07 0A 2720 0900 Alarm State:  0
Sat Sep 24 23:20:15 PDT 2022 ON: 20.02 +20.0 19.88 -11.8 31.2 07 0A 2629 0915 Alarm State:  0
Sat Sep 24 23:19:14 PDT 2022 ON: 20.01 +20.0 19.88 -11.9 31.1 07 0A 251F 0900 Alarm State:  0
Sat Sep 24 23:18:12 PDT 2022 ON: 20.01 +20.0 19.88 -11.9 31.2 0E 0A 241A 0915 Alarm State:  0
Sat Sep 24 23:17:11 PDT 2022 ON: 20.01 +20.0 19.88 -11.8 31.2 07 0A 2409 0900 Alarm State:  0
Sat Sep 24 23:16:09 PDT 2022 ON: 20.00 +20.0 19.88 -11.8 31.2 00 0A 2306 0915 Alarm State:  0
Sat Sep 24 23:15:08 PDT 2022 ON: 20.01 +20.0 19.87 -11.9 31.1 06 0B 2204 0900 Alarm State:  0
Sat Sep 24 23:14:06 PDT 2022 ON: 20.01 +20.0 19.89 -11.9 31.1 06 0A 2129 0915 Alarm State:  0
Sat Sep 24 23:13:04 PDT 2022 ON: 20.01 +20.0 19.88 -11.9 31.1 0A 0A 201F 0900 Alarm State:  0
Sat Sep 24 23:12:03 PDT 2022 ON: 20.01 +20.0 19.88 -11.8 31.2 06 0A 1F14 0915 Alarm State:  0
Sat Sep 24 23:11:01 PDT 2022 ON: 20.01 +20.0 19.88 -11.8 31.2 00 0A 1E0C 0900 Alarm State:  0
Sat Sep 24 23:10:00 PDT 2022 ON: 20.01 +20.0 19.87 -11.9 31.2 06 0B 1D11 0915 Alarm State:  0
Sat Sep 24 23:08:58 PDT 2022 ON: 20.01 +20.0 19.89 -12.0 31.1 06 0A 1C11 0900 Alarm State:  0
Sat Sep 24 23:07:57 PDT 2022 ON: 20.00 +20.0 19.88 -11.9 31.1 06 0A 1B1A 0915 Alarm State:  0
Sat Sep 24 23:06:55 PDT 2022 ON: 20.01 +20.0 19.88 -11.8 31.2 0D 0A 1A24 0900 Alarm State:  0
Sat Sep 24 23:05:54 PDT 2022 ON: 20.01 +20.0 19.88 -11.8 31.2 06 0A 1A04 0915 Alarm State:  0
Sat Sep 24 23:04:52 PDT 2022 ON: 20.01 +20.0 19.88 -11.9 31.2 06 0A 1906 0900 Alarm State:  0
Sat Sep 24 23:03:51 PDT 2022 ON: 20.01 +20.0 19.88 -11.9 31.1 00 0A 172E 0915 Alarm State:  0
Sat Sep 24 23:02:49 PDT 2022 ON: 20.01 +20.0 19.88 -11.9 31.1 06 0A 1628 0900 Alarm State:  0
Sat Sep 24 23:01:48 PDT 2022 ON: 20.01 +20.0 19.89 -11.7 31.2 00 0A 1602 0915 Alarm State:  0
Sat Sep 24 23:00:46 PDT 2022 ON: 20.01 +20.0 19.89 -11.8 31.2 06 0A 150C 0900 Alarm State:  0
Sat Sep 24 22:59:45 PDT 2022 ON: 20.02 +20.0 19.89 -11.9 31.1 09 0A 1411 0915 Alarm State:  0
Sat Sep 24 22:58:43 PDT 2022 ON: 20.01 +20.0 19.89 -12.0 31.1 06 0A 1307 0900 Alarm State:  0
Sat Sep 24 22:57:42 PDT 2022 ON: 20.00 +20.0 19.88 -11.8 31.1 00 0A 1303 0915 Alarm State:  0
Sat Sep 24 22:56:40 PDT 2022 ON: 20.01 +20.0 19.88 -11.8 31.3 06 0A 120D 0900 Alarm State:  0
Sat Sep 24 22:55:39 PDT 2022 ON: 20.01 +20.0 19.88 -11.9 31.2 02 0A 1114 0915 Alarm State:  0
Sat Sep 24 22:54:37 PDT 2022 ON: 20.01 +20.0 19.89 -12.1 31.0 06 0A 1009 0901 Alarm State:  0
Sat Sep 24 22:53:36 PDT 2022 ON: 20.01 +20.0 19.89 -12.0 31.0 02 0A 0F1D 0915 Alarm State:  0
Sat Sep 24 22:52:34 PDT 2022 ON: 20.00 +20.0 19.87 -11.7 31.3 05 0B 0F07 0901 Alarm State:  0
Sat Sep 24 22:51:33 PDT 2022 ON: 20.00 +20.0 19.87 -11.7 31.3 05 0B 0E29 0915 Alarm State:  0
Sat Sep 24 22:50:31 PDT 2022 ON: 20.02 +20.0 19.89 -12.0 31.1 02 0A 0D30 0901 Alarm State:  0
Sat Sep 24 22:49:30 PDT 2022 ON: 20.02 +20.0 19.89 -12.2 30.8 06 0A 0C26 0915 Alarm State:  0
Sat Sep 24 22:48:28 PDT 2022 ON: 20.00 +20.0 19.87 -12.0 31.0 06 0B 0B2D 0901 Alarm State:  0
Sat Sep 24 22:47:27 PDT 2022 ON: 20.00 +20.0 19.88 -11.6 31.3 05 0A 0C0B 0913 Alarm State:  0
Sat Sep 24 22:46:25 PDT 2022 ON: 20.00 +20.0 19.89 -11.7 31.2 0B 0A 0C1D 0926 Alarm State:  0
Sat Sep 24 22:45:24 PDT 2022 ON: 20.00 +20.0 19.89 -11.7 31.3 05 0A 0C2C 090F Alarm State:  0
Sat Sep 24 22:44:22 PDT 2022 ON: 20.00 +20.0 19.87 -11.5 31.3 05 0B 0D25 091E Alarm State:  0
Sat Sep 24 22:43:21 PDT 2022 ON: 20.00 +20.0 19.87 -11.5 31.3 05 0B 0E0B 0907 Alarm State:  0
Sat Sep 24 22:42:19 PDT 2022 ON: 20.00 +20.0 19.88 -11.6 31.3 05 0A 0E29 091C Alarm State:  0
Sat Sep 24 22:41:18 PDT 2022 ON: 20.00 +20.0 19.88 -11.6 31.3 08 0A 0F0D 0901 Alarm State:  0
Sat Sep 24 22:40:16 PDT 2022 ON: 20.01 +20.0 19.88 -11.5 31.3 05 0A 100C 0906 Alarm State:  0
Sat Sep 24 22:39:15 PDT 2022 ON: 20.00 +20.0 19.87 -11.5 31.3 05 0B 0F20 091A Alarm State:  0
Sat Sep 24 22:38:13 PDT 2022 ON: 20.01 +20.0 19.87 -11.6 31.3 05 0B 100D 0919 Alarm State:  0
Sat Sep 24 22:37:12 PDT 2022 ON: 20.01 +20.0 19.89 -11.6 31.3 00 0A 1010 0900 Alarm State:  0
Sat Sep 24 22:36:10 PDT 2022 ON: 20.01 +20.0 19.87 -11.6 31.3 05 0B 101E 0913 Alarm State:  0
Sat Sep 24 22:35:09 PDT 2022 ON: 20.00 +20.0 19.88 -11.5 31.4 05 0A 1027 0927 Alarm State:  0
Sat Sep 24 22:34:07 PDT 2022 ON: 19.99 +20.0 19.87 -11.5 31.3 05 0B 1128 0918 Alarm State:  0
Sat Sep 24 22:33:06 PDT 2022 ON: 20.01 +20.0 19.88 -11.6 31.3 05 0A 120E 090E Alarm State:  0
Sat Sep 24 22:32:04 PDT 2022 ON: 20.00 +20.0 19.87 -11.6 31.3 05 0B 1208 0923 Alarm State:  0
Sat Sep 24 22:31:03 PDT 2022 ON: 20.00 +20.0 19.88 -11.5 31.3 05 0A 1209 090E Alarm State:  0
Sat Sep 24 22:30:01 PDT 2022 ON: 20.01 +20.0 19.89 -11.5 31.3 05 0A 1312 0923 Alarm State:  0
Sat Sep 24 22:29:00 PDT 2022 ON: 19.99 +20.0 19.87 -11.5 31.3 05 0B 1414 090C Alarm State:  0
Sat Sep 24 22:27:58 PDT 2022 ON: 20.01 +20.0 19.88 -11.6 31.3 00 0A 1428 0909 Alarm State:  0
Sat Sep 24 22:26:57 PDT 2022 ON: 20.00 +20.0 19.88 -11.6 31.3 05 0A 1520 0909 Alarm State:  0
Sat Sep 24 22:25:55 PDT 2022 ON: 19.99 +20.0 19.87 -11.5 31.3 00 0B 161D 0A12 Alarm State:  0
Sat Sep 24 22:24:54 PDT 2022 ON: 20.00 +20.0 19.88 -11.4 31.4 05 0A 1727 0918 Alarm State:  0
Sat Sep 24 22:23:52 PDT 2022 ON: 20.00 +20.0 19.88 -11.5 31.3 06 0A 1832 090B Alarm State:  0
Sat Sep 24 22:22:51 PDT 2022 ON: 20.00 +20.0 19.87 -11.6 31.3 06 0B 1A05 090F Alarm State:  0
Sat Sep 24 22:21:49 PDT 2022 ON: 20.00 +20.0 19.88 -11.6 31.3 0F 0A 1A2B 091C Alarm State:  0
Sat Sep 24 22:20:48 PDT 2022 ON: 20.00 +20.0 19.87 -11.4 31.4 06 0B 1B31 0907 Alarm State:  0
Sat Sep 24 22:19:46 PDT 2022 ON: 20.00 +20.0 19.87 -11.4 31.3 06 0B 1D09 091C Alarm State:  0
Sat Sep 24 22:18:45 PDT 2022 ON: 20.00 +20.0 19.87 -11.6 31.3 00 0B 1E13 0907 Alarm State:  0
Sat Sep 24 22:17:43 PDT 2022 ON: 20.01 +20.0 19.88 -11.7 31.2 06 0A 1E1D 091C Alarm State:  0
Sat Sep 24 22:16:42 PDT 2022 ON: 20.00 +20.0 19.87 -11.6 31.3 0C 0B 1F05 0907 Alarm State:  0
Sat Sep 24 22:15:40 PDT 2022 ON: 20.01 +20.0 19.87 -11.5 31.3 00 0B 1F07 091C Alarm State:  0
Sat Sep 24 22:14:39 PDT 2022 ON: 20.01 +20.0 19.87 -11.8 31.2 0D 0B 1F02 0907 Alarm State:  0
Sat Sep 24 22:13:37 PDT 2022 ON: 20.00 +20.0 19.88 -11.7 31.1 00 0A 1E0D 091C Alarm State:  0
Sat Sep 24 22:12:35 PDT 2022 ON: 20.01 +20.0 19.88 -11.6 31.2 06 0A 1E16 0907 Alarm State:  0
Sat Sep 24 22:11:34 PDT 2022 ON: 20.01 +20.0 19.87 -11.5 31.3 06 0B 1E08 091C Alarm State:  0
Sat Sep 24 22:10:32 PDT 2022 ON: 20.01 +20.0 19.88 -11.7 31.2 0C 0A 1D10 0907 Alarm State:  0
Sat Sep 24 22:09:31 PDT 2022 ON: 20.01 +20.0 19.89 -11.9 31.1 06 0A 1C07 091C Alarm State:  0
Sat Sep 24 22:08:29 PDT 2022 ON: 20.00 +20.0 19.88 -11.8 31.0 06 0A 1C06 0907 Alarm State:  0
Sat Sep 24 22:07:28 PDT 2022 ON: 20.00 +20.0 19.88 -11.5 31.3 09 0A 1C04 091C Alarm State:  0
Sat Sep 24 22:06:26 PDT 2022 ON: 20.01 +20.0 19.88 -11.5 31.4 0C 0A 1B2E 0907 Alarm State:  0
Sat Sep 24 22:05:25 PDT 2022 ON: 20.01 +20.0 19.89 -11.7 31.2 06 0A 1B0E 091C Alarm State:  0
Sat Sep 24 22:04:23 PDT 2022 ON: 20.01 +20.0 19.88 -11.9 31.0 0A 0A 1A0A 0907 Alarm State:  0
Sat Sep 24 22:03:22 PDT 2022 ON: 20.00 +20.0 19.88 -11.7 31.1 06 0A 1832 091C Alarm State:  0
Sat Sep 24 22:02:20 PDT 2022 ON: 20.00 +20.0 19.87 -11.4 31.5 0C 0B 1A09 0907 Alarm State:  0
Sat Sep 24 22:01:19 PDT 2022 ON: 20.01 +20.0 19.87 -11.5 31.4 06 0B 1A0F 091C Alarm State:  0
Sat Sep 24 22:00:17 PDT 2022 ON: 20.01 +20.0 19.89 -11.8 31.2 00 0A 1905 0907 Alarm State:  0
Sat Sep 24 21:59:16 PDT 2022 ON: 20.01 +20.0 19.88 -12.1 30.8 06 0A 172D 091C Alarm State:  0
Sat Sep 24 21:58:14 PDT 2022 ON: 20.00 +20.0 19.87 -11.4 31.3 0B 0B 1732 0905 Alarm State:  0
Sat Sep 24 21:57:13 PDT 2022 ON: 20.00 +20.0 19.87 -11.0 31.7 05 0B 1908 091A Alarm State:  0
Sat Sep 24 21:56:11 PDT 2022 ON: 20.00 +20.0 19.88 -11.7 31.2 02 0A 1907 0905 Alarm State:  0
Sat Sep 24 21:55:10 PDT 2022 ON: 20.00 +20.0 19.88 -11.7 31.2 06 0A 182E 091A Alarm State:  0
Sat Sep 24 21:54:08 PDT 2022 ON: 20.00 +20.0 19.87 -11.5 31.3 00 0B 1908 0905 Alarm State:  0
Sat Sep 24 21:53:07 PDT 2022 ON: 20.00 +20.0 19.88 -11.6 31.3 06 0A 1900 091A Alarm State:  0
Sat Sep 24 21:52:05 PDT 2022 ON: 20.00 +20.0 19.87 -11.6 31.3 05 0B 182A 0905 Alarm State:  0
Sat Sep 24 21:51:04 PDT 2022 ON: 20.01 +20.0 19.87 -11.7 31.2 06 0B 1905 091A Alarm State:  0
Sat Sep 24 21:50:02 PDT 2022 ON: 20.00 +20.0 19.87 -11.7 31.2 0C 0B 1913 0906 Alarm State:  0
Sat Sep 24 21:49:01 PDT 2022 ON: 20.00 +20.0 19.87 -11.5 31.3 06 0B 191E 091A Alarm State:  0
Sat Sep 24 21:47:59 PDT 2022 ON: 20.01 +20.0 19.88 -11.5 31.3 06 0A 1916 0906 Alarm State:  0
Sat Sep 24 21:46:58 PDT 2022 ON: 20.01 +20.0 19.88 -11.6 31.2 00 0A 1919 091A Alarm State:  0
Sat Sep 24 21:45:56 PDT 2022 ON: 20.00 +20.0 19.87 -11.7 31.2 06 0B 192D 0906 Alarm State:  0
Sat Sep 24 21:44:55 PDT 2022 ON: 20.00 +20.0 19.87 -11.5 31.3 06 0B 1B04 091A Alarm State:  0
Sat Sep 24 21:43:53 PDT 2022 ON: 20.01 +20.0 19.88 -11.6 31.3 06 0A 1B16 0906 Alarm State:  0
Sat Sep 24 21:42:52 PDT 2022 ON: 20.01 +20.0 19.88 -11.6 31.3 06 0A 1B17 091A Alarm State:  0
Sat Sep 24 21:41:50 PDT 2022 ON: 20.01 +20.0 19.88 -11.7 31.2 06 0A 1B17 0906 Alarm State:  0
Sat Sep 24 21:40:49 PDT 2022 ON: 20.01 +20.0 19.88 -11.6 31.2 0C 0A 1B16 091A Alarm State:  0
Sat Sep 24 21:39:47 PDT 2022 ON: 20.00 +20.0 19.87 -11.6 31.3 06 0B 1B1A 0906 Alarm State:  0
Sat Sep 24 21:38:46 PDT 2022 ON: 20.01 +20.0 19.88 -11.6 31.2 06 0A 1B13 091A Alarm State:  0
Sat Sep 24 21:37:44 PDT 2022 ON: 20.01 +20.0 19.89 -11.7 31.3 06 0A 1B0F 0906 Alarm State:  0
Sat Sep 24 21:36:43 PDT 2022 ON: 20.01 +20.0 19.89 -11.6 31.2 09 0A 1B02 091A Alarm State:  0
Sat Sep 24 21:35:41 PDT 2022 ON: 20.00 +20.0 19.87 -11.5 31.3 06 0B 1B16 0906 Alarm State:  0
Sat Sep 24 21:34:40 PDT 2022 ON: 20.00 +20.0 19.87 -11.5 31.3 06 0B 1C0C 091A Alarm State:  0
Sat Sep 24 21:33:38 PDT 2022 ON: 20.00 +20.0 19.87 -11.7 31.2 00 0B 1C06 0906 Alarm State:  0
Sat Sep 24 21:32:37 PDT 2022 ON: 20.00 +20.0 19.88 -11.7 31.2 06 0A 1B30 091A Alarm State:  0
Sat Sep 24 21:31:35 PDT 2022 ON: 20.00 +20.0 19.87 -11.6 31.3 06 0B 1C13 0906 Alarm State:  0
Sat Sep 24 21:30:34 PDT 2022 ON: 20.00 +20.0 19.87 -11.5 31.3 06 0B 1C10 091A Alarm State:  0
Sat Sep 24 21:29:32 PDT 2022 ON: 20.01 +20.0 19.88 -11.7 31.2 06 0A 1C2C 0906 Alarm State:  0
Sat Sep 24 21:28:31 PDT 2022 ON: 20.00 +20.0 19.87 -11.8 31.1 06 0B 1C15 091A Alarm State:  0
Sat Sep 24 21:27:29 PDT 2022 ON: 20.00 +20.0 19.88 -11.5 31.3 06 0A 1C17 0906 Alarm State:  0
Sat Sep 24 21:26:28 PDT 2022 ON: 20.00 +20.0 19.87 -11.4 31.4 00 0B 1C2E 091A Alarm State:  0
Sat Sep 24 21:25:26 PDT 2022 ON: 20.00 +20.0 19.87 -11.6 31.3 06 0B 1D0D 0906 Alarm State:  0
Sat Sep 24 21:24:25 PDT 2022 ON: 20.00 +20.0 19.87 -11.8 31.1 0A 0B 1D14 091A Alarm State:  0
Sat Sep 24 21:23:23 PDT 2022 ON: 20.01 +20.0 19.88 -11.7 31.1 06 0A 1D12 0906 Alarm State:  0
Sat Sep 24 21:22:22 PDT 2022 ON: 20.00 +20.0 19.87 -11.4 31.4 06 0B 1D2F 091A Alarm State:  0
Sat Sep 24 21:21:20 PDT 2022 ON: 20.00 +20.0 19.88 -11.5 31.4 06 0A 1E30 0906 Alarm State:  0
Sat Sep 24 21:20:19 PDT 2022 ON: 20.01 +20.0 19.88 -11.7 31.2 06 0A 1E2F 091A Alarm State:  0
Sat Sep 24 21:19:17 PDT 2022 ON: 20.01 +20.0 19.88 -11.8 31.1 06 0A 1E15 0906 Alarm State:  0
Sat Sep 24 21:18:16 PDT 2022 ON: 20.00 +20.0 19.87 -11.7 31.2 02 0B 1E20 091A Alarm State:  0
Sat Sep 24 21:17:14 PDT 2022 ON: 20.01 +20.0 19.87 -11.3 31.4 00 0B 1E30 0906 Alarm State:  0
Sat Sep 24 21:16:12 PDT 2022 ON: 20.00 +20.0 19.88 -11.4 31.4 06 0A 1F14 091A Alarm State:  0
Sat Sep 24 21:15:11 PDT 2022 ON: 20.00 +20.0 19.88 -11.8 31.2 06 0A 201D 0906 Alarm State:  0
Sat Sep 24 21:14:09 PDT 2022 ON: 20.01 +20.0 19.89 -11.8 31.0 06 0A 2006 091A Alarm State:  0
Sat Sep 24 21:13:08 PDT 2022 ON: 20.00 +20.0 19.88 -11.5 31.2 06 0A 1F2D 0906 Alarm State:  0
Sat Sep 24 21:12:06 PDT 2022 ON: 20.00 +20.0 19.87 -11.2 31.5 05 0B 2104 0914 Alarm State:  0
Sat Sep 24 21:11:05 PDT 2022 ON: 20.00 +20.0 19.87 -11.5 31.3 0C 0B 212E 0900 Alarm State:  0
Sat Sep 24 21:10:03 PDT 2022 ON: 20.01 +20.0 19.88 -11.9 31.0 02 0A 2026 0914 Alarm State:  0
Sat Sep 24 21:09:02 PDT 2022 ON: 20.00 +20.0 19.88 -11.9 30.8 06 0A 2109 0900 Alarm State:  0
Sat Sep 24 21:08:00 PDT 2022 ON: 20.00 +20.0 19.87 -11.3 31.4 0B 0B 212E 0912 Alarm State:  0
Sat Sep 24 21:06:59 PDT 2022 ON: 20.00 +20.0 19.87 -11.1 31.5 08 0B 222F 0909 Alarm State:  0
Sat Sep 24 21:05:57 PDT 2022 ON: 20.01 +20.0 19.87 -11.8 31.2 02 0B 2315 091D Alarm State:  0
Sat Sep 24 21:04:56 PDT 2022 ON: 20.01 +20.0 19.89 -11.8 31.0 0A 0A 2307 0909 Alarm State:  0
Sat Sep 24 21:03:54 PDT 2022 ON: 20.01 +20.0 19.89 -11.7 31.0 06 0A 2306 091D Alarm State:  0
Sat Sep 24 21:02:53 PDT 2022 ON: 20.01 +20.0 19.87 -11.4 31.4 08 0B 240B 0901 Alarm State:  0
Sat Sep 24 21:01:51 PDT 2022 ON: 20.00 +20.0 19.87 -11.4 31.4 02 0B 2509 0928 Alarm State:  0
Sat Sep 24 21:00:50 PDT 2022 ON: 20.01 +20.0 19.88 -11.7 31.2 06 0A 251D 0914 Alarm State:  0
Sat Sep 24 20:59:48 PDT 2022 ON: 20.01 +20.0 19.88 -11.8 31.0 07 0A 250C 0928 Alarm State:  0
Sat Sep 24 20:58:47 PDT 2022 ON: 20.00 +20.0 19.88 -11.6 31.2 02 0A 2423 0914 Alarm State:  0
Sat Sep 24 20:57:45 PDT 2022 ON: 19.99 +20.0 19.87 -11.3 31.5 06 0B 2517 091A Alarm State:  0
Sat Sep 24 20:56:44 PDT 2022 ON: 20.00 +20.0 19.87 -11.4 31.4 0A 0B 252B 0900 Alarm State:  0
Sat Sep 24 20:55:42 PDT 2022 ON: 20.01 +20.0 19.89 -11.7 31.2 00 0A 2516 0914 Alarm State:  0
Sat Sep 24 20:54:41 PDT 2022 ON: 20.01 +20.0 19.89 -11.9 31.0 07 0A 2417 0900 Alarm State:  0
Sat Sep 24 20:53:39 PDT 2022 ON: 20.00 +20.0 19.87 -11.6 31.2 02 0B 2501 0914 Alarm State:  0
Sat Sep 24 20:52:38 PDT 2022 ON: 20.00 +20.0 19.87 -11.1 31.6 09 0B 260A 0900 Alarm State:  0
Sat Sep 24 20:51:36 PDT 2022 ON: 20.00 +20.0 19.87 -11.0 31.6 06 0B 2629 0914 Alarm State:  0
Sat Sep 24 20:50:35 PDT 2022 ON: 20.02 +20.0 19.89 -11.6 31.2 0A 0A 261B 0900 Alarm State:  0
Sat Sep 24 20:49:33 PDT 2022 ON: 20.02 +20.0 19.89 -11.8 31.3 07 0A 2511 0914 Alarm State:  0
Sat Sep 24 20:48:32 PDT 2022 ON: 20.02 +20.0 19.90 -11.9 31.2 07 09 2406 0900 Alarm State:  0
Sat Sep 24 20:47:30 PDT 2022 ON: 20.02 +20.0 19.89 -12.1 31.1 06 0A 222F 0914 Alarm State:  0
Sat Sep 24 20:46:29 PDT 2022 ON: 20.02 +20.0 19.89 -12.1 31.0 06 0A 2124 0900 Alarm State:  0
Sat Sep 24 20:45:27 PDT 2022 ON: 20.01 +20.0 19.89 -12.1 31.0 06 0A 201A 0914 Alarm State:  0
Sat Sep 24 20:44:26 PDT 2022 ON: 20.02 +20.0 19.89 -11.9 31.2 06 0A 1F0F 0900 Alarm State:  0
Sat Sep 24 20:43:24 PDT 2022 ON: 20.01 +20.0 19.88 -12.0 31.2 06 0A 1E05 0914 Alarm State:  0
Sat Sep 24 20:42:23 PDT 2022 ON: 20.02 +20.0 19.89 -12.2 31.0 07 0A 1C2D 0900 Alarm State:  0
Sat Sep 24 20:41:21 PDT 2022 ON: 20.02 +20.0 19.89 -12.2 30.9 07 0A 1B22 0915 Alarm State:  0
Sat Sep 24 20:40:20 PDT 2022 ON: 20.02 +20.0 19.90 -12.0 31.1 0D 09 1A18 0900 Alarm State:  0
Sat Sep 24 20:39:18 PDT 2022 ON: 20.02 +20.0 19.89 -11.9 31.2 06 0A 190D 0915 Alarm State:  0
Sat Sep 24 20:38:17 PDT 2022 ON: 20.02 +20.0 19.89 -12.0 31.2 0A 0A 1803 0900 Alarm State:  0
Sat Sep 24 20:37:15 PDT 2022 ON: 20.01 +20.0 19.90 -12.2 31.0 07 09 162B 0915 Alarm State:  0
Sat Sep 24 20:36:14 PDT 2022 ON: 20.02 +20.0 19.89 -12.1 30.9 06 0A 1521 0900 Alarm State:  0
Sat Sep 24 20:35:12 PDT 2022 ON: 20.01 +20.0 19.89 -11.9 31.3 06 0A 1416 0915 Alarm State:  0
Sat Sep 24 20:34:11 PDT 2022 ON: 20.01 +20.0 19.88 -11.9 31.2 09 0A 130C 0900 Alarm State:  0
Sat Sep 24 20:33:09 PDT 2022 ON: 20.01 +20.0 19.88 -12.2 31.0 06 0A 1201 0915 Alarm State:  0
Sat Sep 24 20:32:08 PDT 2022 ON: 20.01 +20.0 19.89 -12.3 30.8 0D 0A 102A 0900 Alarm State:  0
Sat Sep 24 20:31:06 PDT 2022 ON: 20.01 +20.0 19.88 -11.9 31.1 06 0A 0F2F 0915 Alarm State:  0
Sat Sep 24 20:30:05 PDT 2022 ON: 20.00 +20.0 19.87 -11.7 31.2 05 0B 0F02 0900 Alarm State:  0
Sat Sep 24 20:29:03 PDT 2022 ON: 20.02 +20.0 19.89 -11.5 31.4 00 0A 0F04 0915 Alarm State:  0
Sat Sep 24 20:28:02 PDT 2022 ON: 20.02 +20.0 19.89 -12.3 30.9 0A 0A 0D2F 0900 Alarm State:  0
Sat Sep 24 20:27:00 PDT 2022 ON: 20.02 +20.0 19.90 -13.2 30.1 08 09 0C24 0915 Alarm State:  0
Sat Sep 24 20:25:59 PDT 2022 ON: 20.01 +20.0 19.89 -12.2 30.7 03 0A 0B2E 0900 Alarm State:  0
Sat Sep 24 20:24:57 PDT 2022 ON: 19.99 +20.0 19.86 -11.5 31.3 05 0B 0C17 0926 Alarm State:  0
Sat Sep 24 20:23:56 PDT 2022 ON: 20.00 +20.0 19.88 -11.5 31.3 05 0A 0C28 0901 Alarm State:  0
Sat Sep 24 20:22:54 PDT 2022 ON: 19.99 +20.0 19.87 -11.5 31.3 00 0B 0D23 0915 Alarm State:  0
Sat Sep 24 20:21:53 PDT 2022 ON: 20.01 +20.0 19.88 -11.6 31.3 05 0A 0E21 091D Alarm State:  0
Sat Sep 24 20:20:51 PDT 2022 ON: 19.99 +20.0 19.87 -11.5 31.3 05 0B 0F08 091C Alarm State:  0
Sat Sep 24 20:19:50 PDT 2022 ON: 20.00 +20.0 19.88 -11.5 31.3 05 0A 0F29 0922 Alarm State:  0
Sat Sep 24 20:18:48 PDT 2022 ON: 20.00 +20.0 19.86 -11.5 31.3 05 0B 102E 090F Alarm State:  0
Sat Sep 24 20:17:47 PDT 2022 ON: 20.00 +20.0 19.88 -11.5 31.3 0B 0A 1203 090F Alarm State:  0
Sat Sep 24 20:16:45 PDT 2022 ON: 20.00 +20.0 19.88 -11.5 31.3 05 0A 121D 0916 Alarm State:  0
Sat Sep 24 20:15:44 PDT 2022 ON: 20.00 +20.0 19.87 -11.4 31.3 00 0B 1327 090A Alarm State:  0
Sat Sep 24 20:14:42 PDT 2022 ON: 20.00 +20.0 19.85 -11.4 31.4 05 0C 142A 091A Alarm State:  0
Sat Sep 24 20:13:41 PDT 2022 ON: 19.99 +20.0 19.87 -11.4 31.4 05 0B 1601 0A04 Alarm State:  0
Sat Sep 24 20:12:39 PDT 2022 ON: 20.00 +20.0 19.88 -11.5 31.3 05 0A 170C 0919 Alarm State:  0
Sat Sep 24 20:11:38 PDT 2022 ON: 20.00 +20.0 19.87 -11.5 31.3 02 0B 1816 0918 Alarm State:  0
Sat Sep 24 20:10:36 PDT 2022 ON: 20.00 +20.0 19.87 -11.4 31.3 06 0B 1921 0922 Alarm State:  0
Sat Sep 24 20:09:34 PDT 2022 ON: 20.00 +20.0 19.88 -11.4 31.4 06 0A 1A2B 0921 Alarm State:  0
Sat Sep 24 20:08:33 PDT 2022 ON: 19.99 +20.0 19.87 -11.5 31.3 06 0B 1C03 0924 Alarm State:  0
Sat Sep 24 20:07:31 PDT 2022 ON: 20.00 +20.0 19.87 -11.5 31.3 00 0B 1D05 0903 Alarm State:  0
Sat Sep 24 20:06:30 PDT 2022 ON: 20.00 +20.0 19.87 -11.5 31.3 09 0B 1E10 0910 Alarm State:  0
Sat Sep 24 20:05:28 PDT 2022 ON: 20.00 +20.0 19.88 -11.5 31.3 00 0A 1F04 091C Alarm State:  0
Sat Sep 24 20:04:27 PDT 2022 ON: 20.01 +20.0 19.88 -11.6 31.2 02 0A 1F1E 0908 Alarm State:  0
Sat Sep 24 20:03:25 PDT 2022 ON: 20.01 +20.0 19.89 -11.6 31.3 06 0A 1F23 091C Alarm State:  0
Sat Sep 24 20:02:24 PDT 2022 ON: 20.00 +20.0 19.87 -11.6 31.3 06 0B 2002 0908 Alarm State:  0
Sat Sep 24 20:01:22 PDT 2022 ON: 20.01 +20.0 19.88 -11.6 31.3 06 0A 2013 091C Alarm State:  0
Sat Sep 24 20:00:21 PDT 2022 ON: 20.01 +20.0 19.88 -11.6 31.3 06 0A 2027 0908 Alarm State:  0
Sat Sep 24 19:59:19 PDT 2022 ON: 20.00 +20.0 19.88 -11.6 31.3 06 0A 210B 091C Alarm State:  0
Sat Sep 24 19:58:18 PDT 2022 ON: 20.00 +20.0 19.87 -11.6 31.3 06 0B 2216 0908 Alarm State:  0
Sat Sep 24 19:57:16 PDT 2022 ON: 20.00 +20.0 19.88 -11.6 31.2 06 0A 2219 091C Alarm State:  0
Sat Sep 24 19:56:15 PDT 2022 ON: 20.01 +20.0 19.88 -11.6 31.3 06 0A 221D 0908 Alarm State:  0
Sat Sep 24 19:55:13 PDT 2022 ON: 20.01 +20.0 19.88 -11.6 31.3 06 0A 2232 091C Alarm State:  0
Sat Sep 24 19:54:12 PDT 2022 ON: 20.00 +20.0 19.87 -11.6 31.2 06 0B 2226 0908 Alarm State:  0
Sat Sep 24 19:53:10 PDT 2022 ON: 20.01 +20.0 19.89 -11.6 31.3 06 0A 2215 091C Alarm State:  0
Sat Sep 24 19:52:09 PDT 2022 ON: 20.00 +20.0 19.87 -11.6 31.3 06 0B 2217 0908 Alarm State:  0
Sat Sep 24 19:51:07 PDT 2022 ON: 20.01 +20.0 19.88 -11.6 31.3 0C 0A 222E 091C Alarm State:  0
Sat Sep 24 19:50:06 PDT 2022 ON: 20.00 +20.0 19.88 -11.6 31.3 06 0A 2230 0908 Alarm State:  0
Sat Sep 24 19:49:04 PDT 2022 ON: 20.00 +20.0 19.87 -11.6 31.2 06 0B 2304 091C Alarm State:  0
Sat Sep 24 19:48:03 PDT 2022 ON: 20.01 +20.0 19.89 -11.5 31.3 00 0A 2302 0908 Alarm State:  0
Sat Sep 24 19:47:01 PDT 2022 ON: 20.01 +20.0 19.89 -11.6 31.3 0C 0A 2230 091C Alarm State:  0
Sat Sep 24 19:46:00 PDT 2022 ON: 20.00 +20.0 19.88 -11.7 31.2 0C 0A 220E 0908 Alarm State:  0
Sat Sep 24 19:44:58 PDT 2022 ON: 20.00 +20.0 19.87 -11.6 31.2 06 0B 2132 091C Alarm State:  0
Sat Sep 24 19:43:57 PDT 2022 ON: 20.00 +20.0 19.87 -11.6 31.3 06 0B 212E 0908 Alarm State:  0
Sat Sep 24 19:42:55 PDT 2022 ON: 20.00 +20.0 19.87 -11.6 31.3 09 0B 2129 091C Alarm State:  0
Sat Sep 24 19:41:54 PDT 2022 ON: 20.00 +20.0 19.88 -11.6 31.3 06 0A 2123 0908 Alarm State:  0
Sat Sep 24 19:40:52 PDT 2022 ON: 20.01 +20.0 19.89 -11.6 31.2 06 0A 210C 091C Alarm State:  0
Sat Sep 24 19:39:51 PDT 2022 ON: 20.01 +20.0 19.88 -11.6 31.3 06 0A 210E 0908 Alarm State:  0
Sat Sep 24 19:38:49 PDT 2022 ON: 20.01 +20.0 19.89 -11.6 31.3 06 0A 210F 091C Alarm State:  0
Sat Sep 24 19:37:48 PDT 2022 ON: 20.00 +20.0 19.87 -11.6 31.3 09 0B 210D 0908 Alarm State:  0
Sat Sep 24 19:36:46 PDT 2022 ON: 20.01 +20.0 19.89 -11.6 31.3 09 0A 2112 091C Alarm State:  0
Sat Sep 24 19:35:45 PDT 2022 ON: 20.00 +20.0 19.87 -11.6 31.3 06 0B 2114 0908 Alarm State:  0
Sat Sep 24 19:34:43 PDT 2022 ON: 20.00 +20.0 19.88 -11.6 31.3 02 0A 2122 091D Alarm State:  0
Sat Sep 24 19:33:42 PDT 2022 ON: 20.01 +20.0 19.88 -11.6 31.3 06 0A 2200 0908 Alarm State:  0
Sat Sep 24 19:32:40 PDT 2022 ON: 20.01 +20.0 19.88 -11.6 31.3 06 0A 212B 091D Alarm State:  0
Sat Sep 24 19:31:39 PDT 2022 ON: 20.00 +20.0 19.87 -11.6 31.3 06 0B 220B 0908 Alarm State:  0
Sat Sep 24 19:30:37 PDT 2022 ON: 20.01 +20.0 19.88 -11.6 31.3 06 0A 2201 091D Alarm State:  0
Sat Sep 24 19:29:36 PDT 2022 ON: 20.00 +20.0 19.88 -11.6 31.3 06 0A 220E 0908 Alarm State:  0
Sat Sep 24 19:28:34 PDT 2022 ON: 20.01 +20.0 19.88 -11.6 31.3 06 0A 221E 091D Alarm State:  0
Sat Sep 24 19:27:33 PDT 2022 ON: 20.01 +20.0 19.87 -11.6 31.3 06 0B 230E 0908 Alarm State:  0
Sat Sep 24 19:26:31 PDT 2022 ON: 20.01 +20.0 19.88 -11.6 31.3 06 0A 222F 091D Alarm State:  0
Sat Sep 24 19:25:30 PDT 2022 ON: 20.00 +20.0 19.87 -11.6 31.3 06 0B 230F 0908 Alarm State:  0
Sat Sep 24 19:24:28 PDT 2022 ON: 20.00 +20.0 19.87 -11.6 31.3 06 0B 2307 091D Alarm State:  0
Sat Sep 24 19:23:27 PDT 2022 ON: 20.00 +20.0 19.87 -11.6 31.3 06 0B 2320 0908 Alarm State:  0
Sat Sep 24 19:22:25 PDT 2022 ON: 20.01 +20.0 19.88 -11.6 31.3 00 0A 241B 091D Alarm State:  0
Sat Sep 24 19:21:24 PDT 2022 ON: 20.01 +20.0 19.88 -11.6 31.3 00 0A 240E 0908 Alarm State:  0
Sat Sep 24 19:20:22 PDT 2022 ON: 20.00 +20.0 19.87 -11.6 31.3 06 0B 241C 091D Alarm State:  0
Sat Sep 24 19:19:21 PDT 2022 ON: 20.00 +20.0 19.88 -11.6 31.2 06 0A 241F 0908 Alarm State:  0
Sat Sep 24 19:18:19 PDT 2022 ON: 20.00 +20.0 19.88 -11.6 31.3 0A 0A 2500 091D Alarm State:  0
Sat Sep 24 19:17:18 PDT 2022 ON: 20.00 +20.0 19.88 -11.6 31.3 06 0A 2513 0908 Alarm State:  0
Sat Sep 24 19:16:16 PDT 2022 ON: 20.00 +20.0 19.88 -11.6 31.2 06 0A 251F 091D Alarm State:  0
Sat Sep 24 19:15:15 PDT 2022 ON: 20.00 +20.0 19.88 -11.6 31.2 06 0A 260B 0908 Alarm State:  0
Sat Sep 24 19:14:13 PDT 2022 ON: 20.00 +20.0 19.88 -11.6 31.3 02 0A 2617 091D Alarm State:  0
Sat Sep 24 19:13:12 PDT 2022 ON: 20.00 +20.0 19.87 -11.5 31.3 0A 0B 262A 0906 Alarm State:  0
Sat Sep 24 19:12:10 PDT 2022 ON: 20.00 +20.0 19.87 -11.5 31.3 06 0B 2715 091B Alarm State:  0
Sat Sep 24 19:11:08 PDT 2022 ON: 20.00 +20.0 19.88 -11.6 31.3 06 0A 270E 0906 Alarm State:  0
Sat Sep 24 19:10:07 PDT 2022 ON: 20.00 +20.0 19.87 -11.6 31.3 06 0B 2712 091B Alarm State:  0
Sat Sep 24 19:09:05 PDT 2022 ON: 20.00 +20.0 19.87 -11.6 31.2 06 0B 272D 0906 Alarm State:  0
Sat Sep 24 19:08:04 PDT 2022 ON: 20.00 +20.0 19.87 -11.4 31.4 0A 0B 2814 091B Alarm State:  0
Sat Sep 24 19:07:02 PDT 2022 ON: 20.01 +20.0 19.88 -11.4 31.4 06 0A 2831 0904 Alarm State:  0
Sat Sep 24 19:06:01 PDT 2022 ON: 20.01 +20.0 19.88 -11.6 31.2 0A 0A 2912 0919 Alarm State:  0
Sat Sep 24 19:04:59 PDT 2022 ON: 20.01 +20.0 19.89 -11.8 31.2 07 0A 282E 0904 Alarm State:  0
Sat Sep 24 19:03:58 PDT 2022 ON: 20.01 +20.0 19.88 -11.9 31.1 07 0A 2804 0919 Alarm State:  0
Sat Sep 24 19:02:56 PDT 2022 ON: 20.01 +20.0 19.87 -11.8 31.1 07 0B 271E 0904 Alarm State:  0
Sat Sep 24 19:01:55 PDT 2022 ON: 20.01 +20.0 19.88 -11.7 31.3 02 0A 2706 0919 Alarm State:  0
Sat Sep 24 19:00:53 PDT 2022 ON: 20.01 +20.0 19.88 -11.7 31.3 06 0A 2622 0904 Alarm State:  0
Sat Sep 24 18:59:52 PDT 2022 ON: 20.00 +20.0 19.88 -11.8 31.2 00 0A 2614 0919 Alarm State:  0
Sat Sep 24 18:58:50 PDT 2022 ON: 20.01 +20.0 19.88 -11.8 31.1 07 0A 2605 0904 Alarm State:  0
Sat Sep 24 18:57:49 PDT 2022 ON: 20.01 +20.0 19.89 -11.9 31.2 0E 0A 242D 0919 Alarm State:  0
Sat Sep 24 18:56:47 PDT 2022 ON: 20.01 +20.0 19.88 -11.9 31.2 0E 0A 2410 0904 Alarm State:  0
Sat Sep 24 18:55:46 PDT 2022 ON: 20.01 +20.0 19.88 -11.8 31.2 06 0A 2311 0919 Alarm State:  0
Sat Sep 24 18:54:44 PDT 2022 ON: 20.01 +20.0 19.89 -11.9 31.1 06 0A 2211 0904 Alarm State:  0
Sat Sep 24 18:53:43 PDT 2022 ON: 20.01 +20.0 19.88 -11.9 31.1 06 0A 2114 0919 Alarm State:  0
Sat Sep 24 18:52:41 PDT 2022 ON: 20.01 +20.0 19.88 -11.9 31.2 06 0A 2024 0904 Alarm State:  0
Sat Sep 24 18:51:40 PDT 2022 ON: 20.01 +20.0 19.88 -11.8 31.2 06 0A 2000 0919 Alarm State:  0
Sat Sep 24 18:50:38 PDT 2022 ON: 20.01 +20.0 19.89 -11.8 31.2 0A 0A 1F20 0904 Alarm State:  0
Sat Sep 24 18:49:37 PDT 2022 ON: 20.01 +20.0 19.88 -11.8 31.2 00 0A 1F02 0919 Alarm State:  0
Sat Sep 24 18:48:35 PDT 2022 ON: 20.00 +20.0 19.88 -11.9 31.2 0D 0A 1E14 0904 Alarm State:  0
Sat Sep 24 18:47:34 PDT 2022 ON: 20.01 +20.0 19.87 -11.9 31.2 06 0B 1E18 0919 Alarm State:  0
Sat Sep 24 18:46:32 PDT 2022 ON: 20.01 +20.0 19.87 -11.9 31.1 0D 0B 1D28 0904 Alarm State:  0
Sat Sep 24 18:45:31 PDT 2022 ON: 20.01 +20.0 19.89 -11.8 31.2 00 0A 1C2D 0919 Alarm State:  0
Sat Sep 24 18:44:29 PDT 2022 ON: 20.00 +20.0 19.87 -11.9 31.2 06 0B 1C0A 0904 Alarm State:  0
Sat Sep 24 18:43:28 PDT 2022 ON: 20.01 +20.0 19.88 -11.8 31.2 06 0A 1B17 0919 Alarm State:  0
Sat Sep 24 18:42:26 PDT 2022 ON: 20.01 +20.0 19.88 -11.8 31.2 06 0A 1A31 0904 Alarm State:  0
Sat Sep 24 18:41:25 PDT 2022 ON: 20.00 +20.0 19.87 -11.8 31.2 06 0B 1A11 0919 Alarm State:  0
Sat Sep 24 18:40:23 PDT 2022 ON: 20.01 +20.0 19.88 -11.8 31.2 06 0A 191D 0904 Alarm State:  0
Sat Sep 24 18:39:22 PDT 2022 ON: 20.01 +20.0 19.89 -11.8 31.2 06 0A 1826 0919 Alarm State:  0
Sat Sep 24 18:38:20 PDT 2022 ON: 20.01 +20.0 19.88 -11.8 31.2 0D 0A 1819 0904 Alarm State:  0
Sat Sep 24 18:37:19 PDT 2022 ON: 20.01 +20.0 19.88 -11.8 31.2 06 0A 180B 0919 Alarm State:  0
Sat Sep 24 18:36:17 PDT 2022 ON: 20.00 +20.0 19.88 -11.8 31.2 09 0A 172D 0904 Alarm State:  0
Sat Sep 24 18:35:16 PDT 2022 ON: 20.01 +20.0 19.87 -11.9 31.2 06 0B 170B 0919 Alarm State:  0
Sat Sep 24 18:34:14 PDT 2022 ON: 20.01 +20.0 19.89 -11.8 31.2 06 0A 162D 0904 Alarm State:  0
Sat Sep 24 18:33:13 PDT 2022 ON: 20.01 +20.0 19.88 -11.8 31.2 06 0A 1619 0919 Alarm State:  0
Sat Sep 24 18:32:11 PDT 2022 ON: 20.00 +20.0 19.89 -11.9 31.2 06 0A 1604 0904 Alarm State:  0
Sat Sep 24 18:31:10 PDT 2022 ON: 20.00 +20.0 19.88 -11.8 31.2 06 0A 1531 0919 Alarm State:  0
Sat Sep 24 18:30:08 PDT 2022 ON: 20.00 +20.0 19.87 -11.8 31.2 06 0B 160D 0902 Alarm State:  0
Sat Sep 24 18:29:07 PDT 2022 ON: 20.01 +20.0 19.87 -11.8 31.2 06 0B 1526 0917 Alarm State:  0
Sat Sep 24 18:28:05 PDT 2022 ON: 20.00 +20.0 19.88 -11.8 31.3 06 0A 151A 0903 Alarm State:  0
Sat Sep 24 18:27:04 PDT 2022 ON: 20.01 +20.0 19.88 -11.8 31.3 06 0A 1523 0917 Alarm State:  0
Sat Sep 24 18:26:02 PDT 2022 ON: 20.00 +20.0 19.88 -11.7 31.2 06 0A 150D 0903 Alarm State:  0
Sat Sep 24 18:25:01 PDT 2022 ON: 20.01 +20.0 19.88 -11.8 31.2 06 0A 150A 0917 Alarm State:  0
Sat Sep 24 18:23:59 PDT 2022 ON: 20.01 +20.0 19.89 -12.0 31.1 06 0A 141B 0903 Alarm State:  0
Sat Sep 24 18:22:58 PDT 2022 ON: 20.01 +20.0 19.88 -12.0 31.1 06 0A 1400 0917 Alarm State:  0
Sat Sep 24 18:21:56 PDT 2022 ON: 20.00 +20.0 19.88 -11.8 31.1 09 0A 140C 0903 Alarm State:  0
Sat Sep 24 18:20:55 PDT 2022 ON: 20.00 +20.0 19.88 -11.7 31.3 05 0A 1425 0917 Alarm State:  0
Sat Sep 24 18:19:53 PDT 2022 ON: 20.01 +20.0 19.88 -11.8 31.0 06 0A 1502 0924 Alarm State:  0
Sat Sep 24 18:18:52 PDT 2022 ON: 20.00 +20.0 19.88 -11.8 30.6 06 0B 1418 0A0F Alarm State:  0
Sat Sep 24 18:17:50 PDT 2022 ON: 19.98 +20.0 19.88 -11.2 30.7 04 0B 1521 0A22 Alarm State:  0
Sat Sep 24 18:16:49 PDT 2022 ON: 19.96 +20.0 19.84 - 9.2 32.1 0D 0C 162B 0917 Alarm State:  0
Sat Sep 24 18:15:47 PDT 2022 ON: 20.02 +20.0 19.90 -12.6 30.7 0E 09 1619 0908 Alarm State:  0
Sat Sep 24 18:14:46 PDT 2022 ON: 20.02 +20.0 19.89 -12.2 31.1 0D 0A 150F 091C Alarm State:  0
Sat Sep 24 18:13:44 PDT 2022 ON: 20.02 +20.0 19.89 -12.0 31.2 06 0A 1404 0908 Alarm State:  0
Sat Sep 24 18:12:42 PDT 2022 ON: 20.03 +20.0 19.90 -12.5 30.9 00 09 122D 091C Alarm State:  0
Sat Sep 24 18:11:41 PDT 2022 ON: 20.02 +20.0 19.89 -12.6 30.8 07 0A 1122 0908 Alarm State:  0
Sat Sep 24 18:10:39 PDT 2022 ON: 20.01 +20.0 19.89 -12.3 31.1 03 0A 1018 091C Alarm State:  0
Sat Sep 24 18:09:38 PDT 2022 ON: 20.02 +20.0 19.89 -12.3 31.1 00 0A 0F0D 0908 Alarm State:  0
Sat Sep 24 18:08:36 PDT 2022 ON: 20.02 +20.0 19.89 -12.6 30.9 01 0A 0E03 091C Alarm State:  0
Sat Sep 24 18:07:35 PDT 2022 ON: 20.02 +20.0 19.90 -12.8 30.6 07 09 0C2B 0908 Alarm State:  0
Sat Sep 24 18:06:33 PDT 2022 ON: 20.02 +20.0 19.89 -12.4 30.9 03 0A 0B21 091C Alarm State:  0
Sat Sep 24 18:05:32 PDT 2022 ON: 20.01 +20.0 19.88 -12.2 31.1 06 0A 0A1A 0908 Alarm State:  0
Sat Sep 24 18:04:30 PDT 2022 ON: 20.01 +20.0 19.88 -12.0 31.2 06 0A 0914 091C Alarm State:  0
Sat Sep 24 18:03:29 PDT 2022 ON: 20.03 +20.0 19.90 -12.6 30.9 01 09 0809 0908 Alarm State:  0
Sat Sep 24 18:02:27 PDT 2022 ON: 20.03 +20.0 19.92 -13.4 30.0 09 08 0632 091C Alarm State:  0
Sat Sep 24 18:01:26 PDT 2022 ON: 20.00 +20.0 19.89 -13.0 30.1 07 0A 0600 0908 Alarm State:  0
Sat Sep 24 18:00:24 PDT 2022 ON: 19.99 +20.0 19.87 -11.7 31.3 05 0B 060D 0924 Alarm State:  0
Sat Sep 24 17:59:23 PDT 2022 ON: 19.99 +20.0 19.87 -11.7 31.2 05 0B 070C 0A02 Alarm State:  0
Sat Sep 24 17:58:21 PDT 2022 ON: 20.00 +20.0 19.88 -11.7 31.2 05 0A 0816 090F Alarm State:  0
Sat Sep 24 17:57:20 PDT 2022 ON: 20.00 +20.0 19.88 -11.7 31.3 05 0A 0921 0920 Alarm State:  0
Sat Sep 24 17:56:18 PDT 2022 ON: 20.00 +20.0 19.87 -11.7 31.3 05 0B 0A2B 0920 Alarm State:  0
Sat Sep 24 17:55:17 PDT 2022 ON: 20.00 +20.0 19.87 -11.8 31.2 06 0B 0B18 0927 Alarm State:  0
Sat Sep 24 17:54:15 PDT 2022 ON: 20.00 +20.0 19.88 -11.7 31.2 05 0A 0C22 0912 Alarm State:  0
Sat Sep 24 17:53:14 PDT 2022 ON: 20.00 +20.0 19.87 -11.7 31.2 05 0B 0D2D 0927 Alarm State:  0
Sat Sep 24 17:52:12 PDT 2022 ON: 20.00 +20.0 19.88 -11.7 31.3 05 0A 0F04 0919 Alarm State:  0
Sat Sep 24 17:51:11 PDT 2022 ON: 20.00 +20.0 19.88 -11.8 31.2 06 0A 0F2C 0905 Alarm State:  0
Sat Sep 24 17:50:09 PDT 2022 ON: 20.01 +20.0 19.89 -11.9 31.1 06 0A 1008 0919 Alarm State:  0
Sat Sep 24 17:49:08 PDT 2022 ON: 20.01 +20.0 19.88 -11.9 31.1 06 0A 100A 0905 Alarm State:  0
Sat Sep 24 17:48:06 PDT 2022 ON: 20.00 +20.0 19.88 -11.8 31.2 06 0A 100F 0919 Alarm State:  0
Sat Sep 24 17:47:05 PDT 2022 ON: 20.01 +20.0 19.88 -11.9 31.1 06 0A 1019 0905 Alarm State:  0
Sat Sep 24 17:46:03 PDT 2022 ON: 20.01 +20.0 19.89 -11.9 31.1 09 0A 1009 091A Alarm State:  0
Sat Sep 24 17:45:02 PDT 2022 ON: 20.00 +20.0 19.88 -11.8 31.2 0C 0A 100C 0905 Alarm State:  0
Sat Sep 24 17:44:00 PDT 2022 ON: 20.01 +20.0 19.88 -11.7 31.3 05 0A 1000 091A Alarm State:  0
Sat Sep 24 17:42:58 PDT 2022 ON: 20.01 +20.0 19.87 -11.9 31.2 06 0B 1001 0905 Alarm State:  0
Sat Sep 24 17:41:57 PDT 2022 ON: 20.01 +20.0 19.89 -12.1 31.0 06 0A 0E29 091A Alarm State:  0
Sat Sep 24 17:40:55 PDT 2022 ON: 20.00 +20.0 19.88 -12.0 30.9 06 0A 0E00 0905 Alarm State:  0
Sat Sep 24 17:39:54 PDT 2022 ON: 20.00 +20.0 19.88 -11.5 31.3 05 0A 0F0B 091A Alarm State:  0
Sat Sep 24 17:38:52 PDT 2022 ON: 20.00 +20.0 19.87 -11.1 31.5 07 0B 1015 0905 Alarm State:  0
Sat Sep 24 17:37:51 PDT 2022 ON: 20.02 +20.0 19.89 -11.8 31.1 09 0A 1017 091A Alarm State:  0
Sat Sep 24 17:36:49 PDT 2022 ON: 20.02 +20.0 19.90 -13.4 29.6 0C 09 0F0D 0905 Alarm State:  0
Sat Sep 24 17:35:48 PDT 2022 ON: 20.01 +20.0 19.84 -10.6 31.4 00 0C 0E2A 091A Alarm State:  0
Sat Sep 24 17:34:46 PDT 2022 ON: 20.03 +20.0 19.92 -13.4 29.3 06 08 0D20 0905 Alarm State:  0
Sat Sep 24 17:33:45 PDT 2022 ON: 20.01 +20.0 19.87 -11.9 31.3 06 0B 0C1F 091A Alarm State:  0
Sat Sep 24 17:32:43 PDT 2022 ON: 20.00 +20.0 19.87 -11.6 31.3 05 0B 0D15 0905 Alarm State:  0
Sat Sep 24 17:31:42 PDT 2022 ON: 20.00 +20.0 19.87 -11.6 31.3 0B 0B 0E1A 091A Alarm State:  0
Sat Sep 24 17:30:40 PDT 2022 ON: 20.00 +20.0 19.87 -11.6 31.3 05 0B 0F20 0901 Alarm State:  0
Sat Sep 24 17:29:39 PDT 2022 ON: 20.00 +20.0 19.87 -11.6 31.2 05 0B 1029 0912 Alarm State:  0
Sat Sep 24 17:28:37 PDT 2022 ON: 20.00 +20.0 19.88 -11.6 31.3 05 0A 1129 0924 Alarm State:  0
Sat Sep 24 17:27:36 PDT 2022 ON: 20.00 +20.0 19.86 -11.5 31.3 05 0B 1232 0902 Alarm State:  0
Sat Sep 24 17:26:34 PDT 2022 ON: 20.00 +20.0 19.88 -11.5 31.3 05 0A 132C 090E Alarm State:  0
Sat Sep 24 17:25:33 PDT 2022 ON: 20.00 +20.0 19.87 -11.5 31.3 02 0B 1504 091D Alarm State:  0
Sat Sep 24 17:24:31 PDT 2022 ON: 20.01 +20.0 19.89 -11.6 31.2 05 0A 1606 0904 Alarm State:  0
Sat Sep 24 17:23:30 PDT 2022 ON: 20.00 +20.0 19.86 -11.6 31.3 05 0B 170F 090D Alarm State:  0
Sat Sep 24 17:22:28 PDT 2022 ON: 20.00 +20.0 19.87 -11.5 31.3 05 0B 1819 0913 Alarm State:  0
Sat Sep 24 17:21:27 PDT 2022 ON: 20.01 +20.0 19.89 -11.5 31.3 06 0A 191E 091A Alarm State:  0
Sat Sep 24 17:20:25 PDT 2022 ON: 20.00 +20.0 19.87 -11.6 31.3 06 0B 1A22 0918 Alarm State:  0
Sat Sep 24 17:19:24 PDT 2022 ON: 20.00 +20.0 19.87 -11.6 31.2 06 0B 1B19 0923 Alarm State:  0
Sat Sep 24 17:18:22 PDT 2022 ON: 20.00 +20.0 19.88 -11.5 31.3 06 0A 1C1B 090E Alarm State:  0
Sat Sep 24 17:17:21 PDT 2022 ON: 20.00 +20.0 19.88 -11.5 31.4 02 0A 1D20 090F Alarm State:  0
Sat Sep 24 17:16:19 PDT 2022 ON: 20.00 +20.0 19.87 -11.6 31.3 06 0B 1E20 091F Alarm State:  0
Sat Sep 24 17:15:18 PDT 2022 ON: 20.00 +20.0 19.88 -11.7 31.2 09 0A 1F03 0909 Alarm State:  0
Sat Sep 24 17:14:16 PDT 2022 ON: 20.00 +20.0 19.87 -11.6 31.2 06 0B 200D 0917 Alarm State:  0
Sat Sep 24 17:13:15 PDT 2022 ON: 20.00 +20.0 19.87 -11.4 31.4 06 0B 2118 0926 Alarm State:  0
Sat Sep 24 17:12:13 PDT 2022 ON: 20.00 +20.0 19.87 -11.4 31.4 06 0B 2216 0911 Alarm State:  0
Sat Sep 24 17:11:12 PDT 2022 ON: 20.00 +20.0 19.87 -11.7 31.2 06 0B 231D 0926 Alarm State:  0
Sat Sep 24 17:10:10 PDT 2022 ON: 20.01 +20.0 19.88 -11.9 31.0 06 0A 2320 0911 Alarm State:  0
Sat Sep 24 17:09:09 PDT 2022 ON: 20.00 +20.0 19.88 -11.6 31.1 10 0A 2413 0926 Alarm State:  0
Sat Sep 24 17:08:07 PDT 2022 ON: 19.99 +20.0 19.86 -11.1 31.5 00 0B 251D 0925 Alarm State:  0
Sat Sep 24 17:07:06 PDT 2022 ON: 20.00 +20.0 19.87 -11.0 31.6 06 0B 2628 0914 Alarm State:  0
Sat Sep 24 17:06:04 PDT 2022 ON: 20.01 +20.0 19.88 -11.8 31.1 0A 0A 2712 0928 Alarm State:  0
Sat Sep 24 17:05:03 PDT 2022 ON: 20.01 +20.0 19.89 -11.9 31.2 07 0A 260F 0914 Alarm State:  0
Sat Sep 24 17:04:01 PDT 2022 ON: 20.01 +20.0 19.88 -12.0 31.1 07 0A 2512 0900 Alarm State:  0
Sat Sep 24 17:03:00 PDT 2022 ON: 20.01 +20.0 19.88 -12.0 31.1 02 0A 2408 0914 Alarm State:  0
Sat Sep 24 17:01:47 PDT 2022  Alarm State: 0
Sat Sep 24 17:01:47 PDT 2022 Chiller did not report ON, got this reading: 
Sat Sep 24 17:00:46 PDT 2022 ON: 20.00 +20.0 19.87 -11.9 31.2 06 0B 2216 091F Alarm State:  0
Sat Sep 24 16:59:44 PDT 2022 ON: 20.00 +20.0 19.88 -12.0 31.1 06 0A 211E 090A Alarm State:  0
Sat Sep 24 16:58:43 PDT 2022 ON: 20.01 +20.0 19.88 -12.0 31.1 0A 0A 2100 091F Alarm State:  0
Sat Sep 24 16:57:41 PDT 2022 ON: 20.01 +20.0 19.89 -12.0 31.1 06 0A 201A 090A Alarm State:  0
Sat Sep 24 16:56:40 PDT 2022 ON: 20.01 +20.0 19.88 -11.9 31.2 06 0A 1F2F 091F Alarm State:  0
Sat Sep 24 16:55:38 PDT 2022 ON: 20.01 +20.0 19.88 -11.9 31.2 06 0A 1F00 090A Alarm State:  0
Sat Sep 24 16:54:37 PDT 2022 ON: 20.01 +20.0 19.88 -12.0 31.1 06 0A 1E0B 091F Alarm State:  0
Sat Sep 24 16:53:35 PDT 2022 ON: 20.01 +20.0 19.88 -12.0 31.0 06 0A 1D03 090A Alarm State:  0
Sat Sep 24 16:52:34 PDT 2022 ON: 20.00 +20.0 19.88 -12.0 31.1 00 0A 1C06 091F Alarm State:  0
Sat Sep 24 16:51:32 PDT 2022 ON: 20.00 +20.0 19.87 -11.8 31.2 00 0B 1B1E 090A Alarm State:  0
Sat Sep 24 16:50:31 PDT 2022 ON: 20.01 +20.0 19.88 -12.0 31.1 02 0A 1A2F 091F Alarm State:  0
Sat Sep 24 16:49:29 PDT 2022 ON: 20.01 +20.0 19.88 -12.1 31.0 06 0A 1A06 090A Alarm State:  0
Sat Sep 24 16:48:28 PDT 2022 ON: 20.01 +20.0 19.89 -12.0 31.1 06 0A 1915 091F Alarm State:  0
Sat Sep 24 16:47:26 PDT 2022 ON: 20.01 +20.0 19.87 -11.9 31.2 06 0B 182D 090A Alarm State:  0
Sat Sep 24 16:46:25 PDT 2022 ON: 20.02 +20.0 19.89 -11.9 31.1 06 0A 172C 091F Alarm State:  0
Sat Sep 24 16:45:23 PDT 2022 ON: 20.01 +20.0 19.88 -12.1 31.1 06 0A 1623 090B Alarm State:  0
Sat Sep 24 16:44:22 PDT 2022 ON: 20.01 +20.0 19.88 -12.0 31.0 09 0A 1519 091F Alarm State:  0
Sat Sep 24 16:43:20 PDT 2022 ON: 20.01 +20.0 19.88 -11.9 31.2 06 0A 1428 090B Alarm State:  0
Sat Sep 24 16:42:18 PDT 2022 ON: 20.01 +20.0 19.88 -11.8 31.3 06 0A 1409 091F Alarm State:  0
Sat Sep 24 16:41:17 PDT 2022 ON: 20.01 +20.0 19.89 -12.0 31.1 00 0A 1231 090B Alarm State:  0
Sat Sep 24 16:40:15 PDT 2022 ON: 20.02 +20.0 19.89 -12.3 30.8 0A 0A 1127 091F Alarm State:  0
Sat Sep 24 16:39:14 PDT 2022 ON: 20.01 +20.0 19.88 -12.1 30.9 0C 0A 1024 090B Alarm State:  0
Sat Sep 24 16:38:12 PDT 2022 ON: 20.01 +20.0 19.88 -11.6 31.3 05 0A 1027 091F Alarm State:  0
Sat Sep 24 16:37:11 PDT 2022 ON: 20.01 +20.0 19.88 -11.4 31.4 05 0A 1120 090B Alarm State:  0
Sat Sep 24 16:36:09 PDT 2022 ON: 20.02 +20.0 19.90 -12.2 31.0 00 09 1016 091F Alarm State:  0
Sat Sep 24 16:35:08 PDT 2022 ON: 20.02 +20.0 19.90 -13.0 30.3 04 09 0F0B 090B Alarm State:  0
Sat Sep 24 16:34:06 PDT 2022 ON: 20.00 +20.0 19.88 -11.7 31.5 08 0A 0E07 091F Alarm State:  0
Sat Sep 24 16:33:05 PDT 2022 ON: 20.02 +20.0 19.89 -12.4 30.8 03 0A 0D04 090B Alarm State:  0
Sat Sep 24 16:32:03 PDT 2022 ON: 20.02 +20.0 19.90 -13.0 30.1 0E 09 0B2D 091F Alarm State:  0
Sat Sep 24 16:31:02 PDT 2022 ON: 20.01 +20.0 19.88 -11.8 31.1 00 0A 0A32 090B Alarm State:  0
Sat Sep 24 16:30:00 PDT 2022 ON: 20.01 +20.0 19.87 -11.7 31.2 05 0B 0B16 091F Alarm State:  0
Sat Sep 24 16:28:59 PDT 2022 ON: 20.00 +20.0 19.87 -11.6 31.3 05 0B 0C0D 090B Alarm State:  0
Sat Sep 24 16:27:57 PDT 2022 ON: 20.00 +20.0 19.88 -11.7 31.3 05 0A 0D13 091F Alarm State:  0
Sat Sep 24 16:26:56 PDT 2022 ON: 20.00 +20.0 19.87 -11.7 31.2 05 0B 0D0D 090B Alarm State:  0
Sat Sep 24 16:25:54 PDT 2022 ON: 20.00 +20.0 19.87 -11.8 31.1 06 0B 0E0D 091F Alarm State:  0
Sat Sep 24 16:24:53 PDT 2022 ON: 20.00 +20.0 19.88 -11.7 31.2 05 0A 0F16 090B Alarm State:  0
Sat Sep 24 16:23:51 PDT 2022 ON: 20.00 +20.0 19.87 -11.5 31.4 05 0B 0F11 091F Alarm State:  0
Sat Sep 24 16:22:50 PDT 2022 ON: 20.01 +20.0 19.88 -11.6 31.3 00 0A 0F2B 090B Alarm State:  0
Sat Sep 24 16:21:48 PDT 2022 ON: 20.01 +20.0 19.88 -11.7 31.2 00 0A 0F2C 091F Alarm State:  0
Sat Sep 24 16:20:47 PDT 2022 ON: 20.00 +20.0 19.88 -12.0 30.9 09 0A 102B 090B Alarm State:  0
Sat Sep 24 16:19:45 PDT 2022 ON: 20.00 +20.0 19.88 -11.8 31.0 06 0A 1030 091F Alarm State:  0
Sat Sep 24 16:18:44 PDT 2022 ON: 20.00 +20.0 19.87 -11.3 31.4 00 0B 1208 0905 Alarm State:  0
Sat Sep 24 16:17:42 PDT 2022 ON: 20.00 +20.0 19.87 -11.0 31.6 01 0B 1312 090A Alarm State:  0
Sat Sep 24 16:16:41 PDT 2022 ON: 20.02 +20.0 19.88 -11.7 31.1 06 0A 1304 091D Alarm State:  0
Sat Sep 24 16:15:39 PDT 2022 ON: 20.02 +20.0 19.90 -12.9 30.1 07 09 112D 0908 Alarm State:  0
Sat Sep 24 16:14:38 PDT 2022 ON: 20.00 +20.0 19.87 -11.7 30.9 05 0B 110B 0919 Alarm State:  0
Sat Sep 24 16:13:36 PDT 2022 ON: 20.00 +20.0 19.86 -11.0 31.3 01 0B 111C 0921 Alarm State:  0
Sat Sep 24 16:12:35 PDT 2022 ON: 20.02 +20.0 19.89 -13.1 28.7 08 0A 1019 090D Alarm State:  0
Sat Sep 24 16:11:33 PDT 2022 ON: 20.01 +20.0 19.82 - 9.4 31.3 00 0D 1024 091D Alarm State:  0
Sat Sep 24 16:10:32 PDT 2022 ON: 20.01 +20.0 19.89 -12.6 30.8 04 0A 0F19 0909 Alarm State:  0
Sat Sep 24 16:09:30 PDT 2022 ON: 20.02 +20.0 19.90 -12.4 30.9 03 09 0E0F 091D Alarm State:  0
Sat Sep 24 16:08:29 PDT 2022 ON: 20.02 +20.0 19.89 -12.2 31.1 06 0A 0D04 0909 Alarm State:  0
Sat Sep 24 16:07:27 PDT 2022 ON: 20.02 +20.0 19.89 -12.2 31.0 00 0A 0B2D 091D Alarm State:  0
Sat Sep 24 16:06:26 PDT 2022 ON: 20.03 +20.0 19.91 -13.7 29.1 0C 09 0A22 0909 Alarm State:  0
Sat Sep 24 16:05:24 PDT 2022 ON: 20.01 +20.0 19.84 -10.2 31.3 02 0C 091C 091D Alarm State:  0
Sat Sep 24 16:04:23 PDT 2022 ON: 20.04 +20.0 19.95 -14.7 28.4 0E 07 0811 0909 Alarm State:  0
Sat Sep 24 16:03:21 PDT 2022 ON: 20.00 +20.0 19.87 -11.7 31.2 00 0B 0807 0901 Alarm State:  0
Sat Sep 24 16:02:20 PDT 2022 ON: 20.01 +20.0 19.88 -11.6 31.4 05 0A 080A 090F Alarm State:  0
Sat Sep 24 16:01:18 PDT 2022 ON: 20.01 +20.0 19.88 -11.8 31.2 05 0A 0804 0924 Alarm State:  0
Sat Sep 24 16:00:17 PDT 2022 ON: 20.00 +20.0 19.87 -12.0 31.0 06 0B 070E 090F Alarm State:  0
Sat Sep 24 15:59:15 PDT 2022 ON: 20.00 +20.0 19.88 -11.8 31.1 06 0A 0704 0924 Alarm State:  0
Sat Sep 24 15:58:13 PDT 2022 ON: 20.00 +20.0 19.87 -11.6 31.4 05 0B 0808 090D Alarm State:  0
Sat Sep 24 15:57:12 PDT 2022 ON: 20.00 +20.0 19.88 -11.7 31.3 02 0A 082C 0922 Alarm State:  0
Sat Sep 24 15:56:10 PDT 2022 ON: 20.00 +20.0 19.87 -11.8 31.2 02 0B 090C 0907 Alarm State:  0
Sat Sep 24 15:55:09 PDT 2022 ON: 20.00 +20.0 19.88 -11.9 31.1 06 0A 090C 091C Alarm State:  0
Sat Sep 24 15:54:07 PDT 2022 ON: 20.00 +20.0 19.88 -11.8 31.2 06 0A 0A08 0907 Alarm State:  0
Sat Sep 24 15:53:06 PDT 2022 ON: 20.00 +20.0 19.88 -11.6 31.3 05 0A 0B0B 091C Alarm State:  0
Sat Sep 24 15:52:04 PDT 2022 ON: 20.01 +20.0 19.89 -11.6 31.3 05 0A 0B06 0912 Alarm State:  0
Sat Sep 24 15:51:03 PDT 2022 ON: 20.00 +20.0 19.88 -11.7 31.2 05 0A 0B2C 0927 Alarm State:  0
Sat Sep 24 15:50:01 PDT 2022 ON: 20.00 +20.0 19.88 -11.8 31.2 06 0A 0C30 0912 Alarm State:  0
Sat Sep 24 15:49:00 PDT 2022 ON: 20.00 +20.0 19.87 -11.7 31.3 05 0B 0D0F 0927 Alarm State:  0
Sat Sep 24 15:47:58 PDT 2022 ON: 20.00 +20.0 19.88 -11.7 31.3 02 0B 0D22 0A08 Alarm State:  0
Sat Sep 24 15:46:57 PDT 2022 ON: 20.00 +20.0 19.87 -11.7 31.3 05 0B 0E2D 090B Alarm State:  0
Sat Sep 24 15:45:55 PDT 2022 ON: 20.00 +20.0 19.88 -11.7 31.3 02 0A 1004 0926 Alarm State:  0
Sat Sep 24 15:44:54 PDT 2022 ON: 20.00 +20.0 19.88 -11.6 31.3 05 0A 110D 0913 Alarm State:  0
Sat Sep 24 15:43:52 PDT 2022 ON: 20.00 +20.0 19.87 -11.6 31.3 05 0B 1217 0901 Alarm State:  0
Sat Sep 24 15:42:51 PDT 2022 ON: 19.99 +20.0 19.86 -11.6 31.3 05 0B 1320 0911 Alarm State:  0
Sat Sep 24 15:41:49 PDT 2022 ON: 19.99 +20.0 19.86 -11.7 31.2 05 0B 1400 091D Alarm State:  0
Sat Sep 24 15:40:48 PDT 2022 ON: 20.00 +20.0 19.87 -11.6 31.2 05 0B 142E 091D Alarm State:  0
Sat Sep 24 15:39:46 PDT 2022 ON: 20.00 +20.0 19.87 -11.5 31.4 05 0B 1605 0902 Alarm State:  0
Sat Sep 24 15:38:45 PDT 2022 ON: 20.00 +20.0 19.87 -11.6 31.3 05 0B 1710 090D Alarm State:  0
Sat Sep 24 15:37:43 PDT 2022 ON: 20.00 +20.0 19.87 -11.8 31.1 00 0B 181A 090B Alarm State:  0
Sat Sep 24 15:36:42 PDT 2022 ON: 20.00 +20.0 19.88 -11.7 31.2 06 0A 191F 0914 Alarm State:  0
Sat Sep 24 15:35:40 PDT 2022 ON: 20.00 +20.0 19.88 -11.4 31.4 09 0A 1A27 0928 Alarm State:  0
Sat Sep 24 15:34:39 PDT 2022 ON: 20.00 +20.0 19.88 -11.6 31.3 06 0A 1B00 0914 Alarm State:  0
Sat Sep 24 15:33:37 PDT 2022 ON: 20.00 +20.0 19.88 -11.9 31.1 06 0A 1C06 0928 Alarm State:  0
Sat Sep 24 15:32:36 PDT 2022 ON: 20.01 +20.0 19.88 -11.9 31.1 06 0A 1C30 0914 Alarm State:  0
Sat Sep 24 15:31:34 PDT 2022 ON: 20.01 +20.0 19.88 -11.7 31.2 06 0A 1B32 0928 Alarm State:  0
Sat Sep 24 15:30:33 PDT 2022 ON: 20.00 +20.0 19.88 -11.7 31.3 06 0A 1C21 0914 Alarm State:  0
Sat Sep 24 15:29:31 PDT 2022 ON: 20.01 +20.0 19.88 -11.8 31.2 06 0A 1B2B 0928 Alarm State:  0
Sat Sep 24 15:28:30 PDT 2022 ON: 20.01 +20.0 19.89 -11.9 31.1 06 0A 1B25 0914 Alarm State:  0
Sat Sep 24 15:27:28 PDT 2022 ON: 20.01 +20.0 19.88 -11.9 31.2 02 0A 1B20 0928 Alarm State:  0
Sat Sep 24 15:26:27 PDT 2022 ON: 20.00 +20.0 19.87 -11.7 31.2 06 0B 1B16 0914 Alarm State:  0
Sat Sep 24 15:25:25 PDT 2022 ON: 20.01 +20.0 19.88 -11.7 31.3 06 0A 1B19 0928 Alarm State:  0
Sat Sep 24 15:24:24 PDT 2022 ON: 20.00 +20.0 19.88 -11.8 31.2 06 0A 1A14 0914 Alarm State:  0
Sat Sep 24 15:23:22 PDT 2022 ON: 20.01 +20.0 19.88 -11.8 31.2 06 0A 1A01 0928 Alarm State:  0
Sat Sep 24 15:22:21 PDT 2022 ON: 20.00 +20.0 19.88 -11.8 31.2 06 0A 1900 0914 Alarm State:  0
Sat Sep 24 15:21:19 PDT 2022 ON: 20.00 +20.0 19.88 -11.8 31.1 06 0A 191B 0928 Alarm State:  0
Sat Sep 24 15:20:18 PDT 2022 ON: 20.00 +20.0 19.87 -11.7 31.2 06 0B 1915 0914 Alarm State:  0
Sat Sep 24 15:19:16 PDT 2022 ON: 20.01 +20.0 19.88 -11.7 31.3 06 0A 190C 0928 Alarm State:  0
Sat Sep 24 15:18:15 PDT 2022 ON: 20.01 +20.0 19.88 -11.8 31.2 00 0A 182F 0914 Alarm State:  0
Sat Sep 24 15:17:13 PDT 2022 ON: 20.00 +20.0 19.88 -11.8 31.2 06 0A 1828 0928 Alarm State:  0
Sat Sep 24 15:16:12 PDT 2022 ON: 20.00 +20.0 19.88 -11.8 31.2 06 0A 1824 0914 Alarm State:  0
Sat Sep 24 15:15:10 PDT 2022 ON: 20.00 +20.0 19.87 -11.7 31.3 05 0B 1825 0928 Alarm State:  0
Sat Sep 24 15:14:09 PDT 2022 ON: 20.01 +20.0 19.87 -11.8 31.2 05 0B 1813 0914 Alarm State:  0
Sat Sep 24 15:13:07 PDT 2022 ON: 20.00 +20.0 19.88 -11.7 31.2 00 0A 1723 0928 Alarm State:  0
Sat Sep 24 15:12:06 PDT 2022 ON: 20.01 +20.0 19.88 -11.8 31.2 06 0A 1701 0914 Alarm State:  0
Sat Sep 24 15:11:04 PDT 2022 ON: 20.01 +20.0 19.87 -11.9 31.1 06 0B 152A 0928 Alarm State:  0
Sat Sep 24 15:10:03 PDT 2022 ON: 20.01 +20.0 19.88 -11.9 31.1 0C 0A 1508 0914 Alarm State:  0
Sat Sep 24 15:09:01 PDT 2022 ON: 20.00 +20.0 19.88 -11.7 31.2 05 0A 1428 0928 Alarm State:  0
Sat Sep 24 15:08:00 PDT 2022 ON: 20.00 +20.0 19.87 -11.6 31.4 05 0B 1420 0914 Alarm State:  0
Sat Sep 24 15:06:58 PDT 2022 ON: 20.01 +20.0 19.87 -11.8 31.2 06 0B 1413 0928 Alarm State:  0
Sat Sep 24 15:05:57 PDT 2022 ON: 20.01 +20.0 19.89 -11.9 31.1 00 0A 1419 0914 Alarm State:  0
Sat Sep 24 15:04:55 PDT 2022 ON: 20.01 +20.0 19.88 -11.8 31.1 06 0A 1400 0928 Alarm State:  0
Sat Sep 24 15:03:53 PDT 2022 ON: 20.01 +20.0 19.87 -11.6 31.4 05 0B 1329 0914 Alarm State:  0
Sat Sep 24 15:02:52 PDT 2022 ON: 20.00 +20.0 19.88 -11.8 31.3 06 0A 1329 0900 Alarm State:  0
Sat Sep 24 15:01:50 PDT 2022 ON: 20.01 +20.0 19.88 -11.9 31.1 06 0A 122B 0914 Alarm State:  0
Sat Sep 24 15:00:49 PDT 2022 ON: 20.01 +20.0 19.87 -11.8 31.2 00 0B 131A 0900 Alarm State:  0
Sat Sep 24 14:59:47 PDT 2022 ON: 20.01 +20.0 19.88 -11.7 31.3 0B 0A 1230 0914 Alarm State:  0
Sat Sep 24 14:58:46 PDT 2022 ON: 20.01 +20.0 19.88 -11.6 31.3 00 0A 1313 0900 Alarm State:  0
Sat Sep 24 14:57:44 PDT 2022 ON: 20.01 +20.0 19.88 -11.8 31.2 09 0A 1304 0914 Alarm State:  0
Sat Sep 24 14:56:43 PDT 2022 ON: 20.01 +20.0 19.89 -11.9 31.1 06 0A 122B 0900 Alarm State:  0
Sat Sep 24 14:55:41 PDT 2022 ON: 20.01 +20.0 19.88 -11.8 31.2 00 0A 1222 0914 Alarm State:  0
Sat Sep 24 14:54:40 PDT 2022 ON: 20.00 +20.0 19.88 -11.7 31.3 05 0A 1224 0900 Alarm State:  0
Sat Sep 24 14:53:38 PDT 2022 ON: 20.01 +20.0 19.87 -11.7 31.2 00 0B 1231 0914 Alarm State:  0
Sat Sep 24 14:52:37 PDT 2022 ON: 20.00 +20.0 19.87 -11.8 31.2 06 0B 1316 0900 Alarm State:  0
Sat Sep 24 14:51:35 PDT 2022 ON: 20.01 +20.0 19.88 -11.8 31.2 06 0A 1212 0914 Alarm State:  0
Sat Sep 24 14:50:34 PDT 2022 ON: 20.01 +20.0 19.88 -11.7 31.3 05 0A 1115 0900 Alarm State:  0
Sat Sep 24 14:49:32 PDT 2022 ON: 20.01 +20.0 19.88 -11.8 31.3 06 0A 110E 0914 Alarm State:  0
Sat Sep 24 14:48:31 PDT 2022 ON: 20.00 +20.0 19.87 -11.8 31.2 06 0B 1110 0900 Alarm State:  0
Sat Sep 24 14:47:29 PDT 2022 ON: 20.00 +20.0 19.87 -11.8 31.1 06 0B 101E 0914 Alarm State:  0
Sat Sep 24 14:46:28 PDT 2022 ON: 20.01 +20.0 19.89 -11.7 31.2 0C 0A 1010 0900 Alarm State:  0
Sat Sep 24 14:45:26 PDT 2022 ON: 20.00 +20.0 19.87 -11.6 31.3 00 0B 1015 0914 Alarm State:  0
Sat Sep 24 14:44:25 PDT 2022 ON: 20.01 +20.0 19.88 -11.7 31.2 05 0A 1005 0900 Alarm State:  0
Sat Sep 24 14:43:23 PDT 2022 ON: 20.01 +20.0 19.88 -11.9 31.2 06 0A 0F1D 0914 Alarm State:  0
Sat Sep 24 14:42:22 PDT 2022 ON: 20.01 +20.0 19.88 -11.9 31.1 06 0A 0F01 0900 Alarm State:  0
Sat Sep 24 14:41:20 PDT 2022 ON: 20.01 +20.0 19.87 -11.8 31.2 0C 0B 0F20 0914 Alarm State:  0
Sat Sep 24 14:40:19 PDT 2022 ON: 20.00 +20.0 19.87 -11.7 31.3 00 0B 0F26 0900 Alarm State:  0
Sat Sep 24 14:39:17 PDT 2022 ON: 20.01 +20.0 19.88 -11.7 31.3 05 0A 0F1B 0914 Alarm State:  0
Sat Sep 24 14:38:16 PDT 2022 ON: 20.01 +20.0 19.88 -11.8 31.2 06 0A 0F15 0900 Alarm State:  0
Sat Sep 24 14:37:14 PDT 2022 ON: 20.00 +20.0 19.88 -11.9 31.1 06 0A 0F26 0914 Alarm State:  0
Sat Sep 24 14:36:13 PDT 2022 ON: 20.01 +20.0 19.88 -11.7 31.2 0B 0A 0E21 0900 Alarm State:  0
Sat Sep 24 14:35:11 PDT 2022 ON: 20.01 +20.0 19.87 -11.6 31.3 05 0B 0F13 0914 Alarm State:  0
Sat Sep 24 14:34:10 PDT 2022 ON: 20.00 +20.0 19.87 -11.8 31.2 06 0B 0F29 0900 Alarm State:  0
Sat Sep 24 14:33:08 PDT 2022 ON: 20.00 +20.0 19.87 -11.9 31.1 06 0B 0F28 0914 Alarm State:  0
Sat Sep 24 14:32:07 PDT 2022 ON: 20.00 +20.0 19.88 -11.7 31.2 05 0A 0F12 0900 Alarm State:  0
Sat Sep 24 14:31:05 PDT 2022 ON: 20.01 +20.0 19.88 -11.6 31.4 0B 0A 101A 0914 Alarm State:  0
Sat Sep 24 14:30:04 PDT 2022 ON: 20.01 +20.0 19.88 -11.7 31.3 05 0A 1000 0900 Alarm State:  0
Sat Sep 24 14:29:02 PDT 2022 ON: 20.01 +20.0 19.88 -11.9 31.0 06 0A 0F0C 0914 Alarm State:  0
Sat Sep 24 14:28:01 PDT 2022 ON: 20.01 +20.0 19.88 -11.9 31.0 06 0A 0E2D 0900 Alarm State:  0
Sat Sep 24 14:26:59 PDT 2022 ON: 20.00 +20.0 19.87 -11.6 31.3 05 0B 0F13 0914 Alarm State:  0
Sat Sep 24 14:25:58 PDT 2022 ON: 20.00 +20.0 19.88 -11.4 31.4 05 0A 101A 0900 Alarm State:  0
Sat Sep 24 14:24:56 PDT 2022 ON: 20.01 +20.0 19.88 -11.9 31.2 06 0A 101B 0914 Alarm State:  0
Sat Sep 24 14:23:55 PDT 2022 ON: 20.01 +20.0 19.88 -12.1 30.8 06 0A 0F10 0900 Alarm State:  0
Sat Sep 24 14:22:53 PDT 2022 ON: 20.01 +20.0 19.89 -11.8 31.0 0C 0A 0E0A 0914 Alarm State:  0
Sat Sep 24 14:21:52 PDT 2022 ON: 20.00 +20.0 19.88 -11.3 31.3 04 0A 0F0F 090F Alarm State:  0
Sat Sep 24 14:20:50 PDT 2022 ON: 20.00 +20.0 19.86 -11.0 31.6 04 0B 1017 0905 Alarm State:  0
Sat Sep 24 14:19:49 PDT 2022 ON: 20.02 +20.0 19.88 -11.7 31.1 00 0A 0F2E 0918 Alarm State:  0
Sat Sep 24 14:18:47 PDT 2022 ON: 20.02 +20.0 19.90 -13.4 29.5 0C 09 0E24 0903 Alarm State:  0
Sat Sep 24 14:17:46 PDT 2022 ON: 20.01 +20.0 19.87 -10.9 31.3 00 0B 0E0A 0916 Alarm State:  0
Sat Sep 24 14:16:44 PDT 2022 ON: 20.02 +20.0 19.91 -13.5 29.7 09 09 0D00 0901 Alarm State:  0
Sat Sep 24 14:15:43 PDT 2022 ON: 19.99 +20.0 19.87 -11.9 31.1 06 0B 0C09 0914 Alarm State:  0
Sat Sep 24 14:14:41 PDT 2022 ON: 19.99 +20.0 19.87 -11.4 31.4 05 0B 0D03 0906 Alarm State:  0
Sat Sep 24 14:13:40 PDT 2022 ON: 20.00 +20.0 19.87 -11.4 31.3 05 0B 0D31 090B Alarm State:  0
Sat Sep 24 14:12:38 PDT 2022 ON: 20.00 +20.0 19.88 -11.5 31.3 0B 0A 0E23 0911 Alarm State:  0
Sat Sep 24 14:11:37 PDT 2022 ON: 19.99 +20.0 19.88 -11.4 31.4 05 0A 0F14 0918 Alarm State:  0
Sat Sep 24 14:10:35 PDT 2022 ON: 19.99 +20.0 19.87 -11.4 31.3 05 0B 101E 0915 Alarm State:  0
Sat Sep 24 14:09:34 PDT 2022 ON: 20.00 +20.0 19.87 -11.4 31.3 05 0B 110F 0914 Alarm State:  0
Sat Sep 24 14:08:32 PDT 2022 ON: 19.99 +20.0 19.87 -11.4 31.4 08 0B 120F 0912 Alarm State:  0
Sat Sep 24 14:07:31 PDT 2022 ON: 19.99 +20.0 19.87 -11.3 31.4 04 0B 1314 0929 Alarm State:  0
Sat Sep 24 14:06:29 PDT 2022 ON: 20.00 +20.0 19.86 -11.4 31.4 05 0B 141E 0919 Alarm State:  0
Sat Sep 24 14:05:27 PDT 2022 ON: 20.00 +20.0 19.87 -11.5 31.3 0B 0B 151B 0916 Alarm State:  0
Sat Sep 24 14:04:26 PDT 2022 ON: 20.00 +20.0 19.88 -11.5 31.3 05 0A 161F 090C Alarm State:  0
Sat Sep 24 14:03:24 PDT 2022 ON: 20.00 +20.0 19.87 -11.4 31.3 05 0B 1728 0919 Alarm State:  0
Sat Sep 24 14:02:23 PDT 2022 ON: 20.00 +20.0 19.87 -11.3 31.5 0A 0B 1828 0917 Alarm State:  0
Sat Sep 24 14:01:21 PDT 2022 ON: 19.99 +20.0 19.86 -11.4 31.4 06 0B 1A00 0927 Alarm State:  0
Sat Sep 24 14:00:20 PDT 2022 ON: 20.00 +20.0 19.88 -11.4 31.3 06 0A 1A32 0912 Alarm State:  0
Sat Sep 24 13:59:18 PDT 2022 ON: 19.99 +20.0 19.87 -11.4 31.3 06 0B 1C09 0915 Alarm State:  0
Sat Sep 24 13:58:17 PDT 2022 ON: 20.00 +20.0 19.88 -11.4 31.4 05 0A 1D14 090D Alarm State:  0
Sat Sep 24 13:57:15 PDT 2022 ON: 19.99 +20.0 19.87 -11.3 31.4 05 0B 1E1E 0910 Alarm State:  0
Sat Sep 24 13:56:14 PDT 2022 ON: 20.00 +20.0 19.87 -11.3 31.5 05 0B 1F29 091C Alarm State:  0
Sat Sep 24 13:55:12 PDT 2022 ON: 20.00 +20.0 19.88 -11.3 31.4 08 0A 2100 0901 Alarm State:  0
Sat Sep 24 13:54:11 PDT 2022 ON: 20.00 +20.0 19.87 -11.5 31.4 06 0B 220B 0910 Alarm State:  0
Sat Sep 24 13:53:09 PDT 2022 ON: 20.00 +20.0 19.88 -11.6 31.2 06 0A 2301 0924 Alarm State:  0
Sat Sep 24 13:52:08 PDT 2022 ON: 20.01 +20.0 19.88 -11.4 31.2 06 0B 222E 0A10 Alarm State:  0
Sat Sep 24 13:51:06 PDT 2022 ON: 19.99 +20.0 19.88 -11.1 31.5 01 0B 2310 0B06 Alarm State:  0
Sat Sep 24 13:50:05 PDT 2022 ON: 19.99 +20.0 19.86 -10.9 31.6 0A 0B 241B 0930 Alarm State:  0
Sat Sep 24 13:49:03 PDT 2022 ON: 20.00 +20.0 19.87 -11.3 31.4 06 0B 2525 0916 Alarm State:  0
Sat Sep 24 13:48:02 PDT 2022 ON: 20.00 +20.0 19.89 -11.9 31.2 10 0A 2527 0902 Alarm State:  0
Sat Sep 24 13:47:00 PDT 2022 ON: 20.01 +20.0 19.88 -11.9 31.2 0E 0A 2502 0916 Alarm State:  0
Sat Sep 24 13:45:59 PDT 2022 ON: 20.01 +20.0 19.88 -11.8 31.3 0D 0A 232A 0902 Alarm State:  0
Sat Sep 24 13:44:57 PDT 2022 ON: 20.01 +20.0 19.87 -11.9 31.2 02 0B 230B 0916 Alarm State:  0
Sat Sep 24 13:43:56 PDT 2022 ON: 20.01 +20.0 19.88 -12.0 31.1 0A 0A 2206 0902 Alarm State:  0
Sat Sep 24 13:42:54 PDT 2022 ON: 20.01 +20.0 19.88 -12.0 31.1 06 0A 2106 0916 Alarm State:  0
Sat Sep 24 13:41:53 PDT 2022 ON: 20.01 +20.0 19.88 -11.9 31.1 06 0A 2104 0902 Alarm State:  0
Sat Sep 24 13:40:51 PDT 2022 ON: 20.00 +20.0 19.88 -11.8 31.2 06 0A 201E 0916 Alarm State:  0
Sat Sep 24 13:39:50 PDT 2022 ON: 20.01 +20.0 19.88 -11.8 31.2 02 0A 2022 0902 Alarm State:  0
Sat Sep 24 13:38:48 PDT 2022 ON: 20.01 +20.0 19.88 -11.9 31.2 06 0A 1F22 0916 Alarm State:  0
Sat Sep 24 13:37:47 PDT 2022 ON: 20.01 +20.0 19.88 -12.0 31.1 0D 0A 1E17 0902 Alarm State:  0
Sat Sep 24 13:36:45 PDT 2022 ON: 20.00 +20.0 19.88 -11.9 31.1 06 0A 1D13 0916 Alarm State:  0
Sat Sep 24 13:35:44 PDT 2022 ON: 20.00 +20.0 19.88 -11.8 31.3 02 0A 1D1D 0902 Alarm State:  0
Sat Sep 24 13:34:42 PDT 2022 ON: 20.01 +20.0 19.88 -11.9 31.2 02 0A 1E01 0916 Alarm State:  0
Sat Sep 24 13:33:41 PDT 2022 ON: 20.01 +20.0 19.89 -12.0 31.1 06 0A 1C29 0902 Alarm State:  0
Sat Sep 24 13:32:39 PDT 2022 ON: 20.01 +20.0 19.88 -12.1 31.0 06 0A 1B1F 0916 Alarm State:  0
Sat Sep 24 13:31:38 PDT 2022 ON: 20.01 +20.0 19.87 -11.8 31.1 06 0B 1A2E 0902 Alarm State:  0
Sat Sep 24 13:30:36 PDT 2022 ON: 20.00 +20.0 19.87 -11.5 31.4 06 0B 1B24 0916 Alarm State:  0
Sat Sep 24 13:29:35 PDT 2022 ON: 20.01 +20.0 19.87 -11.9 31.2 0A 0B 1B1C 0902 Alarm State:  0
Sat Sep 24 13:28:33 PDT 2022 ON: 20.01 +20.0 19.89 -12.3 30.9 07 0A 1A12 0916 Alarm State:  0
Sat Sep 24 13:27:32 PDT 2022 ON: 20.01 +20.0 19.89 -12.2 31.0 10 0A 1907 0902 Alarm State:  0
Sat Sep 24 13:26:30 PDT 2022 ON: 20.00 +20.0 19.88 -11.9 31.2 06 0A 1922 0916 Alarm State:  0
Sat Sep 24 13:25:29 PDT 2022 ON: 20.00 +20.0 19.88 -11.7 31.3 06 0A 192A 0902 Alarm State:  0
Sat Sep 24 13:24:27 PDT 2022 ON: 20.01 +20.0 19.88 -11.8 31.2 02 0A 1921 0916 Alarm State:  0
Sat Sep 24 13:23:26 PDT 2022 ON: 20.02 +20.0 19.90 -12.4 30.9 07 09 1816 0902 Alarm State:  0
Sat Sep 24 13:22:24 PDT 2022 ON: 20.01 +20.0 19.89 -12.4 31.0 0E 0A 170C 0916 Alarm State:  0
Sat Sep 24 13:21:23 PDT 2022 ON: 20.01 +20.0 19.89 -12.3 31.1 06 0A 1601 0902 Alarm State:  0
Sat Sep 24 13:20:21 PDT 2022 ON: 20.01 +20.0 19.88 -12.3 31.0 0A 0A 142A 0916 Alarm State:  0
Sat Sep 24 13:19:20 PDT 2022 ON: 20.02 +20.0 19.89 -12.2 31.1 06 0A 131F 0902 Alarm State:  0
Sat Sep 24 13:18:18 PDT 2022 ON: 20.01 +20.0 19.89 -12.3 31.0 00 0A 122B 0916 Alarm State:  0
Sat Sep 24 13:17:17 PDT 2022 ON: 20.02 +20.0 19.89 -12.4 31.0 00 0A 1120 0902 Alarm State:  0
Sat Sep 24 13:16:15 PDT 2022 ON: 20.02 +20.0 19.90 -12.5 30.9 06 09 1016 0916 Alarm State:  0
Sat Sep 24 13:15:14 PDT 2022 ON: 20.01 +20.0 19.89 -12.4 30.8 06 0A 0F1B 0902 Alarm State:  0
Sat Sep 24 13:14:12 PDT 2022 ON: 20.00 +20.0 19.88 -12.1 31.1 06 0A 0E1B 0916 Alarm State:  0
Sat Sep 24 13:13:11 PDT 2022 ON: 20.02 +20.0 19.89 -11.9 31.2 06 0A 0E1F 0902 Alarm State:  0
Sat Sep 24 13:12:09 PDT 2022 ON: 20.01 +20.0 19.88 -12.1 31.0 00 0A 0D23 0916 Alarm State:  0
Sat Sep 24 13:11:08 PDT 2022 ON: 20.02 +20.0 19.89 -13.1 29.6 08 0A 0C18 0902 Alarm State:  0
Sat Sep 24 13:10:06 PDT 2022 ON: 20.00 +20.0 19.87 -11.5 31.4 05 0B 0B1A 0916 Alarm State:  0
Sat Sep 24 13:09:05 PDT 2022 ON: 20.03 +20.0 19.92 -13.9 28.5 06 08 0A23 0902 Alarm State:  0
Sat Sep 24 13:08:03 PDT 2022 ON: 20.00 +20.0 19.87 -11.5 31.3 05 0B 0A02 0916 Alarm State:  0
Sat Sep 24 13:07:01 PDT 2022 ON: 20.00 +20.0 19.87 -11.6 31.3 05 0B 0B0D 0919 Alarm State:  0
Sat Sep 24 13:06:00 PDT 2022 ON: 20.00 +20.0 19.87 -11.7 31.2 05 0B 0C03 0904 Alarm State:  0
Sat Sep 24 13:04:58 PDT 2022 ON: 20.00 +20.0 19.87 -11.7 31.2 05 0B 0C09 0919 Alarm State:  0
Sat Sep 24 13:03:57 PDT 2022 ON: 20.01 +20.0 19.87 -11.6 31.3 05 0B 0D0F 0904 Alarm State:  0
Sat Sep 24 13:02:55 PDT 2022 ON: 20.01 +20.0 19.87 -11.7 31.3 00 0B 0D2D 0915 Alarm State:  0
Sat Sep 24 13:01:54 PDT 2022 ON: 20.01 +20.0 19.88 -11.8 31.1 06 0A 0D10 0900 Alarm State:  0
Sat Sep 24 13:00:52 PDT 2022 ON: 20.00 +20.0 19.87 -11.7 31.2 05 0B 0D08 0915 Alarm State:  0
Sat Sep 24 12:59:51 PDT 2022 ON: 20.00 +20.0 19.87 -11.6 31.3 05 0B 0E0A 0900 Alarm State:  0
Sat Sep 24 12:58:49 PDT 2022 ON: 20.01 +20.0 19.88 -11.8 31.2 06 0A 0D29 0915 Alarm State:  0
Sat Sep 24 12:57:48 PDT 2022 ON: 20.00 +20.0 19.88 -11.8 31.1 00 0A 0D1E 0900 Alarm State:  0
Sat Sep 24 12:56:46 PDT 2022 ON: 20.01 +20.0 19.88 -11.7 31.2 05 0A 0D30 0915 Alarm State:  0
Sat Sep 24 12:55:45 PDT 2022 ON: 20.00 +20.0 19.88 -11.5 31.4 05 0A 0E09 0901 Alarm State:  0
Sat Sep 24 12:54:43 PDT 2022 ON: 20.00 +20.0 19.88 -11.7 31.3 08 0A 0F05 0915 Alarm State:  0
Sat Sep 24 12:53:41 PDT 2022 ON: 20.01 +20.0 19.88 -11.9 31.1 06 0A 0E1E 0901 Alarm State:  0
Sat Sep 24 12:52:40 PDT 2022 ON: 20.01 +20.0 19.87 -11.8 31.1 00 0B 0F01 0916 Alarm State:  0
Sat Sep 24 12:51:38 PDT 2022 ON: 20.00 +20.0 19.87 -11.7 31.3 02 0B 0E27 0901 Alarm State:  0
Sat Sep 24 12:50:37 PDT 2022 ON: 20.00 +20.0 19.88 -11.7 31.3 05 0A 0F32 0916 Alarm State:  0
Sat Sep 24 12:49:35 PDT 2022 ON: 20.00 +20.0 19.87 -11.7 31.2 05 0B 1107 0901 Alarm State:  0
Sat Sep 24 12:48:33 PDT 2022 ON: 20.01 +20.0 19.88 -11.8 31.1 02 0A 112B 0916 Alarm State:  0
Sat Sep 24 12:47:32 PDT 2022 ON: 20.00 +20.0 19.88 -11.6 31.3 05 0A 120B 0901 Alarm State:  0
Sat Sep 24 12:46:30 PDT 2022 ON: 20.00 +20.0 19.86 -11.6 31.3 08 0B 122F 0916 Alarm State:  0
Sat Sep 24 12:45:29 PDT 2022 ON: 20.01 +20.0 19.88 -11.9 31.1 06 0A 120E 0901 Alarm State:  0
Sat Sep 24 12:44:27 PDT 2022 ON: 20.01 +20.0 19.89 -11.8 31.1 00 0A 1218 0916 Alarm State:  0
Sat Sep 24 12:43:26 PDT 2022 ON: 20.01 +20.0 19.87 -11.6 31.4 05 0B 1300 0901 Alarm State:  0
Sat Sep 24 12:42:24 PDT 2022 ON: 20.00 +20.0 19.87 -11.6 31.4 0B 0B 1322 0916 Alarm State:  0
Sat Sep 24 12:41:23 PDT 2022 ON: 20.00 +20.0 19.88 -11.9 31.2 06 0A 1325 0901 Alarm State:  0
Sat Sep 24 12:40:21 PDT 2022 ON: 20.00 +20.0 19.87 -11.8 31.1 06 0B 1323 0916 Alarm State:  0
Sat Sep 24 12:39:20 PDT 2022 ON: 20.01 +20.0 19.88 -11.6 31.3 05 0A 140D 0901 Alarm State:  0
Sat Sep 24 12:38:18 PDT 2022 ON: 20.00 +20.0 19.88 -11.6 31.3 05 0A 1431 0914 Alarm State:  0
Sat Sep 24 12:37:17 PDT 2022 ON: 20.00 +20.0 19.88 -11.8 31.2 0C 0A 1606 0928 Alarm State:  0
Sat Sep 24 12:36:15 PDT 2022 ON: 20.01 +20.0 19.88 -11.8 31.1 06 0A 152B 0914 Alarm State:  0
Sat Sep 24 12:35:14 PDT 2022 ON: 20.00 +20.0 19.88 -11.7 31.2 05 0A 1514 0928 Alarm State:  0
Sat Sep 24 12:34:12 PDT 2022 ON: 20.01 +20.0 19.88 -11.7 31.2 0B 0A 151E 0914 Alarm State:  0
Sat Sep 24 12:33:11 PDT 2022 ON: 20.01 +20.0 19.88 -11.8 31.2 00 0A 1522 0900 Alarm State:  0
Sat Sep 24 12:32:09 PDT 2022 ON: 20.01 +20.0 19.88 -11.8 31.2 06 0A 1523 0914 Alarm State:  0
Sat Sep 24 12:31:08 PDT 2022 ON: 20.00 +20.0 19.88 -11.7 31.2 05 0A 1610 0900 Alarm State:  0
Sat Sep 24 12:29:56 PDT 2022  Alarm State: 0
Sat Sep 24 12:29:56 PDT 2022 Chiller did not report ON, got this reading: 
Sat Sep 24 12:28:55 PDT 2022 ON: 20.00 +20.0 19.88 -11.7 31.2 06 0A 180A 0907 Alarm State:  0
Sat Sep 24 12:27:53 PDT 2022 ON: 20.00 +20.0 19.88 -11.6 31.3 06 0A 1824 0916 Alarm State:  0
Sat Sep 24 12:26:52 PDT 2022 ON: 20.01 +20.0 19.88 -11.8 31.2 06 0A 1813 0928 Alarm State:  0
Sat Sep 24 12:25:50 PDT 2022 ON: 20.00 +20.0 19.88 -11.8 31.1 06 0A 180B 0914 Alarm State:  0
Sat Sep 24 12:24:49 PDT 2022 ON: 20.00 +20.0 19.88 -11.6 31.3 06 0A 1911 0928 Alarm State:  0
Sat Sep 24 12:23:47 PDT 2022 ON: 20.01 +20.0 19.88 -11.6 31.3 06 0A 1A0C 0914 Alarm State:  0
Sat Sep 24 12:22:46 PDT 2022 ON: 20.01 +20.0 19.88 -11.8 31.2 0A 0A 1A19 0928 Alarm State:  0
Sat Sep 24 12:21:44 PDT 2022 ON: 20.00 +20.0 19.88 -11.9 31.1 06 0A 1928 0914 Alarm State:  0
Sat Sep 24 12:20:43 PDT 2022 ON: 20.00 +20.0 19.88 -11.7 31.2 06 0A 1927 0928 Alarm State:  0
Sat Sep 24 12:19:41 PDT 2022 ON: 20.00 +20.0 19.88 -11.5 31.4 06 0A 1A16 0914 Alarm State:  0
Sat Sep 24 12:18:40 PDT 2022 ON: 20.00 +20.0 19.88 -11.6 31.3 06 0A 1B0A 0928 Alarm State:  0
Sat Sep 24 12:17:38 PDT 2022 ON: 20.00 +20.0 19.88 -11.9 31.1 06 0A 1A2F 0914 Alarm State:  0
Sat Sep 24 12:16:37 PDT 2022 ON: 20.01 +20.0 19.88 -11.9 31.0 06 0A 1A24 0928 Alarm State:  0
Sat Sep 24 12:15:35 PDT 2022 ON: 20.00 +20.0 19.87 -11.6 31.3 00 0B 1B23 0914 Alarm State:  0
Sat Sep 24 12:14:34 PDT 2022 ON: 20.00 +20.0 19.87 -11.5 31.4 02 0B 1C2D 0928 Alarm State:  0
Sat Sep 24 12:13:32 PDT 2022 ON: 20.00 +20.0 19.87 -11.7 31.2 09 0B 1D0E 0914 Alarm State:  0
Sat Sep 24 12:12:31 PDT 2022 ON: 20.00 +20.0 19.87 -11.9 31.1 00 0B 1C31 0900 Alarm State:  0
Sat Sep 24 12:11:29 PDT 2022 ON: 20.00 +20.0 19.88 -11.9 31.1 0D 0A 1C12 0914 Alarm State:  0
Sat Sep 24 12:10:28 PDT 2022 ON: 20.00 +20.0 19.88 -11.6 31.3 06 0A 1D1D 0921 Alarm State:  0
Sat Sep 24 12:09:26 PDT 2022 ON: 20.00 +20.0 19.87 -11.4 31.4 06 0B 1E17 090C Alarm State:  0
Sat Sep 24 12:08:25 PDT 2022 ON: 20.01 +20.0 19.88 -11.7 31.3 09 0A 1F02 0921 Alarm State:  0
Sat Sep 24 12:07:23 PDT 2022 ON: 20.01 +20.0 19.88 -11.9 31.0 06 0A 1D2D 090C Alarm State:  0
Sat Sep 24 12:06:22 PDT 2022 ON: 20.00 +20.0 19.88 -11.6 31.2 0C 0A 1E28 0921 Alarm State:  0
Sat Sep 24 12:05:20 PDT 2022 ON: 20.00 +20.0 19.88 -11.4 31.4 06 0A 1F2C 090C Alarm State:  0
Sat Sep 24 12:04:19 PDT 2022 ON: 20.00 +20.0 19.88 -11.8 31.2 09 0A 2017 0921 Alarm State:  0
Sat Sep 24 12:03:17 PDT 2022 ON: 20.01 +20.0 19.89 -11.9 31.0 06 0A 1F11 090C Alarm State:  0
Sat Sep 24 12:02:16 PDT 2022 ON: 20.01 +20.0 19.89 -11.8 31.1 0D 0A 1E28 0921 Alarm State:  0
Sat Sep 24 12:01:14 PDT 2022 ON: 20.00 +20.0 19.87 -11.5 31.4 06 0B 1F06 090C Alarm State:  0
Sat Sep 24 12:00:13 PDT 2022 ON: 20.00 +20.0 19.88 -11.6 31.3 00 0A 1F1E 091F Alarm State:  0
Sat Sep 24 11:59:11 PDT 2022 ON: 20.01 +20.0 19.88 -11.8 31.1 0A 0A 1F0F 090A Alarm State:  0
Sat Sep 24 11:58:10 PDT 2022 ON: 20.01 +20.0 19.88 -11.8 31.0 06 0A 1F13 091F Alarm State:  0
Sat Sep 24 11:57:08 PDT 2022 ON: 20.00 +20.0 19.88 -11.7 31.2 06 0A 2001 090A Alarm State:  0
Sat Sep 24 11:56:07 PDT 2022 ON: 20.00 +20.0 19.87 -11.6 31.3 06 0B 210C 091F Alarm State:  0
Sat Sep 24 11:55:05 PDT 2022 ON: 20.00 +20.0 19.88 -11.6 31.3 06 0A 2212 090A Alarm State:  0
Sat Sep 24 11:54:04 PDT 2022 ON: 20.00 +20.0 19.87 -11.6 31.3 06 0B 2224 091F Alarm State:  0
Sat Sep 24 11:53:02 PDT 2022 ON: 20.01 +20.0 19.88 -11.8 31.2 06 0A 2308 090A Alarm State:  0
Sat Sep 24 11:52:01 PDT 2022 ON: 20.00 +20.0 19.87 -11.9 31.1 06 0B 2322 091F Alarm State:  0
Sat Sep 24 11:50:59 PDT 2022 ON: 20.00 +20.0 19.87 -11.7 31.2 06 0B 2404 090A Alarm State:  0
Sat Sep 24 11:49:58 PDT 2022 ON: 20.00 +20.0 19.86 -11.4 31.5 06 0B 241E 091F Alarm State:  0
Sat Sep 24 11:48:56 PDT 2022 ON: 20.00 +20.0 19.87 -11.6 31.3 06 0B 2520 090A Alarm State:  0
Sat Sep 24 11:47:55 PDT 2022 ON: 20.01 +20.0 19.87 -12.0 31.0 07 0B 2528 091F Alarm State:  0
Sat Sep 24 11:46:53 PDT 2022 ON: 20.00 +20.0 19.88 -11.8 31.1 0A 0A 242E 090A Alarm State:  0
Sat Sep 24 11:45:52 PDT 2022 ON: 20.01 +20.0 19.88 -11.5 31.4 06 0A 2503 091F Alarm State:  0
Sat Sep 24 11:44:50 PDT 2022 ON: 20.00 +20.0 19.87 -11.4 31.5 02 0B 2528 090A Alarm State:  0
Sat Sep 24 11:43:49 PDT 2022 ON: 20.01 +20.0 19.88 -11.7 31.3 06 0A 2625 091F Alarm State:  0
Sat Sep 24 11:42:47 PDT 2022 ON: 20.01 +20.0 19.88 -12.0 31.0 07 0A 251F 090A Alarm State:  0
Sat Sep 24 11:41:46 PDT 2022 ON: 20.00 +20.0 19.88 -11.8 31.0 07 0A 2430 091F Alarm State:  0
Sat Sep 24 11:40:44 PDT 2022 ON: 20.00 +20.0 19.88 -11.3 31.5 06 0A 252C 090A Alarm State:  0
Sat Sep 24 11:39:43 PDT 2022 ON: 20.01 +20.0 19.88 -11.5 31.4 06 0A 2603 091F Alarm State:  0
Sat Sep 24 11:38:41 PDT 2022 ON: 20.01 +20.0 19.88 -11.9 31.1 07 0A 2600 090A Alarm State:  0
Sat Sep 24 11:37:40 PDT 2022 ON: 20.00 +20.0 19.88 -12.0 30.9 00 0A 2430 091F Alarm State:  0
Sat Sep 24 11:36:38 PDT 2022 ON: 20.00 +20.0 19.88 -11.7 31.3 06 0A 2427 090A Alarm State:  0
Sat Sep 24 11:35:37 PDT 2022 ON: 20.00 +20.0 19.88 -11.3 31.5 06 0A 251E 091F Alarm State:  0
Sat Sep 24 11:34:35 PDT 2022 ON: 20.00 +20.0 19.87 -11.5 31.4 06 0B 2527 0906 Alarm State:  0
Sat Sep 24 11:33:34 PDT 2022 ON: 20.01 +20.0 19.88 -11.9 31.3 07 0A 242E 091B Alarm State:  0
Sat Sep 24 11:32:32 PDT 2022 ON: 20.02 +20.0 19.89 -11.9 31.2 0A 0A 2324 0906 Alarm State:  0
Sat Sep 24 11:31:31 PDT 2022 ON: 20.02 +20.0 19.90 -12.1 31.1 08 09 2219 091B Alarm State:  0
Sat Sep 24 11:30:29 PDT 2022 ON: 20.01 +20.0 19.89 -12.2 30.9 0E 0A 210F 0906 Alarm State:  0
Sat Sep 24 11:29:27 PDT 2022 ON: 20.01 +20.0 19.89 -12.0 31.1 06 0A 2004 091B Alarm State:  0
Sat Sep 24 11:28:26 PDT 2022 ON: 20.01 +20.0 19.88 -11.8 31.3 06 0A 1F0C 0906 Alarm State:  0
Sat Sep 24 11:27:24 PDT 2022 ON: 20.01 +20.0 19.88 -12.0 31.2 06 0A 1E01 091B Alarm State:  0
Sat Sep 24 11:26:23 PDT 2022 ON: 20.02 +20.0 19.89 -12.2 31.0 00 0A 1C2A 0906 Alarm State:  0
Sat Sep 24 11:25:21 PDT 2022 ON: 20.02 +20.0 19.89 -12.2 31.0 07 0A 1B1F 091B Alarm State:  0
Sat Sep 24 11:24:20 PDT 2022 ON: 20.02 +20.0 19.89 -12.1 31.1 06 0A 1A15 0906 Alarm State:  0
Sat Sep 24 11:23:18 PDT 2022 ON: 20.01 +20.0 19.89 -12.0 31.2 06 0A 190A 091B Alarm State:  0
Sat Sep 24 11:22:17 PDT 2022 ON: 20.02 +20.0 19.89 -12.3 31.0 0E 0A 1800 0906 Alarm State:  0
Sat Sep 24 11:21:15 PDT 2022 ON: 20.02 +20.0 19.90 -12.4 30.7 07 09 1628 091B Alarm State:  0
Sat Sep 24 11:20:14 PDT 2022 ON: 20.01 +20.0 19.89 -12.1 31.1 06 0A 151E 0906 Alarm State:  0
Sat Sep 24 11:19:12 PDT 2022 ON: 20.02 +20.0 19.89 -11.8 31.3 00 0A 141D 091B Alarm State:  0
Sat Sep 24 11:18:11 PDT 2022 ON: 20.02 +20.0 19.89 -12.2 31.1 06 0A 1313 0906 Alarm State:  0
Sat Sep 24 11:17:09 PDT 2022 ON: 20.02 +20.0 19.89 -12.5 30.7 0D 0A 1208 091B Alarm State:  0
Sat Sep 24 11:16:08 PDT 2022 ON: 20.01 +20.0 19.89 -12.4 30.8 06 0A 1031 0906 Alarm State:  0
Sat Sep 24 11:15:06 PDT 2022 ON: 20.01 +20.0 19.88 -11.9 31.2 06 0A 100F 091B Alarm State:  0
Sat Sep 24 11:14:05 PDT 2022 ON: 20.02 +20.0 19.89 -11.7 31.3 05 0A 0F2B 0906 Alarm State:  0
Sat Sep 24 11:13:03 PDT 2022 ON: 20.02 +20.0 19.88 -11.9 31.2 00 0A 0E30 091B Alarm State:  0
Sat Sep 24 11:12:02 PDT 2022 ON: 20.03 +20.0 19.90 -12.8 30.6 0A 09 0D26 0906 Alarm State:  0
Sat Sep 24 11:11:00 PDT 2022 ON: 20.01 +20.0 19.90 -12.8 30.3 07 09 0C1B 091B Alarm State:  0
Sat Sep 24 11:09:59 PDT 2022 ON: 20.00 +20.0 19.88 -11.9 31.3 06 0A 0B2C 0907 Alarm State:  0
Sat Sep 24 11:08:57 PDT 2022 ON: 19.99 +20.0 19.87 -11.7 31.3 05 0B 0C16 0917 Alarm State:  0
Sat Sep 24 11:07:56 PDT 2022 ON: 20.01 +20.0 19.88 -11.6 31.3 02 0A 0D0B 0920 Alarm State:  0
Sat Sep 24 11:06:54 PDT 2022 ON: 19.99 +20.0 19.87 -11.5 31.4 08 0B 0E01 092A Alarm State:  0
Sat Sep 24 11:05:53 PDT 2022 ON: 19.99 +20.0 19.86 -11.5 31.4 05 0B 0F0C 0915 Alarm State:  0
Sat Sep 24 11:04:51 PDT 2022 ON: 19.99 +20.0 19.87 -11.5 31.4 05 0B 1016 0912 Alarm State:  0
Sat Sep 24 11:03:50 PDT 2022 ON: 20.00 +20.0 19.87 -11.5 31.3 05 0B 111F 0919 Alarm State:  0
Sat Sep 24 11:02:48 PDT 2022 ON: 19.99 +20.0 19.86 -11.5 31.4 05 0B 1229 0931 Alarm State:  0
Sat Sep 24 11:01:47 PDT 2022 ON: 20.00 +20.0 19.88 -11.6 31.3 08 0A 1401 090C Alarm State:  0
Sat Sep 24 11:00:45 PDT 2022 ON: 20.00 +20.0 19.87 -11.7 31.2 05 0B 1503 0904 Alarm State:  0
Sat Sep 24 10:59:44 PDT 2022 ON: 20.00 +20.0 19.88 -11.6 31.2 0B 0A 160C 090D Alarm State:  0
Sat Sep 24 10:58:42 PDT 2022 ON: 19.99 +20.0 19.87 -11.3 31.4 04 0B 1714 092F Alarm State:  0
Sat Sep 24 10:57:41 PDT 2022 ON: 20.00 +20.0 19.88 -11.4 31.4 06 0A 181F 0925 Alarm State:  0
Sat Sep 24 10:56:39 PDT 2022 ON: 20.01 +20.0 19.88 -11.7 31.2 06 0A 1832 0921 Alarm State:  0
Sat Sep 24 10:55:38 PDT 2022 ON: 20.00 +20.0 19.88 -11.8 31.1 06 0A 191B 090D Alarm State:  0
Sat Sep 24 10:54:36 PDT 2022 ON: 20.00 +20.0 19.88 -11.6 31.3 02 0A 1A25 0921 Alarm State:  0
Sat Sep 24 10:53:35 PDT 2022 ON: 20.01 +20.0 19.87 -11.6 31.4 00 0B 1A19 090D Alarm State:  0
Sat Sep 24 10:52:33 PDT 2022 ON: 20.00 +20.0 19.88 -11.7 31.2 06 0A 1A10 0921 Alarm State:  0
Sat Sep 24 10:51:32 PDT 2022 ON: 20.01 +20.0 19.88 -11.7 31.2 00 0A 1A04 090D Alarm State:  0
Sat Sep 24 10:50:30 PDT 2022 ON: 20.01 +20.0 19.88 -11.7 31.2 06 0A 1930 0921 Alarm State:  0
Sat Sep 24 10:49:29 PDT 2022 ON: 20.00 +20.0 19.87 -11.6 31.3 06 0B 1A17 090D Alarm State:  0
Sat Sep 24 10:48:27 PDT 2022 ON: 20.01 +20.0 19.88 -11.7 31.3 06 0A 191B 0921 Alarm State:  0
Sat Sep 24 10:47:26 PDT 2022 ON: 20.00 +20.0 19.88 -11.8 31.1 06 0A 1917 090D Alarm State:  0
Sat Sep 24 10:46:24 PDT 2022 ON: 20.01 +20.0 19.88 -11.6 31.3 06 0A 191A 0921 Alarm State:  0
Sat Sep 24 10:45:23 PDT 2022 ON: 20.00 +20.0 19.88 -11.7 31.3 09 0A 182F 090D Alarm State:  0
Sat Sep 24 10:44:21 PDT 2022 ON: 20.00 +20.0 19.88 -11.8 31.2 02 0A 182C 0921 Alarm State:  0
Sat Sep 24 10:43:20 PDT 2022 ON: 20.01 +20.0 19.88 -11.7 31.2 09 0A 1832 090D Alarm State:  0
Sat Sep 24 10:42:18 PDT 2022 ON: 20.00 +20.0 19.87 -11.6 31.3 0B 0B 182F 0921 Alarm State:  0
Sat Sep 24 10:41:17 PDT 2022 ON: 20.00 +20.0 19.88 -11.6 31.4 0C 0A 181F 090D Alarm State:  0
Sat Sep 24 10:40:15 PDT 2022 ON: 20.01 +20.0 19.88 -11.7 31.2 06 0A 1911 0921 Alarm State:  0
Sat Sep 24 10:39:14 PDT 2022 ON: 20.00 +20.0 19.88 -11.8 31.2 06 0A 181A 090D Alarm State:  0
Sat Sep 24 10:38:12 PDT 2022 ON: 20.00 +20.0 19.88 -11.7 31.2 05 0A 172C 0921 Alarm State:  0
Sat Sep 24 10:37:11 PDT 2022 ON: 20.00 +20.0 19.87 -11.6 31.3 05 0B 182F 090D Alarm State:  0
Sat Sep 24 10:36:09 PDT 2022 ON: 20.01 +20.0 19.88 -11.5 31.4 06 0A 181A 0921 Alarm State:  0
Sat Sep 24 10:35:08 PDT 2022 ON: 20.01 +20.0 19.88 -11.7 31.2 06 0A 180E 090D Alarm State:  0
Sat Sep 24 10:34:06 PDT 2022 ON: 20.01 +20.0 19.88 -11.8 31.1 06 0A 180B 0921 Alarm State:  0
Sat Sep 24 10:33:05 PDT 2022 ON: 20.01 +20.0 19.88 -11.7 31.2 05 0A 172C 090D Alarm State:  0
Sat Sep 24 10:32:03 PDT 2022 ON: 20.01 +20.0 19.88 -11.6 31.3 0C 0A 1802 0921 Alarm State:  0
Sat Sep 24 10:31:01 PDT 2022 ON: 20.01 +20.0 19.88 -11.7 31.3 0E 0A 1701 090D Alarm State:  0
Sat Sep 24 10:30:00 PDT 2022 ON: 20.00 +20.0 19.87 -11.8 31.2 06 0B 170E 0921 Alarm State:  0
Sat Sep 24 10:28:58 PDT 2022 ON: 20.01 +20.0 19.88 -11.8 31.2 02 0A 1732 090D Alarm State:  0
Sat Sep 24 10:27:57 PDT 2022 ON: 20.00 +20.0 19.88 -11.7 31.2 06 0A 1800 0921 Alarm State:  0
Sat Sep 24 10:26:55 PDT 2022 ON: 20.00 +20.0 19.88 -11.6 31.3 06 0A 180A 090D Alarm State:  0
Sat Sep 24 10:25:54 PDT 2022 ON: 20.01 +20.0 19.88 -11.6 31.3 00 0A 1730 0921 Alarm State:  0
Sat Sep 24 10:24:52 PDT 2022 ON: 20.01 +20.0 19.88 -11.8 31.2 06 0A 1627 090D Alarm State:  0
Sat Sep 24 10:23:51 PDT 2022 ON: 20.01 +20.0 19.88 -11.8 31.0 06 0A 1630 0921 Alarm State:  0
Sat Sep 24 10:22:49 PDT 2022 ON: 20.00 +20.0 19.87 -11.6 31.3 05 0B 171F 090D Alarm State:  0
Sat Sep 24 10:21:48 PDT 2022 ON: 20.00 +20.0 19.87 -11.4 31.5 08 0B 181D 0921 Alarm State:  0
Sat Sep 24 10:20:46 PDT 2022 ON: 20.00 +20.0 19.87 -11.7 31.3 05 0B 172E 090D Alarm State:  0
Sat Sep 24 10:19:45 PDT 2022 ON: 20.01 +20.0 19.89 -12.1 31.0 06 0A 1630 0921 Alarm State:  0
Sat Sep 24 10:18:43 PDT 2022 ON: 20.01 +20.0 19.89 -12.1 30.8 06 0A 1525 090D Alarm State:  0
Sat Sep 24 10:17:42 PDT 2022 ON: 20.00 +20.0 19.87 -11.6 31.4 0B 0B 1518 091D Alarm State:  0
Sat Sep 24 10:16:40 PDT 2022 ON: 20.00 +20.0 19.87 -11.3 31.4 05 0B 1623 0909 Alarm State:  0
Sat Sep 24 10:15:39 PDT 2022 ON: 20.00 +20.0 19.87 -11.4 31.3 05 0B 172D 091B Alarm State:  0
Sat Sep 24 10:14:37 PDT 2022 ON: 20.00 +20.0 19.87 -11.2 31.4 05 0B 1905 0926 Alarm State:  0
Sat Sep 24 10:13:36 PDT 2022 ON: 20.00 +20.0 19.87 -11.1 31.5 05 0B 1A0F 0928 Alarm State:  0
Sat Sep 24 10:12:34 PDT 2022 ON: 19.99 +20.0 19.87 -11.2 31.5 05 0B 1B1A 0913 Alarm State:  0
Sat Sep 24 10:11:33 PDT 2022 ON: 20.00 +20.0 19.87 -11.3 31.4 01 0B 1C1E 091F Alarm State:  0
Sat Sep 24 10:10:31 PDT 2022 ON: 20.00 +20.0 19.88 -11.5 31.2 02 0A 1D29 090B Alarm State:  0
Sat Sep 24 10:09:30 PDT 2022 ON: 19.99 +20.0 19.87 -11.3 31.3 05 0B 1F00 091D Alarm State:  0
Sat Sep 24 10:08:28 PDT 2022 ON: 20.00 +20.0 19.88 -11.3 31.4 05 0A 200B 090E Alarm State:  0
Sat Sep 24 10:07:27 PDT 2022 ON: 19.99 +20.0 19.87 -11.2 31.4 00 0B 210D 0916 Alarm State:  0
Sat Sep 24 10:06:25 PDT 2022 ON: 20.00 +20.0 19.86 -11.2 31.4 08 0B 2218 0903 Alarm State:  0
Sat Sep 24 10:05:24 PDT 2022 ON: 20.00 +20.0 19.87 -11.2 31.4 05 0B 2323 090A Alarm State:  0
Sat Sep 24 10:04:22 PDT 2022 ON: 20.00 +20.0 19.88 -11.3 31.4 06 0A 242D 090E Alarm State:  0
Sat Sep 24 10:03:21 PDT 2022 ON: 20.00 +20.0 19.87 -11.2 31.4 06 0B 2605 0923 Alarm State:  0
Sat Sep 24 10:02:19 PDT 2022 ON: 20.01 +20.0 19.87 -11.1 31.5 06 0B 270F 0908 Alarm State:  0
Sat Sep 24 10:01:18 PDT 2022 ON: 20.00 +20.0 19.86 -11.3 31.4 00 0B 280A 091D Alarm State:  0
Sat Sep 24 10:00:16 PDT 2022 ON: 20.00 +20.0 19.88 -11.5 31.3 0D 0A 2914 0908 Alarm State:  0
Sat Sep 24 09:59:15 PDT 2022 ON: 20.01 +20.0 19.88 -11.5 31.1 06 0A 290C 091D Alarm State:  0
Sat Sep 24 09:58:13 PDT 2022 ON: 19.99 +20.0 19.87 -11.1 31.4 06 0B 2927 0A1D Alarm State:  0
Sat Sep 24 09:57:12 PDT 2022 ON: 20.00 +20.0 19.88 -10.8 31.7 05 0A 2A32 0923 Alarm State:  0
Sat Sep 24 09:56:10 PDT 2022 ON: 20.00 +20.0 19.86 -10.9 31.6 05 0B 2C09 0913 Alarm State:  0
Sat Sep 24 09:55:09 PDT 2022 ON: 20.00 +20.0 19.88 -11.8 31.2 08 0A 2C17 0918 Alarm State:  0
Sat Sep 24 09:54:07 PDT 2022 ON: 20.01 +20.0 19.88 -11.7 31.2 07 0A 2C18 0903 Alarm State:  0
Sat Sep 24 09:53:06 PDT 2022 ON: 20.01 +20.0 19.88 -11.7 31.2 06 0A 2B0D 0918 Alarm State:  0
Sat Sep 24 09:52:04 PDT 2022 ON: 20.01 +20.0 19.88 -11.7 31.3 06 0A 2B2E 0903 Alarm State:  0
Sat Sep 24 09:51:03 PDT 2022 ON: 20.01 +20.0 19.88 -11.7 31.2 06 0A 2B30 0918 Alarm State:  0
Sat Sep 24 09:50:01 PDT 2022 ON: 20.01 +20.0 19.88 -11.8 31.2 07 0A 2B13 0903 Alarm State:  0
Sat Sep 24 09:49:00 PDT 2022 ON: 20.01 +20.0 19.88 -11.8 31.2 07 0A 2A0C 0918 Alarm State:  0
Sat Sep 24 09:47:58 PDT 2022 ON: 20.00 +20.0 19.87 -11.7 31.3 06 0B 2928 0903 Alarm State:  0
Sat Sep 24 09:46:57 PDT 2022 ON: 20.01 +20.0 19.88 -11.7 31.2 06 0A 292A 0918 Alarm State:  0
Sat Sep 24 09:45:55 PDT 2022 ON: 20.00 +20.0 19.88 -11.7 31.2 06 0A 2907 0903 Alarm State:  0
Sat Sep 24 09:44:54 PDT 2022 ON: 20.00 +20.0 19.87 -11.7 31.3 06 0B 291B 0918 Alarm State:  0
Sat Sep 24 09:43:52 PDT 2022 ON: 20.00 +20.0 19.88 -11.7 31.2 06 0A 2916 0903 Alarm State:  0
Sat Sep 24 09:42:51 PDT 2022 ON: 20.01 +20.0 19.89 -11.7 31.2 06 0A 290C 0918 Alarm State:  0
Sat Sep 24 09:41:49 PDT 2022 ON: 20.00 +20.0 19.88 -11.7 31.3 06 0A 2909 0903 Alarm State:  0
Sat Sep 24 09:40:48 PDT 2022 ON: 20.01 +20.0 19.87 -11.6 31.3 00 0B 2917 0918 Alarm State:  0
Sat Sep 24 09:39:46 PDT 2022 ON: 20.00 +20.0 19.88 -11.7 31.3 06 0A 291E 0903 Alarm State:  0
Sat Sep 24 09:38:45 PDT 2022 ON: 20.01 +20.0 19.88 -11.7 31.3 06 0A 2918 0918 Alarm State:  0
Sat Sep 24 09:37:43 PDT 2022 ON: 20.01 +20.0 19.89 -11.8 31.2 0E 0A 290B 0903 Alarm State:  0
Sat Sep 24 09:36:42 PDT 2022 ON: 20.01 +20.0 19.88 -11.7 31.2 06 0A 2919 0918 Alarm State:  0
Sat Sep 24 09:35:40 PDT 2022 ON: 20.01 +20.0 19.88 -11.7 31.3 06 0A 2914 0903 Alarm State:  0
Sat Sep 24 09:34:39 PDT 2022 ON: 20.00 +20.0 19.88 -11.7 31.3 00 0A 2817 0918 Alarm State:  0
Sat Sep 24 09:33:37 PDT 2022 ON: 20.01 +20.0 19.88 -11.7 31.2 06 0A 2800 0903 Alarm State:  0
Sat Sep 24 09:32:35 PDT 2022 ON: 20.00 +20.0 19.88 -11.7 31.2 00 0A 2804 0918 Alarm State:  0
Sat Sep 24 09:31:34 PDT 2022 ON: 20.00 +20.0 19.87 -11.7 31.3 06 0B 2710 0903 Alarm State:  0
Sat Sep 24 09:30:32 PDT 2022 ON: 20.00 +20.0 19.88 -11.7 31.3 06 0A 272A 0918 Alarm State:  0
Sat Sep 24 09:29:31 PDT 2022 ON: 20.01 +20.0 19.88 -11.7 31.3 06 0A 280A 0903 Alarm State:  0
Sat Sep 24 09:28:29 PDT 2022 ON: 20.01 +20.0 19.88 -11.7 31.2 06 0A 2717 0918 Alarm State:  0
Sat Sep 24 09:27:28 PDT 2022 ON: 20.00 +20.0 19.87 -11.7 31.3 00 0B 262B 0903 Alarm State:  0
Sat Sep 24 09:26:26 PDT 2022 ON: 20.01 +20.0 19.88 -11.7 31.3 0A 0A 2532 0918 Alarm State:  0
Sat Sep 24 09:25:25 PDT 2022 ON: 20.00 +20.0 19.88 -11.7 31.2 0A 0A 2505 0903 Alarm State:  0
Sat Sep 24 09:24:23 PDT 2022 ON: 20.01 +20.0 19.88 -11.7 31.2 06 0A 242E 0918 Alarm State:  0
Sat Sep 24 09:23:22 PDT 2022 ON: 20.01 +20.0 19.89 -11.7 31.3 06 0A 2419 0903 Alarm State:  0
Sat Sep 24 09:22:20 PDT 2022 ON: 20.00 +20.0 19.88 -11.7 31.2 06 0A 2506 0918 Alarm State:  0
Sat Sep 24 09:21:19 PDT 2022 ON: 20.01 +20.0 19.88 -11.7 31.2 06 0A 242A 0903 Alarm State:  0
Sat Sep 24 09:20:17 PDT 2022 ON: 20.00 +20.0 19.87 -11.7 31.2 02 0B 2400 0918 Alarm State:  0
Sat Sep 24 09:19:16 PDT 2022 ON: 20.01 +20.0 19.88 -11.7 31.2 06 0A 230E 0903 Alarm State:  0
Sat Sep 24 09:18:14 PDT 2022 ON: 20.01 +20.0 19.89 -11.7 31.3 06 0A 2227 0918 Alarm State:  0
Sat Sep 24 09:17:13 PDT 2022 ON: 20.01 +20.0 19.88 -11.7 31.2 00 0A 2210 0903 Alarm State:  0
Sat Sep 24 09:16:11 PDT 2022 ON: 20.00 +20.0 19.88 -11.8 31.2 02 0A 2224 0918 Alarm State:  0
Sat Sep 24 09:15:10 PDT 2022 ON: 20.00 +20.0 19.87 -11.7 31.2 06 0B 232C 0903 Alarm State:  0
Sat Sep 24 09:14:08 PDT 2022 ON: 20.00 +20.0 19.88 -11.7 31.3 06 0A 2318 0918 Alarm State:  0
Sat Sep 24 09:13:07 PDT 2022 ON: 20.01 +20.0 19.87 -11.7 31.2 06 0B 231F 0903 Alarm State:  0
Sat Sep 24 09:12:05 PDT 2022 ON: 20.00 +20.0 19.88 -11.7 31.3 06 0A 2315 0918 Alarm State:  0
Sat Sep 24 09:11:04 PDT 2022 ON: 20.01 +20.0 19.88 -11.7 31.2 06 0A 2308 0903 Alarm State:  0
Sat Sep 24 09:10:02 PDT 2022 ON: 20.00 +20.0 19.88 -11.8 31.2 06 0A 2203 0918 Alarm State:  0
Sat Sep 24 09:09:01 PDT 2022 ON: 20.00 +20.0 19.87 -11.6 31.3 06 0B 221E 0903 Alarm State:  0
Sat Sep 24 09:07:59 PDT 2022 ON: 20.00 +20.0 19.87 -11.6 31.3 06 0B 2208 0918 Alarm State:  0
Sat Sep 24 09:06:58 PDT 2022 ON: 20.01 +20.0 19.88 -11.7 31.3 06 0A 2231 0903 Alarm State:  0
Sat Sep 24 09:05:56 PDT 2022 ON: 20.01 +20.0 19.88 -11.8 31.2 06 0A 2316 0918 Alarm State:  0
Sat Sep 24 09:04:55 PDT 2022 ON: 20.00 +20.0 19.87 -11.8 31.1 06 0B 222E 0903 Alarm State:  0
Sat Sep 24 09:03:53 PDT 2022 ON: 20.00 +20.0 19.88 -11.6 31.3 06 0A 232B 0918 Alarm State:  0
Sat Sep 24 09:02:52 PDT 2022 ON: 20.00 +20.0 19.88 -11.4 31.4 00 0A 241F 0903 Alarm State:  0
Sat Sep 24 09:01:50 PDT 2022 ON: 20.00 +20.0 19.87 -11.7 31.3 06 0B 2508 0918 Alarm State:  0
Sat Sep 24 09:00:49 PDT 2022 ON: 20.01 +20.0 19.88 -11.8 31.2 07 0A 2424 0903 Alarm State:  0
Sat Sep 24 08:59:47 PDT 2022 ON: 20.01 +20.0 19.88 -11.8 31.3 00 0A 2406 0918 Alarm State:  0
Sat Sep 24 08:58:46 PDT 2022 ON: 20.01 +20.0 19.88 -11.9 31.2 06 0A 2307 0904 Alarm State:  0
Sat Sep 24 08:57:44 PDT 2022 ON: 20.01 +20.0 19.88 -11.9 31.2 06 0A 2217 0918 Alarm State:  0
Sat Sep 24 08:56:43 PDT 2022 ON: 20.01 +20.0 19.88 -11.9 31.2 06 0A 212E 0904 Alarm State:  0
Sat Sep 24 08:55:41 PDT 2022 ON: 20.01 +20.0 19.88 -11.9 31.2 06 0A 2030 0918 Alarm State:  0
Sat Sep 24 08:54:40 PDT 2022 ON: 20.01 +20.0 19.88 -11.9 31.2 06 0A 1F25 0904 Alarm State:  0
Sat Sep 24 08:53:38 PDT 2022 ON: 20.00 +20.0 19.88 -11.9 31.2 06 0A 2015 0918 Alarm State:  0
Sat Sep 24 08:52:37 PDT 2022 ON: 20.01 +20.0 19.89 -11.8 31.2 06 0A 1F10 0904 Alarm State:  0
Sat Sep 24 08:51:35 PDT 2022 ON: 20.01 +20.0 19.89 -11.8 31.2 06 0A 1F0F 0918 Alarm State:  0
Sat Sep 24 08:50:34 PDT 2022 ON: 20.01 +20.0 19.87 -11.9 31.2 06 0B 1F2F 0904 Alarm State:  0
Sat Sep 24 08:49:32 PDT 2022 ON: 20.01 +20.0 19.88 -11.8 31.2 00 0A 1F2C 0918 Alarm State:  0
Sat Sep 24 08:48:31 PDT 2022 ON: 20.00 +20.0 19.88 -11.8 31.2 06 0A 201F 0904 Alarm State:  0
Sat Sep 24 08:47:29 PDT 2022 ON: 20.00 +20.0 19.87 -11.8 31.2 06 0B 1F2B 0918 Alarm State:  0
Sat Sep 24 08:46:28 PDT 2022 ON: 20.01 +20.0 19.88 -11.9 31.2 06 0A 1F25 0904 Alarm State:  0
Sat Sep 24 08:45:26 PDT 2022 ON: 20.01 +20.0 19.88 -11.9 31.1 06 0A 1E1D 0918 Alarm State:  0
Sat Sep 24 08:44:25 PDT 2022 ON: 20.01 +20.0 19.88 -11.9 31.1 06 0A 1D18 0904 Alarm State:  0
Sat Sep 24 08:43:23 PDT 2022 ON: 20.01 +20.0 19.88 -11.8 31.3 02 0A 1C24 0918 Alarm State:  0
Sat Sep 24 08:42:22 PDT 2022 ON: 20.01 +20.0 19.88 -11.8 31.2 00 0A 1B1B 0904 Alarm State:  0
Sat Sep 24 08:41:20 PDT 2022 ON: 20.01 +20.0 19.88 -11.9 31.1 0A 0A 1A11 0918 Alarm State:  0
Sat Sep 24 08:40:19 PDT 2022 ON: 20.02 +20.0 19.89 -12.0 31.1 06 0A 1908 0904 Alarm State:  0
Sat Sep 24 08:39:17 PDT 2022 ON: 20.01 +20.0 19.88 -11.9 31.1 0A 0A 1802 0918 Alarm State:  0
Sat Sep 24 08:38:16 PDT 2022 ON: 20.01 +20.0 19.88 -11.8 31.3 05 0A 1632 0904 Alarm State:  0
Sat Sep 24 08:37:14 PDT 2022 ON: 20.02 +20.0 19.88 -11.8 31.2 06 0A 1603 0918 Alarm State:  0
Sat Sep 24 08:36:13 PDT 2022 ON: 20.02 +20.0 19.89 -12.1 31.1 00 0A 142B 0904 Alarm State:  0
Sat Sep 24 08:35:11 PDT 2022 ON: 20.01 +20.0 19.89 -12.2 30.9 00 0A 1321 0918 Alarm State:  0
Sat Sep 24 08:34:10 PDT 2022 ON: 20.01 +20.0 19.89 -12.1 30.8 06 0A 1216 0904 Alarm State:  0
Sat Sep 24 08:33:08 PDT 2022 ON: 20.01 +20.0 19.88 -11.6 31.3 00 0A 110C 0918 Alarm State:  0
Sat Sep 24 08:32:06 PDT 2022 ON: 20.01 +20.0 19.87 -11.4 31.5 07 0B 102D 0904 Alarm State:  0
Sat Sep 24 08:31:05 PDT 2022 ON: 20.02 +20.0 19.88 -11.9 31.1 06 0A 0F23 0918 Alarm State:  0
Sat Sep 24 08:30:03 PDT 2022 ON: 20.03 +20.0 19.91 -13.3 29.2 02 09 0E18 0904 Alarm State:  0
Sat Sep 24 08:29:02 PDT 2022 ON: 20.01 +20.0 19.85 -10.0 31.4 00 0C 0E0B 0914 Alarm State:  0
Sat Sep 24 08:28:00 PDT 2022 ON: 20.03 +20.0 19.92 -13.7 28.9 09 08 0D00 0900 Alarm State:  0
Sat Sep 24 08:26:59 PDT 2022 ON: 20.00 +20.0 19.87 -11.4 31.4 05 0B 0C22 0914 Alarm State:  0
Sat Sep 24 08:25:57 PDT 2022 ON: 20.00 +20.0 19.86 -11.5 31.4 05 0B 0D1F 0927 Alarm State:  0
Sat Sep 24 08:24:56 PDT 2022 ON: 20.01 +20.0 19.88 -11.7 31.2 0B 0A 0D0A 0912 Alarm State:  0
Sat Sep 24 08:23:54 PDT 2022 ON: 20.01 +20.0 19.88 -11.9 30.9 06 0A 0C07 0927 Alarm State:  0
Sat Sep 24 08:22:53 PDT 2022 ON: 20.00 +20.0 19.87 -11.5 31.2 05 0B 0C20 0912 Alarm State:  0
Sat Sep 24 08:21:51 PDT 2022 ON: 20.00 +20.0 19.87 -11.5 31.4 05 0B 0D2B 0927 Alarm State:  0
Sat Sep 24 08:20:50 PDT 2022 ON: 20.01 +20.0 19.88 -11.5 31.3 05 0A 0E11 0912 Alarm State:  0
Sat Sep 24 08:19:48 PDT 2022 ON: 20.00 +20.0 19.87 -11.5 31.3 05 0B 0E1F 0927 Alarm State:  0
Sat Sep 24 08:18:47 PDT 2022 ON: 20.00 +20.0 19.87 -11.4 31.4 05 0B 0F27 0912 Alarm State:  0
Sat Sep 24 08:17:45 PDT 2022 ON: 20.00 +20.0 19.87 -11.4 31.4 05 0B 101C 091B Alarm State:  0
Sat Sep 24 08:16:44 PDT 2022 ON: 20.00 +20.0 19.87 -11.5 31.3 05 0B 101D 0906 Alarm State:  0
Sat Sep 24 08:15:42 PDT 2022 ON: 20.01 +20.0 19.87 -11.5 31.3 00 0B 1015 091B Alarm State:  0
Sat Sep 24 08:14:41 PDT 2022 ON: 20.00 +20.0 19.87 -11.5 31.3 02 0B 100C 0904 Alarm State:  0
Sat Sep 24 08:13:39 PDT 2022 ON: 20.00 +20.0 19.86 -11.3 31.4 05 0B 1026 0919 Alarm State:  0
Sat Sep 24 08:12:38 PDT 2022 ON: 20.00 +20.0 19.87 -11.4 31.4 05 0B 112E 0904 Alarm State:  0
Sat Sep 24 08:11:36 PDT 2022 ON: 20.01 +20.0 19.88 -11.5 31.4 05 0A 120F 0919 Alarm State:  0
Sat Sep 24 08:10:35 PDT 2022 ON: 20.01 +20.0 19.87 -11.6 31.2 05 0B 120E 0923 Alarm State:  0
Sat Sep 24 08:09:33 PDT 2022 ON: 20.00 +20.0 19.88 -11.4 31.4 05 0A 112F 090F Alarm State:  0
Sat Sep 24 08:08:32 PDT 2022 ON: 20.00 +20.0 19.87 -11.4 31.4 05 0B 1306 0923 Alarm State:  0
Sat Sep 24 08:07:30 PDT 2022 ON: 20.01 +20.0 19.87 -11.5 31.3 02 0B 1332 090F Alarm State:  0
Sat Sep 24 08:06:29 PDT 2022 ON: 20.00 +20.0 19.88 -11.6 31.2 05 0A 1424 0923 Alarm State:  0
Sat Sep 24 08:05:27 PDT 2022 ON: 20.00 +20.0 19.87 -11.5 31.3 00 0B 151D 090F Alarm State:  0
Sat Sep 24 08:04:26 PDT 2022 ON: 20.00 +20.0 19.88 -11.4 31.4 05 0A 152C 0923 Alarm State:  0
Sat Sep 24 08:03:24 PDT 2022 ON: 20.00 +20.0 19.87 -11.4 31.4 05 0B 1704 090F Alarm State:  0
Sat Sep 24 08:02:23 PDT 2022 ON: 20.00 +20.0 19.88 -11.5 31.3 02 0A 1731 0921 Alarm State:  0
Sat Sep 24 08:01:21 PDT 2022 ON: 19.99 +20.0 19.87 -11.5 31.3 05 0B 1832 0907 Alarm State:  0
Sat Sep 24 08:00:20 PDT 2022 ON: 20.00 +20.0 19.88 -11.5 31.3 0C 0A 1912 0915 Alarm State:  0
Sat Sep 24 07:59:18 PDT 2022 ON: 20.00 +20.0 19.87 -11.4 31.4 06 0B 1A01 0928 Alarm State:  0
Sat Sep 24 07:58:17 PDT 2022 ON: 20.00 +20.0 19.88 -11.4 31.4 06 0A 1A1F 0910 Alarm State:  0
Sat Sep 24 07:57:15 PDT 2022 ON: 20.00 +20.0 19.87 -11.5 31.3 06 0B 1A1E 0924 Alarm State:  0
Sat Sep 24 07:56:14 PDT 2022 ON: 20.01 +20.0 19.88 -11.6 31.3 06 0A 1A2C 090E Alarm State:  0
Sat Sep 24 07:55:12 PDT 2022 ON: 20.00 +20.0 19.88 -11.4 31.4 06 0A 1B12 0922 Alarm State:  0
Sat Sep 24 07:54:11 PDT 2022 ON: 20.00 +20.0 19.87 -11.3 31.4 05 0B 1B30 0908 Alarm State:  0
Sat Sep 24 07:53:09 PDT 2022 ON: 20.00 +20.0 19.87 -11.4 31.4 06 0B 1C16 091C Alarm State:  0
Sat Sep 24 07:52:08 PDT 2022 ON: 20.01 +20.0 19.89 -11.6 31.2 06 0A 1C12 0908 Alarm State:  0
Sat Sep 24 07:51:06 PDT 2022 ON: 20.00 +20.0 19.88 -11.4 31.3 00 0A 1C2D 091C Alarm State:  0
Sat Sep 24 07:50:05 PDT 2022 ON: 20.00 +20.0 19.87 -11.3 31.4 05 0B 1D28 0908 Alarm State:  0
Sat Sep 24 07:49:03 PDT 2022 ON: 20.00 +20.0 19.87 -11.4 31.4 06 0B 1E16 091C Alarm State:  0
Sat Sep 24 07:48:02 PDT 2022 ON: 20.01 +20.0 19.88 -11.5 31.3 06 0A 1E24 0908 Alarm State:  0
Sat Sep 24 07:47:00 PDT 2022 ON: 20.00 +20.0 19.87 -11.5 31.2 06 0B 1E29 091C Alarm State:  0
Sat Sep 24 07:45:59 PDT 2022 ON: 20.00 +20.0 19.87 -11.4 31.3 06 0B 1F00 0908 Alarm State:  0
Sat Sep 24 07:44:57 PDT 2022 ON: 20.00 +20.0 19.88 -11.4 31.3 00 0A 1F1D 091C Alarm State:  0
Sat Sep 24 07:43:56 PDT 2022 ON: 20.00 +20.0 19.88 -11.4 31.4 06 0A 200A 0908 Alarm State:  0
Sat Sep 24 07:42:54 PDT 2022 ON: 20.01 +20.0 19.88 -11.4 31.3 06 0A 201F 091C Alarm State:  0
Sat Sep 24 07:41:53 PDT 2022 ON: 20.01 +20.0 19.88 -11.4 31.3 09 0A 201B 0908 Alarm State:  0
Sat Sep 24 07:40:51 PDT 2022 ON: 20.00 +20.0 19.87 -11.5 31.3 0F 0B 210B 091C Alarm State:  0
Sat Sep 24 07:39:50 PDT 2022 ON: 20.00 +20.0 19.87 -11.4 31.3 06 0B 2115 0908 Alarm State:  0
Sat Sep 24 07:38:48 PDT 2022 ON: 20.01 +20.0 19.88 -11.4 31.4 06 0A 212E 0916 Alarm State:  0
Sat Sep 24 07:37:47 PDT 2022 ON: 20.00 +20.0 19.88 -11.4 31.3 02 0A 2205 0902 Alarm State:  0
Sat Sep 24 07:36:45 PDT 2022 ON: 20.00 +20.0 19.87 -11.4 31.3 06 0B 221E 0916 Alarm State:  0
Sat Sep 24 07:35:43 PDT 2022 ON: 20.00 +20.0 19.87 -11.5 31.3 06 0B 2325 0900 Alarm State:  0
Sat Sep 24 07:34:42 PDT 2022 ON: 20.00 +20.0 19.88 -11.4 31.3 00 0A 2425 0914 Alarm State:  0
Sat Sep 24 07:33:40 PDT 2022 ON: 20.00 +20.0 19.88 -11.3 31.4 06 0A 2530 0900 Alarm State:  0
Sat Sep 24 07:32:39 PDT 2022 ON: 20.01 +20.0 19.88 -11.4 31.4 06 0A 2610 0914 Alarm State:  0
Sat Sep 24 07:31:37 PDT 2022 ON: 20.01 +20.0 19.87 -11.5 31.3 06 0B 261C 0900 Alarm State:  0
Sat Sep 24 07:30:36 PDT 2022 ON: 20.00 +20.0 19.87 -11.5 31.3 06 0B 271E 0914 Alarm State:  0
Sat Sep 24 07:29:34 PDT 2022 ON: 20.00 +20.0 19.87 -11.3 31.4 06 0B 2712 0900 Alarm State:  0
Sat Sep 24 07:28:33 PDT 2022 ON: 20.00 +20.0 19.87 -11.3 31.4 06 0B 281C 0914 Alarm State:  0
Sat Sep 24 07:27:31 PDT 2022 ON: 20.00 +20.0 19.88 -11.5 31.4 06 0A 281C 0900 Alarm State:  0
Sat Sep 24 07:26:30 PDT 2022 ON: 20.00 +20.0 19.87 -11.6 31.2 00 0B 2825 0914 Alarm State:  0
Sat Sep 24 07:25:28 PDT 2022 ON: 20.00 +20.0 19.88 -11.5 31.3 0A 0A 2900 0900 Alarm State:  0
Sat Sep 24 07:24:27 PDT 2022 ON: 20.00 +20.0 19.87 -11.2 31.5 06 0B 2A04 0914 Alarm State:  0
Sat Sep 24 07:23:25 PDT 2022 ON: 20.00 +20.0 19.87 -11.2 31.5 06 0B 2B09 0900 Alarm State:  0
Sat Sep 24 07:22:24 PDT 2022 ON: 20.01 +20.0 19.87 -11.5 31.3 00 0B 2B1A 0914 Alarm State:  0
Sat Sep 24 07:21:22 PDT 2022 ON: 20.01 +20.0 19.88 -11.6 31.1 0D 0A 2B20 0900 Alarm State:  0
Sat Sep 24 07:20:21 PDT 2022 ON: 20.00 +20.0 19.87 -11.3 31.3 06 0B 2B0D 0914 Alarm State:  0
Sat Sep 24 07:19:19 PDT 2022 ON: 20.00 +20.0 19.87 -11.0 31.6 06 0B 2C18 0900 Alarm State:  0
Sat Sep 24 07:18:18 PDT 2022 ON: 20.00 +20.0 19.88 -11.3 31.4 00 0A 2D22 0914 Alarm State:  0
Sat Sep 24 07:17:16 PDT 2022 ON: 20.01 +20.0 19.88 -11.7 31.2 00 0A 2D14 0900 Alarm State:  0
Sat Sep 24 07:16:15 PDT 2022 ON: 20.01 +20.0 19.88 -11.7 31.2 07 0A 2C14 0914 Alarm State:  0
Sat Sep 24 07:15:13 PDT 2022 ON: 20.01 +20.0 19.88 -11.5 31.3 07 0A 2C1C 0900 Alarm State:  0
Sat Sep 24 07:14:12 PDT 2022 ON: 20.00 +20.0 19.88 -11.6 31.3 0A 0A 2C11 0914 Alarm State:  0
Sat Sep 24 07:13:10 PDT 2022 ON: 20.01 +20.0 19.89 -11.7 31.2 07 0A 2C03 0900 Alarm State:  0
Sat Sep 24 07:12:09 PDT 2022 ON: 20.01 +20.0 19.88 -11.8 31.2 07 0A 2B17 0914 Alarm State:  0
Sat Sep 24 07:11:07 PDT 2022 ON: 20.01 +20.0 19.88 -11.7 31.2 06 0A 2B2F 0900 Alarm State:  0
Sat Sep 24 07:10:06 PDT 2022 ON: 20.01 +20.0 19.88 -11.5 31.4 06 0A 2A31 0914 Alarm State:  0
Sat Sep 24 07:09:04 PDT 2022 ON: 20.01 +20.0 19.88 -11.6 31.3 06 0A 2A11 0900 Alarm State:  0
Sat Sep 24 07:08:03 PDT 2022 ON: 20.01 +20.0 19.88 -11.9 31.1 02 0A 290D 0914 Alarm State:  0
Sat Sep 24 07:07:01 PDT 2022 ON: 20.00 +20.0 19.88 -11.7 31.1 0D 0A 282A 0900 Alarm State:  0
Sat Sep 24 07:06:00 PDT 2022 ON: 20.00 +20.0 19.87 -11.4 31.4 06 0B 282D 0914 Alarm State:  0
Sat Sep 24 07:04:58 PDT 2022 ON: 20.01 +20.0 19.88 -11.5 31.4 06 0A 2827 0900 Alarm State:  0
Sat Sep 24 07:03:57 PDT 2022 ON: 20.01 +20.0 19.88 -11.9 31.1 07 0A 271D 0914 Alarm State:  0
Sat Sep 24 07:02:55 PDT 2022 ON: 20.01 +20.0 19.89 -11.9 30.9 07 0A 2612 0900 Alarm State:  0
Sat Sep 24 07:01:54 PDT 2022 ON: 20.00 +20.0 19.88 -11.4 31.4 06 0A 2700 0914 Alarm State:  0
Sat Sep 24 07:00:52 PDT 2022 ON: 20.00 +20.0 19.87 -11.3 31.5 00 0B 2702 0900 Alarm State:  0
Sat Sep 24 06:59:51 PDT 2022 ON: 20.01 +20.0 19.89 -11.8 31.2 00 0A 2624 0914 Alarm State:  0
Sat Sep 24 06:58:49 PDT 2022 ON: 20.02 +20.0 19.88 -11.9 31.2 07 0A 2519 0900 Alarm State:  0
Sat Sep 24 06:57:48 PDT 2022 ON: 20.01 +20.0 19.89 -11.9 31.1 00 0A 240F 0914 Alarm State:  0
Sat Sep 24 06:56:46 PDT 2022 ON: 20.02 +20.0 19.89 -12.0 31.1 0E 0A 2304 0900 Alarm State:  0
Sat Sep 24 06:55:45 PDT 2022 ON: 20.01 +20.0 19.88 -11.9 31.1 0D 0A 212D 0914 Alarm State:  0
Sat Sep 24 06:54:43 PDT 2022 ON: 20.01 +20.0 19.88 -11.9 31.2 10 0A 2022 0900 Alarm State:  0
Sat Sep 24 06:53:42 PDT 2022 ON: 20.02 +20.0 19.88 -11.9 31.1 06 0A 1F18 0914 Alarm State:  0
Sat Sep 24 06:52:40 PDT 2022 ON: 20.01 +20.0 19.89 -12.0 31.1 06 0A 1E0D 0900 Alarm State:  0
Sat Sep 24 06:51:39 PDT 2022 ON: 20.01 +20.0 19.89 -12.0 31.1 00 0A 1D02 0915 Alarm State:  0
Sat Sep 24 06:50:37 PDT 2022 ON: 20.01 +20.0 19.88 -11.9 31.2 06 0A 1C02 0900 Alarm State:  0
Sat Sep 24 06:49:36 PDT 2022 ON: 20.01 +20.0 19.88 -11.8 31.3 06 0A 1A2A 0915 Alarm State:  0
Sat Sep 24 06:48:34 PDT 2022 ON: 20.01 +20.0 19.89 -11.9 31.2 06 0A 1928 0900 Alarm State:  0
Sat Sep 24 06:47:33 PDT 2022 ON: 20.02 +20.0 19.89 -12.0 31.0 06 0A 181D 0915 Alarm State:  0
Sat Sep 24 06:46:31 PDT 2022 ON: 20.02 +20.0 19.89 -12.0 31.0 06 0A 1713 0900 Alarm State:  0
Sat Sep 24 06:45:30 PDT 2022 ON: 20.01 +20.0 19.88 -11.7 31.3 05 0A 160E 0915 Alarm State:  0
Sat Sep 24 06:44:28 PDT 2022 ON: 20.01 +20.0 19.89 -11.7 31.3 05 0A 151A 0900 Alarm State:  0
Sat Sep 24 06:43:27 PDT 2022 ON: 20.01 +20.0 19.89 -12.1 31.1 06 0A 140F 0915 Alarm State:  0
Sat Sep 24 06:42:25 PDT 2022 ON: 20.01 +20.0 19.89 -12.2 30.8 0D 0A 1305 0900 Alarm State:  0
Sat Sep 24 06:41:24 PDT 2022 ON: 20.01 +20.0 19.89 -11.8 31.2 05 0A 112D 0915 Alarm State:  0
Sat Sep 24 06:40:22 PDT 2022 ON: 20.00 +20.0 19.87 -11.4 31.4 05 0B 1215 0900 Alarm State:  0
Sat Sep 24 06:39:21 PDT 2022 ON: 20.01 +20.0 19.87 -11.4 31.4 05 0B 1201 0915 Alarm State:  0
Sat Sep 24 06:38:19 PDT 2022 ON: 20.02 +20.0 19.89 -12.4 30.8 06 0A 102A 0900 Alarm State:  0
Sat Sep 24 06:37:18 PDT 2022 ON: 20.01 +20.0 19.90 -12.7 30.3 07 09 0F1F 0915 Alarm State:  0
Sat Sep 24 06:36:16 PDT 2022 ON: 20.01 +20.0 19.88 -11.6 31.2 0B 0A 0F20 0900 Alarm State:  0
Sat Sep 24 06:35:14 PDT 2022 ON: 20.01 +20.0 19.87 -11.2 31.3 01 0B 1017 0915 Alarm State:  0
Sat Sep 24 06:34:13 PDT 2022 ON: 20.02 +20.0 19.90 -13.0 29.1 0B 09 0F0D 0900 Alarm State:  0
Sat Sep 24 06:33:11 PDT 2022 ON: 19.99 +20.0 19.85 -10.9 31.6 03 0C 0E1A 0909 Alarm State:  0
Sat Sep 24 06:32:10 PDT 2022 ON: 20.02 +20.0 19.90 -13.1 29.7 05 09 0D22 0919 Alarm State:  0
Sat Sep 24 06:31:08 PDT 2022 ON: 20.01 +20.0 19.90 -12.3 30.5 0D 09 0C17 0905 Alarm State:  0
Sat Sep 24 06:30:07 PDT 2022 ON: 20.00 +20.0 19.88 -11.4 31.4 05 0A 0C2C 0919 Alarm State:  0
Sat Sep 24 06:29:05 PDT 2022 ON: 20.00 +20.0 19.87 -11.4 31.3 05 0B 0E04 0908 Alarm State:  0
Sat Sep 24 06:28:04 PDT 2022 ON: 20.00 +20.0 19.88 -11.4 31.4 05 0A 0E03 091C Alarm State:  0
Sat Sep 24 06:27:02 PDT 2022 ON: 20.00 +20.0 19.87 -11.4 31.3 05 0B 0F0C 0908 Alarm State:  0
Sat Sep 24 06:26:01 PDT 2022 ON: 20.00 +20.0 19.87 -11.4 31.4 00 0B 1016 091C Alarm State:  0
Sat Sep 24 06:24:59 PDT 2022 ON: 20.00 +20.0 19.87 -11.4 31.3 05 0B 1121 0908 Alarm State:  0
Sat Sep 24 06:23:58 PDT 2022 ON: 20.00 +20.0 19.88 -11.4 31.3 00 0A 1201 091C Alarm State:  0
Sat Sep 24 06:22:56 PDT 2022 ON: 20.00 +20.0 19.88 -11.4 31.3 05 0A 130A 0908 Alarm State:  0
Sat Sep 24 06:21:55 PDT 2022 ON: 20.00 +20.0 19.88 -11.4 31.3 05 0A 1404 091C Alarm State:  0
Sat Sep 24 06:20:53 PDT 2022 ON: 20.01 +20.0 19.88 -11.4 31.4 08 0A 141A 0908 Alarm State:  0
Sat Sep 24 06:19:52 PDT 2022 ON: 20.00 +20.0 19.88 -11.5 31.4 0B 0A 1431 091C Alarm State:  0
Sat Sep 24 06:18:50 PDT 2022 ON: 20.00 +20.0 19.88 -11.5 31.3 05 0A 1512 0908 Alarm State:  0
Sat Sep 24 06:17:49 PDT 2022 ON: 20.00 +20.0 19.86 -11.4 31.3 05 0B 1531 091C Alarm State:  0
Sat Sep 24 06:16:47 PDT 2022 ON: 20.00 +20.0 19.87 -11.4 31.4 05 0B 162E 0902 Alarm State:  0
Sat Sep 24 06:15:46 PDT 2022 ON: 20.01 +20.0 19.87 -11.3 31.4 07 0B 1716 0916 Alarm State:  0
Sat Sep 24 06:14:44 PDT 2022 ON: 20.00 +20.0 19.88 -11.4 31.4 0E 0A 170E 0902 Alarm State:  0
Sat Sep 24 06:13:43 PDT 2022 ON: 20.00 +20.0 19.88 -11.4 31.3 06 0A 1818 0916 Alarm State:  0
Sat Sep 24 06:12:41 PDT 2022 ON: 20.00 +20.0 19.88 -11.4 31.3 06 0A 182A 0902 Alarm State:  0
Sat Sep 24 06:11:40 PDT 2022 ON: 20.01 +20.0 19.88 -11.4 31.3 06 0A 1928 0916 Alarm State:  0
Sat Sep 24 06:10:38 PDT 2022 ON: 20.00 +20.0 19.87 -11.3 31.4 00 0B 1A07 0902 Alarm State:  0
Sat Sep 24 06:09:37 PDT 2022 ON: 20.00 +20.0 19.88 -11.4 31.4 06 0A 1A2E 0916 Alarm State:  0
Sat Sep 24 06:08:35 PDT 2022 ON: 20.00 +20.0 19.87 -11.4 31.3 06 0B 1B1F 0902 Alarm State:  0
Sat Sep 24 06:07:34 PDT 2022 ON: 20.00 +20.0 19.88 -11.4 31.4 06 0A 1C29 0916 Alarm State:  0
Sat Sep 24 06:06:32 PDT 2022 ON: 20.00 +20.0 19.88 -11.4 31.3 06 0A 1D24 0902 Alarm State:  0
Sat Sep 24 06:05:31 PDT 2022 ON: 20.01 +20.0 19.87 -11.4 31.3 06 0B 1D31 0916 Alarm State:  0
Sat Sep 24 06:04:29 PDT 2022 ON: 20.00 +20.0 19.87 -11.4 31.4 06 0B 1E28 0902 Alarm State:  0
Sat Sep 24 06:03:28 PDT 2022 ON: 20.00 +20.0 19.88 -11.3 31.4 05 0A 1F32 0916 Alarm State:  0
Sat Sep 24 06:02:26 PDT 2022 ON: 20.00 +20.0 19.88 -11.3 31.4 06 0A 210A 0900 Alarm State:  0
Sat Sep 24 06:01:25 PDT 2022 ON: 20.00 +20.0 19.87 -11.4 31.4 06 0B 2115 0914 Alarm State:  0
Sat Sep 24 06:00:23 PDT 2022 ON: 20.00 +20.0 19.87 -11.4 31.3 02 0B 220A 0900 Alarm State:  0
Sat Sep 24 05:59:22 PDT 2022 ON: 20.01 +20.0 19.88 -11.4 31.3 06 0A 2213 0912 Alarm State:  0
Sat Sep 24 05:58:20 PDT 2022 ON: 20.00 +20.0 19.87 -11.3 31.5 05 0B 230C 0927 Alarm State:  0
Sat Sep 24 05:57:19 PDT 2022 ON: 20.00 +20.0 19.87 -11.3 31.4 05 0B 2404 0912 Alarm State:  0
Sat Sep 24 05:56:17 PDT 2022 ON: 20.00 +20.0 19.87 -11.4 31.3 06 0B 250F 0927 Alarm State:  0
Sat Sep 24 05:55:16 PDT 2022 ON: 20.01 +20.0 19.88 -11.7 31.1 06 0A 2427 0912 Alarm State:  0
Sat Sep 24 05:54:14 PDT 2022 ON: 20.00 +20.0 19.87 -11.6 31.1 06 0B 2411 0927 Alarm State:  0
Sat Sep 24 05:53:13 PDT 2022 ON: 20.01 +20.0 19.87 -11.4 31.1 06 0B 2327 0A12 Alarm State:  0
Sat Sep 24 05:52:11 PDT 2022 ON: 19.99 +20.0 19.88 -11.3 31.0 05 0B 2313 0B25 Alarm State:  0
Sat Sep 24 05:51:10 PDT 2022 ON: 19.97 +20.0 19.87 -10.3 31.9 0A 0B 241D 0A1A Alarm State:  0
Sat Sep 24 05:50:08 PDT 2022 ON: 19.99 +20.0 19.79 - 8.5 31.7 00 0F 2528 090E Alarm State:  0
Sat Sep 24 05:49:07 PDT 2022 ON: 20.02 +20.0 19.89 -12.0 31.1 07 0A 242A 091C Alarm State:  0
Sat Sep 24 05:48:05 PDT 2022 ON: 20.02 +20.0 19.90 -12.1 31.0 07 09 231F 0908 Alarm State:  0
Sat Sep 24 05:47:04 PDT 2022 ON: 20.02 +20.0 19.89 -12.1 31.0 06 0A 2215 091C Alarm State:  0
Sat Sep 24 05:46:02 PDT 2022 ON: 20.01 +20.0 19.90 -12.0 31.1 06 09 210A 0908 Alarm State:  0
Sat Sep 24 05:45:01 PDT 2022 ON: 20.01 +20.0 19.89 -11.9 31.2 0A 0A 1F32 091D Alarm State:  0
Sat Sep 24 05:43:59 PDT 2022 ON: 20.02 +20.0 19.89 -12.0 31.2 06 0A 1E28 0908 Alarm State:  0
Sat Sep 24 05:42:58 PDT 2022 ON: 20.02 +20.0 19.89 -12.1 31.0 06 0A 1D1D 091D Alarm State:  0
Sat Sep 24 05:41:56 PDT 2022 ON: 20.02 +20.0 19.90 -12.1 31.0 06 09 1C13 0908 Alarm State:  0
Sat Sep 24 05:40:55 PDT 2022 ON: 20.01 +20.0 19.88 -11.9 31.1 06 0A 1B08 091D Alarm State:  0
Sat Sep 24 05:39:53 PDT 2022 ON: 20.01 +20.0 19.88 -11.8 31.3 02 0A 1931 0908 Alarm State:  0
Sat Sep 24 05:38:52 PDT 2022 ON: 20.02 +20.0 19.89 -11.9 31.2 06 0A 1826 091D Alarm State:  0
Sat Sep 24 05:37:50 PDT 2022 ON: 20.02 +20.0 19.89 -12.4 30.8 07 0A 171C 0908 Alarm State:  0
Sat Sep 24 05:36:49 PDT 2022 ON: 20.01 +20.0 19.89 -12.5 30.4 0D 0A 1611 091D Alarm State:  0
Sat Sep 24 05:35:47 PDT 2022 ON: 20.00 +20.0 19.89 -11.7 31.0 05 0A 1602 0908 Alarm State:  0
Sat Sep 24 05:34:45 PDT 2022 ON: 20.00 +20.0 19.88 -11.1 31.6 0A 0A 162A 0915 Alarm State:  0
Sat Sep 24 05:33:44 PDT 2022 ON: 20.02 +20.0 19.90 -12.5 30.0 04 09 162B 091B Alarm State:  0
Sat Sep 24 05:32:42 PDT 2022 ON: 19.99 +20.0 19.88 -12.1 31.5 06 0B 1532 0A01 Alarm State:  0
Sat Sep 24 05:31:41 PDT 2022 ON: 20.01 +20.0 19.87 -11.3 31.4 04 0B 1632 0900 Alarm State:  0
Sat Sep 24 05:30:39 PDT 2022 ON: 20.00 +20.0 19.87 -11.5 31.1 0B 0B 171D 0915 Alarm State:  0
Sat Sep 24 05:29:38 PDT 2022 ON: 19.99 +20.0 19.87 -11.3 31.2 04 0B 1827 0913 Alarm State:  0
Sat Sep 24 05:28:36 PDT 2022 ON: 20.00 +20.0 19.87 -11.0 31.6 05 0B 1932 090D Alarm State:  0
Sat Sep 24 05:27:35 PDT 2022 ON: 20.00 +20.0 19.88 -11.0 31.6 05 0A 1B09 091E Alarm State:  0
Sat Sep 24 05:26:33 PDT 2022 ON: 20.00 +20.0 19.87 -11.3 31.4 00 0B 1C06 0927 Alarm State:  0
Sat Sep 24 05:25:32 PDT 2022 ON: 20.00 +20.0 19.87 -11.5 31.2 02 0B 1D00 090E Alarm State:  0
Sat Sep 24 05:24:30 PDT 2022 ON: 19.99 +20.0 19.88 -11.2 31.4 05 0B 1D16 0A1D Alarm State:  0
Sat Sep 24 05:23:29 PDT 2022 ON: 20.00 +20.0 19.87 -10.9 31.6 00 0B 1E20 0903 Alarm State:  0
Sat Sep 24 05:22:27 PDT 2022 ON: 19.99 +20.0 19.87 -11.1 31.5 05 0B 1F2B 0910 Alarm State:  0
Sat Sep 24 05:21:26 PDT 2022 ON: 20.01 +20.0 19.88 -11.4 31.3 09 0A 2027 0920 Alarm State:  0
Sat Sep 24 05:20:24 PDT 2022 ON: 20.00 +20.0 19.87 -11.5 31.0 0F 0B 202F 090C Alarm State:  0
Sat Sep 24 05:19:23 PDT 2022 ON: 20.00 +20.0 19.87 -11.1 31.4 01 0B 210F 0A20 Alarm State:  0
Sat Sep 24 05:18:21 PDT 2022 ON: 19.99 +20.0 19.86 -10.8 31.7 04 0B 221A 092A Alarm State:  0
Sat Sep 24 05:17:20 PDT 2022 ON: 20.00 +20.0 19.86 -11.1 31.5 05 0B 2324 091B Alarm State:  0
Sat Sep 24 05:16:18 PDT 2022 ON: 20.01 +20.0 19.88 -11.6 31.1 00 0A 230C 0907 Alarm State:  0
Sat Sep 24 05:15:17 PDT 2022 ON: 20.00 +20.0 19.88 -11.5 30.9 0C 0B 2313 0A1B Alarm State:  0
Sat Sep 24 05:14:15 PDT 2022 ON: 19.99 +20.0 19.87 -10.8 31.5 00 0B 241E 0A21 Alarm State:  0
Sat Sep 24 05:13:14 PDT 2022 ON: 19.99 +20.0 19.86 -10.5 31.8 03 0B 2528 0916 Alarm State:  0
Sat Sep 24 05:12:12 PDT 2022 ON: 20.01 +20.0 19.87 -11.1 31.5 09 0B 2623 091B Alarm State:  0
Sat Sep 24 05:11:11 PDT 2022 ON: 20.02 +20.0 19.89 -12.3 30.4 08 0A 2519 0906 Alarm State:  0
Sat Sep 24 05:10:09 PDT 2022 ON: 20.00 +20.0 19.88 -11.5 31.0 02 0B 2422 0A1B Alarm State:  0
Sat Sep 24 05:09:08 PDT 2022 ON: 19.98 +20.0 19.86 -10.0 31.9 02 0C 252C 0A17 Alarm State:  0
Sat Sep 24 05:08:06 PDT 2022 ON: 20.01 +20.0 19.87 -11.2 31.3 09 0B 2625 0916 Alarm State:  0
Sat Sep 24 05:07:05 PDT 2022 ON: 20.01 +20.0 19.88 -11.8 31.1 0A 0A 251B 0901 Alarm State:  0
Sat Sep 24 05:06:03 PDT 2022 ON: 20.01 +20.0 19.88 -11.7 31.1 06 0A 2529 0916 Alarm State:  0
Sat Sep 24 05:05:02 PDT 2022 ON: 20.01 +20.0 19.88 -11.4 31.4 06 0A 260B 0901 Alarm State:  0
Sat Sep 24 05:04:00 PDT 2022 ON: 20.00 +20.0 19.87 -11.5 31.4 06 0B 270C 0916 Alarm State:  0
Sat Sep 24 05:02:59 PDT 2022 ON: 20.01 +20.0 19.88 -11.8 31.2 07 0A 262E 0901 Alarm State:  0
Sat Sep 24 05:01:57 PDT 2022 ON: 20.01 +20.0 19.89 -11.8 31.1 0A 0A 2523 0916 Alarm State:  0
Sat Sep 24 05:00:56 PDT 2022 ON: 20.01 +20.0 19.88 -11.7 31.2 06 0A 251E 0901 Alarm State:  0
Sat Sep 24 04:59:54 PDT 2022 ON: 20.01 +20.0 19.88 -11.6 31.3 02 0A 2528 0916 Alarm State:  0
Sat Sep 24 04:58:53 PDT 2022 ON: 20.01 +20.0 19.88 -11.4 31.4 06 0A 260A 0901 Alarm State:  0
Sat Sep 24 04:57:51 PDT 2022 ON: 20.01 +20.0 19.88 -11.6 31.3 06 0A 2606 0916 Alarm State:  0
Sat Sep 24 04:56:50 PDT 2022 ON: 20.01 +20.0 19.87 -11.8 31.2 06 0B 242F 0901 Alarm State:  0
Sat Sep 24 04:55:48 PDT 2022 ON: 20.00 +20.0 19.88 -11.9 31.0 07 0A 250A 0916 Alarm State:  0
Sat Sep 24 04:54:47 PDT 2022 ON: 20.00 +20.0 19.88 -11.6 31.2 06 0A 2523 0901 Alarm State:  0
Sat Sep 24 04:53:45 PDT 2022 ON: 20.00 +20.0 19.87 -11.3 31.5 06 0B 251F 0916 Alarm State:  0
Sat Sep 24 04:52:44 PDT 2022 ON: 20.01 +20.0 19.88 -11.5 31.4 06 0A 260F 0901 Alarm State:  0
Sat Sep 24 04:51:42 PDT 2022 ON: 20.01 +20.0 19.88 -11.9 31.1 07 0A 2522 0916 Alarm State:  0
Sat Sep 24 04:50:41 PDT 2022 ON: 20.00 +20.0 19.88 -11.8 31.2 07 0A 250F 0901 Alarm State:  0
Sat Sep 24 04:49:39 PDT 2022 ON: 20.00 +20.0 19.88 -11.7 31.3 06 0A 242C 0916 Alarm State:  0
Sat Sep 24 04:48:38 PDT 2022 ON: 20.01 +20.0 19.89 -11.8 31.2 07 0A 2401 0901 Alarm State:  0
Sat Sep 24 04:47:36 PDT 2022 ON: 20.01 +20.0 19.89 -11.9 31.2 07 0A 2310 0916 Alarm State:  0
Sat Sep 24 04:46:35 PDT 2022 ON: 20.01 +20.0 19.88 -11.9 31.1 06 0A 2205 0902 Alarm State:  0
Sat Sep 24 04:45:33 PDT 2022 ON: 20.00 +20.0 19.88 -11.8 31.2 06 0A 2127 0916 Alarm State:  0
Sat Sep 24 04:44:32 PDT 2022 ON: 20.01 +20.0 19.88 -11.8 31.3 10 0A 2123 0902 Alarm State:  0
Sat Sep 24 04:43:30 PDT 2022 ON: 20.01 +20.0 19.87 -11.8 31.2 0D 0B 201F 0916 Alarm State:  0
Sat Sep 24 04:42:29 PDT 2022 ON: 20.01 +20.0 19.88 -11.9 31.2 02 0A 1F22 0902 Alarm State:  0
Sat Sep 24 04:41:27 PDT 2022 ON: 20.01 +20.0 19.88 -11.9 31.2 06 0A 1E1C 0916 Alarm State:  0
Sat Sep 24 04:40:25 PDT 2022 ON: 20.00 +20.0 19.88 -11.8 31.2 06 0A 1D2F 0902 Alarm State:  0
Sat Sep 24 04:39:24 PDT 2022 ON: 20.01 +20.0 19.87 -11.8 31.2 02 0B 1D00 0916 Alarm State:  0
Sat Sep 24 04:38:22 PDT 2022 ON: 20.01 +20.0 19.88 -11.8 31.2 06 0A 1C25 0902 Alarm State:  0
Sat Sep 24 04:37:21 PDT 2022 ON: 20.00 +20.0 19.88 -11.9 31.2 06 0A 1C00 0916 Alarm State:  0
Sat Sep 24 04:36:19 PDT 2022 ON: 20.01 +20.0 19.88 -11.9 31.2 06 0A 1B11 0902 Alarm State:  0
Sat Sep 24 04:35:18 PDT 2022 ON: 20.00 +20.0 19.88 -11.8 31.2 06 0A 1A2F 0916 Alarm State:  0
Sat Sep 24 04:34:16 PDT 2022 ON: 20.00 +20.0 19.87 -11.7 31.3 06 0B 1B06 0902 Alarm State:  0
Sat Sep 24 04:33:15 PDT 2022 ON: 20.01 +20.0 19.88 -11.8 31.3 0A 0A 1A00 0916 Alarm State:  0
Sat Sep 24 04:32:13 PDT 2022 ON: 20.02 +20.0 19.89 -12.0 31.0 06 0A 1828 0902 Alarm State:  0
Sat Sep 24 04:31:12 PDT 2022 ON: 20.01 +20.0 19.88 -11.9 31.0 06 0A 180B 0916 Alarm State:  0
Sat Sep 24 04:30:10 PDT 2022 ON: 20.00 +20.0 19.87 -11.7 31.3 02 0B 1730 0902 Alarm State:  0
Sat Sep 24 04:29:09 PDT 2022 ON: 20.01 +20.0 19.88 -11.7 31.4 02 0A 172F 0916 Alarm State:  0
Sat Sep 24 04:28:07 PDT 2022 ON: 20.02 +20.0 19.89 -11.9 31.1 00 0A 162C 0902 Alarm State:  0
Sat Sep 24 04:27:06 PDT 2022 ON: 20.01 +20.0 19.90 -12.1 30.7 09 09 1522 0916 Alarm State:  0
Sat Sep 24 04:26:04 PDT 2022 ON: 20.00 +20.0 19.88 -11.5 31.1 05 0B 1530 0A02 Alarm State:  0
Sat Sep 24 04:25:03 PDT 2022 ON: 19.99 +20.0 19.86 -11.1 31.5 04 0B 1707 091B Alarm State:  0
Sat Sep 24 04:24:01 PDT 2022 ON: 20.01 +20.0 19.85 -10.5 31.4 0A 0C 1806 0916 Alarm State:  0
Sat Sep 24 04:23:00 PDT 2022 ON: 20.02 +20.0 19.91 -13.3 29.8 09 09 162F 0901 Alarm State:  0
Sat Sep 24 04:21:58 PDT 2022 ON: 20.00 +20.0 19.87 -11.6 31.5 05 0B 1621 090C Alarm State:  0
Sat Sep 24 04:20:57 PDT 2022 ON: 20.00 +20.0 19.87 -11.1 31.5 04 0B 172B 0920 Alarm State:  0
Sat Sep 24 04:19:55 PDT 2022 ON: 20.00 +20.0 19.89 -11.0 31.5 05 0B 1903 0B0C Alarm State:  0
Sat Sep 24 04:18:54 PDT 2022 ON: 19.99 +20.0 19.86 -11.0 31.5 08 0C 1A0D 0A07 Alarm State:  0
Sat Sep 24 04:17:52 PDT 2022 ON: 20.00 +20.0 19.87 -11.2 31.5 05 0B 1B18 0904 Alarm State:  0
Sat Sep 24 04:16:51 PDT 2022 ON: 20.00 +20.0 19.86 -11.2 31.4 05 0B 1C22 0916 Alarm State:  0
Sat Sep 24 04:15:49 PDT 2022 ON: 20.00 +20.0 19.87 -11.1 31.5 05 0B 1D2D 0A23 Alarm State:  0
Sat Sep 24 04:14:48 PDT 2022 ON: 19.99 +20.0 19.86 -10.9 31.6 00 0B 1F04 092C Alarm State:  0
Sat Sep 24 04:13:46 PDT 2022 ON: 20.00 +20.0 19.87 -11.0 31.5 05 0B 200F 0907 Alarm State:  0
Sat Sep 24 04:12:45 PDT 2022 ON: 20.00 +20.0 19.88 -11.2 31.4 05 0A 2119 091B Alarm State:  0
Sat Sep 24 04:11:43 PDT 2022 ON: 20.00 +20.0 19.87 -11.3 31.3 05 0B 2224 0906 Alarm State:  0
Sat Sep 24 04:10:42 PDT 2022 ON: 19.99 +20.0 19.87 -11.1 31.4 0B 0B 232E 0912 Alarm State:  0
Sat Sep 24 04:09:40 PDT 2022 ON: 20.00 +20.0 19.87 -10.9 31.6 05 0B 2506 0915 Alarm State:  0
Sat Sep 24 04:08:39 PDT 2022 ON: 20.00 +20.0 19.87 -11.1 31.5 06 0B 2610 0927 Alarm State:  0
Sat Sep 24 04:07:37 PDT 2022 ON: 20.00 +20.0 19.87 -11.3 31.3 00 0B 271B 0913 Alarm State:  0
Sat Sep 24 04:06:36 PDT 2022 ON: 20.00 +20.0 19.88 -11.4 31.1 06 0A 280F 0927 Alarm State:  0
Sat Sep 24 04:05:34 PDT 2022 ON: 19.99 +20.0 19.87 -10.9 31.5 05 0B 291A 0A2B Alarm State:  0
Sat Sep 24 04:04:33 PDT 2022 ON: 19.99 +20.0 19.85 -10.6 31.7 05 0C 2A24 0920 Alarm State:  0
Sat Sep 24 04:03:31 PDT 2022 ON: 20.00 +20.0 19.85 -10.6 31.6 08 0C 2B2F 0914 Alarm State:  0
Sat Sep 24 04:02:30 PDT 2022 ON: 20.00 +20.0 19.88 -11.8 31.1 08 0A 2C0B 0928 Alarm State:  0
Sat Sep 24 04:01:28 PDT 2022 ON: 20.01 +20.0 19.88 -11.8 31.2 07 0A 2B2E 0914 Alarm State:  0
Sat Sep 24 04:00:27 PDT 2022 ON: 20.01 +20.0 19.88 -11.7 31.2 06 0A 2A26 0928 Alarm State:  0
Sat Sep 24 03:59:25 PDT 2022 ON: 20.02 +20.0 19.89 -11.8 31.2 0E 0A 291B 0914 Alarm State:  0
Sat Sep 24 03:58:24 PDT 2022 ON: 20.01 +20.0 19.89 -11.8 31.1 07 0A 2813 0928 Alarm State:  0
Sat Sep 24 03:57:22 PDT 2022 ON: 20.00 +20.0 19.89 -11.7 31.2 06 0A 2722 0914 Alarm State:  0
Sat Sep 24 03:56:21 PDT 2022 ON: 20.01 +20.0 19.89 -11.7 31.3 06 0A 2709 0928 Alarm State:  0
Sat Sep 24 03:55:19 PDT 2022 ON: 20.01 +20.0 19.88 -11.7 31.2 00 0A 2600 0914 Alarm State:  0
Sat Sep 24 03:54:18 PDT 2022 ON: 20.02 +20.0 19.89 -11.9 31.1 07 0A 2429 0928 Alarm State:  0
Sat Sep 24 03:53:16 PDT 2022 ON: 20.01 +20.0 19.88 -11.8 31.1 06 0A 231E 0914 Alarm State:  0
Sat Sep 24 03:52:15 PDT 2022 ON: 20.01 +20.0 19.88 -11.7 31.2 06 0A 2224 0928 Alarm State:  0
Sat Sep 24 03:51:13 PDT 2022 ON: 20.00 +20.0 19.88 -11.7 31.3 06 0A 211D 0914 Alarm State:  0
Sat Sep 24 03:50:12 PDT 2022 ON: 20.01 +20.0 19.88 -11.8 31.2 06 0A 2015 0928 Alarm State:  0
Sat Sep 24 03:49:10 PDT 2022 ON: 20.01 +20.0 19.89 -11.8 31.1 06 0A 1F0A 0914 Alarm State:  0
Sat Sep 24 03:48:09 PDT 2022 ON: 20.01 +20.0 19.89 -11.7 31.2 06 0A 1E00 0928 Alarm State:  0
Sat Sep 24 03:47:07 PDT 2022 ON: 20.01 +20.0 19.88 -11.6 31.3 02 0A 1E06 0914 Alarm State:  0
Sat Sep 24 03:46:06 PDT 2022 ON: 20.01 +20.0 19.88 -11.7 31.3 06 0A 1C31 0928 Alarm State:  0
Sat Sep 24 03:45:04 PDT 2022 ON: 20.01 +20.0 19.88 -11.9 31.1 0A 0A 1B26 0914 Alarm State:  0
Sat Sep 24 03:44:03 PDT 2022 ON: 20.02 +20.0 19.89 -11.9 31.0 06 0A 1A1C 0928 Alarm State:  0
Sat Sep 24 03:43:01 PDT 2022 ON: 20.01 +20.0 19.88 -11.7 31.2 06 0A 1921 0914 Alarm State:  0
Sat Sep 24 03:41:59 PDT 2022 ON: 20.00 +20.0 19.88 -11.5 31.4 06 0A 191B 0900 Alarm State:  0
Sat Sep 24 03:40:58 PDT 2022 ON: 20.01 +20.0 19.88 -11.7 31.3 06 0A 1825 0914 Alarm State:  0
Sat Sep 24 03:39:56 PDT 2022 ON: 20.01 +20.0 19.88 -11.8 31.2 06 0A 1720 0900 Alarm State:  0
Sat Sep 24 03:38:55 PDT 2022 ON: 20.01 +20.0 19.88 -11.9 31.1 0C 0A 162A 0914 Alarm State:  0
Sat Sep 24 03:37:53 PDT 2022 ON: 20.01 +20.0 19.87 -11.7 31.3 05 0B 1521 0900 Alarm State:  0
Sat Sep 24 03:36:52 PDT 2022 ON: 20.01 +20.0 19.89 -11.6 31.3 00 0A 1502 0914 Alarm State:  0
Sat Sep 24 03:35:50 PDT 2022 ON: 20.01 +20.0 19.88 -11.8 31.2 00 0A 132A 0900 Alarm State:  0
Sat Sep 24 03:34:49 PDT 2022 ON: 20.02 +20.0 19.89 -11.9 31.1 06 0A 1220 0914 Alarm State:  0
Sat Sep 24 03:33:47 PDT 2022 ON: 20.01 +20.0 19.88 -11.8 31.1 06 0A 1115 0900 Alarm State:  0
Sat Sep 24 03:32:46 PDT 2022 ON: 20.01 +20.0 19.88 -11.6 31.3 05 0A 1021 0914 Alarm State:  0
Sat Sep 24 03:31:44 PDT 2022 ON: 20.02 +20.0 19.88 -11.6 31.4 05 0A 0F2C 0900 Alarm State:  0
Sat Sep 24 03:30:43 PDT 2022 ON: 20.02 +20.0 19.89 -11.9 31.2 06 0A 0E22 0914 Alarm State:  0
Sat Sep 24 03:29:41 PDT 2022 ON: 20.02 +20.0 19.89 -12.1 30.9 00 0A 0D17 0900 Alarm State:  0
Sat Sep 24 03:28:40 PDT 2022 ON: 20.01 +20.0 19.89 -11.9 30.9 06 0A 0C0D 0914 Alarm State:  0
Sat Sep 24 03:27:38 PDT 2022 ON: 20.00 +20.0 19.87 -11.5 31.3 05 0B 0C2B 0900 Alarm State:  0
Sat Sep 24 03:26:37 PDT 2022 ON: 20.00 +20.0 19.87 -11.5 31.3 05 0B 0D07 0914 Alarm State:  0
Sat Sep 24 03:25:35 PDT 2022 ON: 20.00 +20.0 19.87 -11.4 31.3 05 0B 0D19 0900 Alarm State:  0
Sat Sep 24 03:24:34 PDT 2022 ON: 20.00 +20.0 19.88 -11.4 31.3 05 0A 0E09 0914 Alarm State:  0
Sat Sep 24 03:23:32 PDT 2022 ON: 20.00 +20.0 19.87 -11.4 31.4 05 0B 0E17 0900 Alarm State:  0
Sat Sep 24 03:22:31 PDT 2022 ON: 20.00 +20.0 19.88 -11.4 31.3 05 0A 0F15 0914 Alarm State:  0
Sat Sep 24 03:21:29 PDT 2022 ON: 20.01 +20.0 19.87 -11.5 31.3 05 0B 0F1B 0900 Alarm State:  0
Sat Sep 24 03:20:28 PDT 2022 ON: 20.01 +20.0 19.87 -11.5 31.3 05 0B 100D 0914 Alarm State:  0
Sat Sep 24 03:19:26 PDT 2022 ON: 20.01 +20.0 19.87 -11.5 31.3 08 0B 1017 0900 Alarm State:  0
Sat Sep 24 03:18:25 PDT 2022 ON: 20.01 +20.0 19.88 -11.4 31.4 05 0A 1113 0914 Alarm State:  0
Sat Sep 24 03:17:23 PDT 2022 ON: 20.00 +20.0 19.87 -11.4 31.4 05 0B 1131 0900 Alarm State:  0
Sat Sep 24 03:16:22 PDT 2022 ON: 20.00 +20.0 19.87 -11.5 31.3 05 0B 1213 0914 Alarm State:  0
Sat Sep 24 03:15:20 PDT 2022 ON: 20.00 +20.0 19.88 -11.5 31.2 05 0A 122F 0900 Alarm State:  0
Sat Sep 24 03:14:19 PDT 2022 ON: 20.00 +20.0 19.86 -11.4 31.4 05 0B 130F 090E Alarm State:  0
Sat Sep 24 03:13:17 PDT 2022 ON: 20.00 +20.0 19.87 -11.4 31.4 05 0B 1412 0923 Alarm State:  0
Sat Sep 24 03:12:16 PDT 2022 ON: 20.00 +20.0 19.88 -11.5 31.3 0B 0A 141F 090E Alarm State:  0
Sat Sep 24 03:11:14 PDT 2022 ON: 20.01 +20.0 19.88 -11.5 31.3 05 0A 1520 0923 Alarm State:  0
Sat Sep 24 03:10:13 PDT 2022 ON: 20.00 +20.0 19.88 -11.5 31.3 05 0A 151B 090E Alarm State:  0
Sat Sep 24 03:09:11 PDT 2022 ON: 20.01 +20.0 19.88 -11.4 31.3 05 0A 1527 0923 Alarm State:  0
Sat Sep 24 03:08:10 PDT 2022 ON: 20.00 +20.0 19.87 -11.3 31.4 07 0B 1615 090E Alarm State:  0
Sat Sep 24 03:07:08 PDT 2022 ON: 20.01 +20.0 19.88 -11.5 31.3 08 0A 1627 0923 Alarm State:  0
Sat Sep 24 03:06:07 PDT 2022 ON: 20.00 +20.0 19.87 -11.6 31.2 05 0B 1701 090E Alarm State:  0
Sat Sep 24 03:05:05 PDT 2022 ON: 20.01 +20.0 19.88 -11.5 31.3 08 0A 1705 0923 Alarm State:  0
Sat Sep 24 03:04:04 PDT 2022 ON: 20.00 +20.0 19.88 -11.4 31.4 05 0A 1732 090E Alarm State:  0
Sat Sep 24 03:03:02 PDT 2022 ON: 20.00 +20.0 19.87 -11.3 31.5 06 0B 190A 0901 Alarm State:  0
Sat Sep 24 03:02:01 PDT 2022 ON: 20.01 +20.0 19.88 -11.4 31.4 06 0A 1A08 0915 Alarm State:  0
Sat Sep 24 03:00:59 PDT 2022 ON: 20.00 +20.0 19.87 -11.3 31.4 05 0B 1A28 091E Alarm State:  0
Sat Sep 24 02:59:58 PDT 2022 ON: 20.00 +20.0 19.88 -11.4 31.4 06 0A 1A2D 0909 Alarm State:  0
Sat Sep 24 02:58:56 PDT 2022 ON: 20.00 +20.0 19.87 -11.5 31.3 06 0B 1B06 091E Alarm State:  0
Sat Sep 24 02:57:55 PDT 2022 ON: 20.01 +20.0 19.89 -11.5 31.3 06 0A 1A2E 0909 Alarm State:  0
Sat Sep 24 02:56:53 PDT 2022 ON: 20.00 +20.0 19.87 -11.4 31.3 06 0B 1B2B 091E Alarm State:  0
Sat Sep 24 02:55:52 PDT 2022 ON: 20.00 +20.0 19.88 -11.3 31.4 01 0A 1C1D 0907 Alarm State:  0
Sat Sep 24 02:54:50 PDT 2022 ON: 20.01 +20.0 19.88 -11.4 31.4 06 0A 1D18 091C Alarm State:  0
Sat Sep 24 02:53:49 PDT 2022 ON: 20.00 +20.0 19.87 -11.5 31.3 02 0B 1D09 0907 Alarm State:  0
Sat Sep 24 02:52:47 PDT 2022 ON: 20.00 +20.0 19.87 -11.5 31.3 0C 0B 1E10 091C Alarm State:  0
Sat Sep 24 02:51:45 PDT 2022 ON: 20.00 +20.0 19.87 -11.4 31.3 06 0B 1F1A 0926 Alarm State:  0
Sat Sep 24 02:50:44 PDT 2022 ON: 20.00 +20.0 19.87 -11.2 31.5 00 0B 1F2E 0912 Alarm State:  0
Sat Sep 24 02:49:42 PDT 2022 ON: 20.00 +20.0 19.87 -11.4 31.4 06 0B 2105 091C Alarm State:  0
Sat Sep 24 02:48:41 PDT 2022 ON: 20.00 +20.0 19.87 -11.5 31.3 06 0B 2206 0908 Alarm State:  0
Sat Sep 24 02:47:39 PDT 2022 ON: 20.00 +20.0 19.88 -11.5 31.2 06 0A 2222 091D Alarm State:  0
Sat Sep 24 02:46:38 PDT 2022 ON: 20.00 +20.0 19.87 -11.3 31.4 0E 0B 232C 0908 Alarm State:  0
Sat Sep 24 02:45:36 PDT 2022 ON: 20.00 +20.0 19.87 -11.1 31.5 00 0B 2504 0905 Alarm State:  0
Sat Sep 24 02:44:35 PDT 2022 ON: 20.00 +20.0 19.87 -11.4 31.4 06 0B 260C 0919 Alarm State:  0
Sat Sep 24 02:43:33 PDT 2022 ON: 20.01 +20.0 19.88 -11.7 31.1 06 0A 261E 0905 Alarm State:  0
Sat Sep 24 02:42:32 PDT 2022 ON: 20.00 +20.0 19.88 -11.6 31.0 06 0A 260F 0919 Alarm State:  0
Sat Sep 24 02:41:30 PDT 2022 ON: 20.00 +20.0 19.88 -11.0 31.6 06 0B 271A 0A05 Alarm State:  0
Sat Sep 24 02:40:29 PDT 2022 ON: 19.99 +20.0 19.87 -10.9 31.7 08 0B 2824 091C Alarm State:  0
Sat Sep 24 02:39:27 PDT 2022 ON: 20.01 +20.0 19.88 -11.3 31.4 06 0A 2913 0911 Alarm State:  0
Sat Sep 24 02:38:26 PDT 2022 ON: 20.01 +20.0 19.88 -11.8 31.2 07 0A 2809 0925 Alarm State:  0
Sat Sep 24 02:37:24 PDT 2022 ON: 20.02 +20.0 19.88 -11.7 31.3 06 0A 2631 0911 Alarm State:  0
Sat Sep 24 02:36:23 PDT 2022 ON: 20.01 +20.0 19.88 -12.0 31.1 0E 0A 2527 0925 Alarm State:  0
Sat Sep 24 02:35:21 PDT 2022 ON: 20.02 +20.0 19.89 -12.1 31.1 07 0A 241C 0911 Alarm State:  0
Sat Sep 24 02:34:20 PDT 2022 ON: 20.01 +20.0 19.88 -12.0 31.2 0D 0A 2312 0925 Alarm State:  0
Sat Sep 24 02:33:18 PDT 2022 ON: 20.02 +20.0 19.89 -12.1 31.1 06 0A 2207 0911 Alarm State:  0
Sat Sep 24 02:32:17 PDT 2022 ON: 20.03 +20.0 19.90 -12.1 31.0 00 09 2030 0925 Alarm State:  0
Sat Sep 24 02:31:15 PDT 2022 ON: 20.02 +20.0 19.90 -12.0 31.1 06 09 1F25 0911 Alarm State:  0
Sat Sep 24 02:30:14 PDT 2022 ON: 20.02 +20.0 19.90 -12.0 31.1 06 09 1E1B 0925 Alarm State:  0
Sat Sep 24 02:29:12 PDT 2022 ON: 20.02 +20.0 19.89 -12.0 31.1 02 0A 1D10 0911 Alarm State:  0
Sat Sep 24 02:28:11 PDT 2022 ON: 20.02 +20.0 19.89 -12.1 31.2 06 0A 1C06 0925 Alarm State:  0
Sat Sep 24 02:27:09 PDT 2022 ON: 20.02 +20.0 19.90 -12.1 31.0 06 09 1A2E 0911 Alarm State:  0
Sat Sep 24 02:26:08 PDT 2022 ON: 20.02 +20.0 19.91 -12.1 31.1 06 09 1924 0925 Alarm State:  0
Sat Sep 24 02:25:06 PDT 2022 ON: 20.01 +20.0 19.89 -12.0 31.2 06 0A 1819 0911 Alarm State:  0
Sat Sep 24 02:24:05 PDT 2022 ON: 20.01 +20.0 19.88 -12.0 31.1 06 0A 170F 0925 Alarm State:  0
Sat Sep 24 02:23:03 PDT 2022 ON: 20.02 +20.0 19.89 -12.1 31.1 06 0A 1604 0911 Alarm State:  0
Sat Sep 24 02:22:02 PDT 2022 ON: 20.02 +20.0 19.89 -12.2 31.0 06 0A 142D 0925 Alarm State:  0
Sat Sep 24 02:21:00 PDT 2022 ON: 20.01 +20.0 19.89 -12.1 31.0 00 0A 1322 0911 Alarm State:  0
Sat Sep 24 02:19:59 PDT 2022 ON: 20.01 +20.0 19.88 -11.9 31.2 06 0A 1228 0925 Alarm State:  0
Sat Sep 24 02:18:57 PDT 2022 ON: 20.01 +20.0 19.88 -11.9 31.2 02 0A 1202 0911 Alarm State:  0
Sat Sep 24 02:17:56 PDT 2022 ON: 20.01 +20.0 19.88 -12.1 31.1 06 0A 102D 0925 Alarm State:  0
Sat Sep 24 02:16:54 PDT 2022 ON: 20.02 +20.0 19.90 -12.4 30.8 06 09 0F22 0911 Alarm State:  0
Sat Sep 24 02:15:53 PDT 2022 ON: 20.01 +20.0 19.89 -12.1 30.9 06 0A 0E18 0925 Alarm State:  0
Sat Sep 24 02:14:51 PDT 2022 ON: 20.01 +20.0 19.87 -11.7 31.3 05 0B 0E02 0911 Alarm State:  0
Sat Sep 24 02:13:50 PDT 2022 ON: 20.01 +20.0 19.87 -11.6 31.4 05 0B 0E01 0925 Alarm State:  0
Sat Sep 24 02:12:48 PDT 2022 ON: 20.02 +20.0 19.89 -12.2 31.0 00 0A 0C29 0911 Alarm State:  0
Sat Sep 24 02:11:47 PDT 2022 ON: 20.02 +20.0 19.89 -12.9 30.3 07 0A 0B1F 0925 Alarm State:  0
Sat Sep 24 02:10:45 PDT 2022 ON: 20.00 +20.0 19.89 -12.4 30.5 06 0A 0A16 0911 Alarm State:  0
Sat Sep 24 02:09:44 PDT 2022 ON: 20.00 +20.0 19.88 -11.5 31.4 05 0A 0B08 091D Alarm State:  0
Sat Sep 24 02:08:42 PDT 2022 ON: 20.00 +20.0 19.87 -11.5 31.3 05 0B 0C13 0909 Alarm State:  0
Sat Sep 24 02:07:41 PDT 2022 ON: 20.00 +20.0 19.87 -11.5 31.3 00 0B 0D1D 091D Alarm State:  0
Sat Sep 24 02:06:39 PDT 2022 ON: 20.00 +20.0 19.88 -11.5 31.3 05 0A 0E20 091C Alarm State:  0
Sat Sep 24 02:05:38 PDT 2022 ON: 19.99 +20.0 19.86 -11.4 31.4 05 0B 0F2A 0923 Alarm State:  0
Sat Sep 24 02:04:36 PDT 2022 ON: 20.00 +20.0 19.87 -11.4 31.4 05 0B 1031 091E Alarm State:  0
Sat Sep 24 02:03:35 PDT 2022 ON: 19.99 +20.0 19.86 -11.4 31.4 05 0B 1206 0925 Alarm State:  0
Sat Sep 24 02:02:33 PDT 2022 ON: 20.00 +20.0 19.87 -11.4 31.4 00 0B 130D 092C Alarm State:  0
Sat Sep 24 02:01:32 PDT 2022 ON: 20.00 +20.0 19.87 -11.5 31.3 05 0B 1417 091E Alarm State:  0
Sat Sep 24 02:00:30 PDT 2022 ON: 20.00 +20.0 19.87 -11.4 31.4 05 0B 1522 091E Alarm State:  0
Sat Sep 24 01:59:29 PDT 2022 ON: 19.99 +20.0 19.85 -11.3 31.4 04 0C 162C 0928 Alarm State:  0
Sat Sep 24 01:58:27 PDT 2022 ON: 20.00 +20.0 19.87 -11.4 31.3 05 0B 1804 091C Alarm State:  0
Sat Sep 24 01:57:26 PDT 2022 ON: 20.00 +20.0 19.87 -11.5 31.3 0C 0B 190E 0926 Alarm State:  0
Sat Sep 24 01:56:24 PDT 2022 ON: 20.00 +20.0 19.87 -11.5 31.3 09 0B 1A17 090E Alarm State:  0
Sat Sep 24 01:55:22 PDT 2022 ON: 20.00 +20.0 19.87 -11.4 31.4 0C 0B 1B21 091D Alarm State:  0
Sat Sep 24 01:54:21 PDT 2022 ON: 20.00 +20.0 19.88 -11.4 31.4 06 0A 1C22 0909 Alarm State:  0
Sat Sep 24 01:53:19 PDT 2022 ON: 20.00 +20.0 19.87 -11.5 31.3 06 0B 1D12 0915 Alarm State:  0
Sat Sep 24 01:52:18 PDT 2022 ON: 20.00 +20.0 19.88 -11.6 31.3 00 0A 1E01 0901 Alarm State:  0
Sat Sep 24 01:51:16 PDT 2022 ON: 20.01 +20.0 19.88 -11.6 31.3 06 0A 1E00 0915 Alarm State:  0
Sat Sep 24 01:50:15 PDT 2022 ON: 20.00 +20.0 19.88 -11.5 31.3 00 0A 1F01 0901 Alarm State:  0
Sat Sep 24 01:49:13 PDT 2022 ON: 20.00 +20.0 19.87 -11.4 31.4 00 0B 1F06 0915 Alarm State:  0
Sat Sep 24 01:48:12 PDT 2022 ON: 20.01 +20.0 19.87 -11.5 31.4 06 0B 1F0A 0901 Alarm State:  0
Sat Sep 24 01:47:10 PDT 2022 ON: 20.00 +20.0 19.88 -11.8 31.2 02 0A 1E16 0915 Alarm State:  0
Sat Sep 24 01:46:09 PDT 2022 ON: 20.01 +20.0 19.89 -11.9 31.0 06 0A 1D19 0901 Alarm State:  0
Sat Sep 24 01:45:07 PDT 2022 ON: 20.00 +20.0 19.87 -11.6 31.1 06 0B 1C17 0915 Alarm State:  0
Sat Sep 24 01:44:06 PDT 2022 ON: 20.00 +20.0 19.88 -11.5 30.7 06 0B 1B28 0B01 Alarm State:  0
Sat Sep 24 01:43:04 PDT 2022 ON: 19.99 +20.0 19.88 -10.8 31.2 0A 0B 1D00 0B11 Alarm State:  0
Sat Sep 24 01:42:03 PDT 2022 ON: 19.97 +20.0 19.83 - 8.8 32.1 07 0D 1E0A 0A06 Alarm State:  0
Sat Sep 24 01:41:01 PDT 2022 ON: 20.02 +20.0 19.89 -12.3 30.9 07 0A 1D23 0904 Alarm State:  0
Sat Sep 24 01:40:00 PDT 2022 ON: 20.02 +20.0 19.89 -12.0 31.1 06 0A 1C19 0918 Alarm State:  0
Sat Sep 24 01:38:58 PDT 2022 ON: 20.02 +20.0 19.88 -11.9 31.3 06 0A 1B0E 0904 Alarm State:  0
Sat Sep 24 01:37:57 PDT 2022 ON: 20.03 +20.0 19.90 -12.2 31.1 07 09 1A04 0918 Alarm State:  0
Sat Sep 24 01:36:55 PDT 2022 ON: 20.02 +20.0 19.90 -12.5 30.7 0E 09 182C 0904 Alarm State:  0
Sat Sep 24 01:35:54 PDT 2022 ON: 20.02 +20.0 19.90 -12.1 30.9 06 09 1722 0918 Alarm State:  0
Sat Sep 24 01:34:52 PDT 2022 ON: 20.01 +20.0 19.88 -11.6 31.4 05 0A 1617 0904 Alarm State:  0
Sat Sep 24 01:33:51 PDT 2022 ON: 20.02 +20.0 19.88 -11.9 31.2 09 0A 150D 0918 Alarm State:  0
Sat Sep 24 01:32:49 PDT 2022 ON: 20.02 +20.0 19.89 -12.6 30.8 01 0A 1402 0904 Alarm State:  0
Sat Sep 24 01:31:48 PDT 2022 ON: 20.02 +20.0 19.90 -12.7 30.3 0E 09 122B 0918 Alarm State:  0
Sat Sep 24 01:30:46 PDT 2022 ON: 20.00 +20.0 19.88 -11.8 31.0 06 0A 120B 0904 Alarm State:  0
Sat Sep 24 01:29:45 PDT 2022 ON: 20.00 +20.0 19.86 -11.1 31.6 01 0B 122C 0918 Alarm State:  0
Sat Sep 24 01:28:43 PDT 2022 ON: 20.03 +20.0 19.90 -12.7 30.2 04 09 1125 0904 Alarm State:  0
Sat Sep 24 01:27:42 PDT 2022 ON: 20.01 +20.0 19.90 -12.4 30.5 0D 09 101B 0918 Alarm State:  0
Sat Sep 24 01:26:40 PDT 2022 ON: 19.99 +20.0 19.87 -11.3 31.4 04 0B 1112 0902 Alarm State:  0
Sat Sep 24 01:25:39 PDT 2022 ON: 20.00 +20.0 19.88 -11.4 31.4 08 0A 120A 090C Alarm State:  0
Sat Sep 24 01:24:37 PDT 2022 ON: 20.01 +20.0 19.87 -11.4 31.3 02 0B 1315 091B Alarm State:  0
Sat Sep 24 01:23:36 PDT 2022 ON: 20.00 +20.0 19.87 -11.4 31.3 05 0B 132E 0906 Alarm State:  0
Sat Sep 24 01:22:34 PDT 2022 ON: 19.99 +20.0 19.87 -11.3 31.4 04 0B 1419 0913 Alarm State:  0
Sat Sep 24 01:21:33 PDT 2022 ON: 20.00 +20.0 19.87 -11.3 31.4 04 0B 151F 0913 Alarm State:  0
Sat Sep 24 01:20:31 PDT 2022 ON: 20.00 +20.0 19.87 -11.4 31.4 05 0B 1610 0928 Alarm State:  0
Sat Sep 24 01:19:30 PDT 2022 ON: 20.00 +20.0 19.88 -11.5 31.2 02 0A 1706 0913 Alarm State:  0
Sat Sep 24 01:18:28 PDT 2022 ON: 20.00 +20.0 19.88 -11.4 31.3 05 0A 1730 0928 Alarm State:  0
Sat Sep 24 01:17:27 PDT 2022 ON: 20.00 +20.0 19.86 -11.3 31.4 04 0B 1907 0928 Alarm State:  0
Sat Sep 24 01:16:25 PDT 2022 ON: 20.00 +20.0 19.87 -11.3 31.4 05 0B 1931 0914 Alarm State:  0
Sat Sep 24 01:15:24 PDT 2022 ON: 20.01 +20.0 19.88 -11.4 31.3 06 0A 1A07 0928 Alarm State:  0
Sat Sep 24 01:14:22 PDT 2022 ON: 20.00 +20.0 19.87 -11.4 31.3 09 0B 1B0E 090E Alarm State:  0
Sat Sep 24 01:13:21 PDT 2022 ON: 20.00 +20.0 19.88 -11.3 31.4 05 0A 1C14 091A Alarm State:  0
Sat Sep 24 01:12:19 PDT 2022 ON: 20.00 +20.0 19.87 -11.2 31.4 05 0B 1D1F 0900 Alarm State:  0
Sat Sep 24 01:11:18 PDT 2022 ON: 20.00 +20.0 19.87 -11.3 31.5 05 0B 1E19 0900 Alarm State:  0
Sat Sep 24 01:10:16 PDT 2022 ON: 20.00 +20.0 19.87 -11.4 31.3 09 0B 1F14 0911 Alarm State:  0
Sat Sep 24 01:09:15 PDT 2022 ON: 20.00 +20.0 19.87 -11.5 31.2 06 0B 2010 0921 Alarm State:  0
Sat Sep 24 01:08:13 PDT 2022 ON: 20.00 +20.0 19.87 -11.2 31.4 05 0B 211B 0918 Alarm State:  0
Sat Sep 24 01:07:12 PDT 2022 ON: 20.00 +20.0 19.86 -11.1 31.5 00 0B 2225 0916 Alarm State:  0
Sat Sep 24 01:06:10 PDT 2022 ON: 20.01 +20.0 19.87 -11.4 31.4 06 0B 2312 0923 Alarm State:  0
Sat Sep 24 01:05:09 PDT 2022 ON: 20.00 +20.0 19.87 -11.6 31.1 06 0B 2321 090E Alarm State:  0
Sat Sep 24 01:04:07 PDT 2022 ON: 20.01 +20.0 19.89 -11.4 31.2 00 0A 2303 0A23 Alarm State:  0
Sat Sep 24 01:03:06 PDT 2022 ON: 19.99 +20.0 19.86 -10.9 31.6 04 0C 2403 0A1B Alarm State:  0
Sat Sep 24 01:02:04 PDT 2022 ON: 19.99 +20.0 19.86 -10.8 31.7 04 0C 250E 0A03 Alarm State:  0
Sat Sep 24 01:01:03 PDT 2022 ON: 20.01 +20.0 19.88 -11.4 31.2 00 0A 2602 091B Alarm State:  0
Sat Sep 24 01:00:01 PDT 2022 ON: 20.00 +20.0 19.88 -11.9 31.2 00 0A 242A 0907 Alarm State:  0
Sat Sep 24 00:58:59 PDT 2022 ON: 20.00 +20.0 19.88 -11.8 31.2 07 0A 241F 091B Alarm State:  0
Sat Sep 24 00:57:58 PDT 2022 ON: 20.01 +20.0 19.88 -11.8 31.2 07 0A 2403 0907 Alarm State:  0
Sat Sep 24 00:56:56 PDT 2022 ON: 20.01 +20.0 19.88 -11.9 31.1 06 0A 222E 091B Alarm State:  0
Sat Sep 24 00:55:55 PDT 2022 ON: 20.01 +20.0 19.88 -11.9 31.1 0A 0A 220C 0907 Alarm State:  0
Sat Sep 24 00:54:53 PDT 2022 ON: 20.01 +20.0 19.88 -11.9 31.1 0A 0A 2124 091B Alarm State:  0
Sat Sep 24 00:53:52 PDT 2022 ON: 20.00 +20.0 19.88 -11.9 31.1 06 0A 2023 0907 Alarm State:  0
Sat Sep 24 00:52:50 PDT 2022 ON: 20.01 +20.0 19.88 -11.8 31.2 0D 0A 201A 091B Alarm State:  0
Sat Sep 24 00:51:49 PDT 2022 ON: 20.01 +20.0 19.88 -11.9 31.2 06 0A 1F1F 0907 Alarm State:  0
Sat Sep 24 00:50:47 PDT 2022 ON: 20.01 +20.0 19.89 -11.9 31.1 06 0A 1E1B 091B Alarm State:  0
Sat Sep 24 00:49:46 PDT 2022 ON: 20.01 +20.0 19.88 -11.9 31.1 06 0A 1D2A 0907 Alarm State:  0
Sat Sep 24 00:48:44 PDT 2022 ON: 20.01 +20.0 19.88 -11.9 31.1 06 0A 1D21 091B Alarm State:  0
Sat Sep 24 00:47:43 PDT 2022 ON: 20.00 +20.0 19.88 -11.8 31.2 0A 0A 1C2C 0907 Alarm State:  0
Sat Sep 24 00:46:41 PDT 2022 ON: 20.01 +20.0 19.88 -11.8 31.2 06 0A 1C23 091B Alarm State:  0
Sat Sep 24 00:45:40 PDT 2022 ON: 20.01 +20.0 19.88 -11.9 31.2 0A 0A 1C05 0907 Alarm State:  0
Sat Sep 24 00:44:38 PDT 2022 ON: 20.01 +20.0 19.88 -11.9 31.1 06 0A 1B01 091B Alarm State:  0
Sat Sep 24 00:43:37 PDT 2022 ON: 20.01 +20.0 19.88 -11.9 31.1 06 0A 1929 0907 Alarm State:  0
Sat Sep 24 00:42:35 PDT 2022 ON: 20.00 +20.0 19.88 -11.9 31.1 00 0A 1A04 091C Alarm State:  0
Sat Sep 24 00:41:34 PDT 2022 ON: 20.01 +20.0 19.88 -11.9 31.2 06 0A 1A15 0907 Alarm State:  0
Sat Sep 24 00:40:32 PDT 2022 ON: 20.01 +20.0 19.87 -11.8 31.2 06 0B 1932 091C Alarm State:  0
Sat Sep 24 00:39:31 PDT 2022 ON: 20.01 +20.0 19.89 -11.9 31.2 06 0A 1828 0907 Alarm State:  0
Sat Sep 24 00:38:29 PDT 2022 ON: 20.01 +20.0 19.88 -11.9 31.2 06 0A 1725 091C Alarm State:  0